Provisional Data: Young Woman's Creek near North Bend, PA


Please select a monitoring station.
Please select start date.
Please select start date.

Toggle Unit: C/F Toggle Unit: C/F
Sample Time Temperature (C) Temperature (F) Specific Conductivity (mS/cm) pH   Turbidity (NTU+) DO (mg/L)
10/17/2022 12:00:00 AM 9.5 49.1 0.038 6.82 3.99 10.68
10/17/2022 12:15:00 AM 9.48 49.064 0.038 6.8 3.95 10.68
10/17/2022 12:30:00 AM 9.44 48.992 0.038 6.8 4.09 10.65
10/17/2022 12:45:00 AM 9.37 48.866 0.038 6.81 4.16 10.71
10/17/2022 1:00:00 AM 9.32 48.776 0.038 6.8 4.19 10.71
10/17/2022 1:15:00 AM 9.28 48.704 0.039 6.8 4.01 10.73
10/17/2022 1:30:00 AM 9.23 48.614 0.039 6.81 4 10.76
10/17/2022 1:45:00 AM 9.19 48.542 0.039 6.8 4 10.75
10/17/2022 2:00:00 AM 9.15 48.47 0.039 6.8 4.03 10.77
10/17/2022 2:15:00 AM 9.08 48.344 0.039 6.81 3.96 10.8
10/17/2022 2:30:00 AM 9.08 48.344 0.039 6.8 4 10.79
10/17/2022 2:45:00 AM 9.02 48.236 0.039 6.8 3.98 10.82
10/17/2022 3:00:00 AM 8.99 48.182 0.039 6.8 3.92 10.81
10/17/2022 3:15:00 AM 8.92 48.056 0.039 6.8 4.18 10.84
10/17/2022 3:30:00 AM 8.91 48.038 0.039 6.8 4.27 10.83
10/17/2022 3:45:00 AM 8.84 47.912 0.038 6.8 3.93 10.86
10/17/2022 4:00:00 AM 8.82 47.876 0.038 6.8 4.63 10.87
10/17/2022 4:15:00 AM 8.77 47.786 0.038 6.81 3.91 10.88
10/17/2022 4:30:00 AM 8.76 47.768 0.039 6.8 4.05 10.88
10/17/2022 4:45:00 AM 8.72 47.696 0.038 6.79 4.09 10.89
10/17/2022 5:00:00 AM 8.7 47.66 0.038 6.8 3.9 10.87
10/17/2022 5:15:00 AM 8.69 47.642 0.038 6.79 3.86 10.87
10/17/2022 5:30:00 AM 8.63 47.534 0.038 6.8 4.13 10.93
10/17/2022 5:45:00 AM 8.61 47.498 0.038 6.79 4.04 10.89
10/17/2022 6:00:00 AM 8.6 47.48 0.038 6.79 4.06 10.89
10/17/2022 6:15:00 AM 8.54 47.372 0.038 6.79 3.95 10.93
10/17/2022 6:30:00 AM 8.52 47.336 0.038 6.79 3.97 10.95
10/17/2022 6:45:00 AM 8.49 47.282 0.038 6.79 3.97 10.96
10/17/2022 7:00:00 AM 8.49 47.282 0.038 6.78 4.14 10.94
10/17/2022 7:15:00 AM 8.47 47.246 0.038 6.79 4 10.96
10/17/2022 7:30:00 AM 8.48 47.264 0.038 6.78 4.03 10.96
10/17/2022 7:45:00 AM 8.45 47.21 0.038 6.79 3.94 10.96
10/17/2022 8:00:00 AM 8.43 47.174 0.038 6.79 3.93 11.01
10/17/2022 8:15:00 AM 8.42 47.156 0.038 6.79 4.11 11
10/17/2022 8:30:00 AM 8.42 47.156 0.038 6.8 3.92 11.05
10/17/2022 8:45:00 AM 8.43 47.174 0.038 6.81 3.92 11.07
10/17/2022 9:00:00 AM 8.42 47.156 0.038 6.83 3.94 11.11
10/17/2022 9:15:00 AM 8.45 47.21 0.038 6.82 3.9 11.11
10/17/2022 9:30:00 AM 8.44 47.192 0.038 6.84 3.74 11.16
10/17/2022 9:45:00 AM 8.46 47.228 0.038 6.83 3.85 11.16
10/17/2022 10:00:00 AM 8.48 47.264 0.038 6.84 3.72 11.19
10/17/2022 10:15:00 AM 8.5 47.3 0.038 6.85 3.84 11.19
10/17/2022 10:30:00 AM 8.54 47.372 0.038 6.85 3.78 11.17
10/17/2022 10:45:00 AM 8.57 47.426 0.038 6.87 3.77 11.24
10/17/2022 11:00:00 AM 8.64 47.552 0.038 6.87 3.74 11.24
10/17/2022 11:15:00 AM 8.72 47.696 0.038 6.89 3.81 11.24
10/17/2022 11:30:00 AM 8.83 47.894 0.037 6.9 3.79 11.23
10/17/2022 11:45:00 AM 8.93 48.074 0.037 6.9 3.88 11.21
10/17/2022 12:00:00 PM 9.03 48.254 0.037 6.92 3.75 11.22
10/17/2022 12:15:00 PM 9.11 48.398 0.037 6.91 3.79 11.17
10/17/2022 12:30:00 PM 9.17 48.506 0.037 6.91 3.87 11.12
10/17/2022 12:45:00 PM 9.24 48.632 0.037 6.92 3.84 11.12
10/17/2022 1:00:00 PM 9.29 48.722 0.037 6.9 3.82 11.06
10/17/2022 1:15:00 PM 9.35 48.83 0.037 6.9 4.26 11.05
10/17/2022 1:30:00 PM 9.41 48.938 0.037 6.9 4.02 11.03
10/17/2022 1:45:00 PM 9.47 49.046 0.037 6.92 3.79 11.02
10/17/2022 2:00:00 PM 9.56 49.208 0.037 6.91 3.91 10.97
10/17/2022 2:15:00 PM 9.64 49.352 0.037 6.92 3.91 10.97
10/17/2022 2:30:00 PM 9.74 49.532 0.037 6.91 3.82 10.93
10/17/2022 2:45:00 PM 9.77 49.586 0.037 6.91 3.85 10.9
10/17/2022 3:00:00 PM 9.8 49.64 0.037 6.92 3.93 10.91
10/17/2022 3:15:00 PM 9.81 49.658 0.037 6.92 3.9 10.87
10/17/2022 3:30:00 PM 9.81 49.658 0.037 6.94 5.04 10.9
10/17/2022 3:45:00 PM 9.81 49.658 0.037 6.9 4.64 10.83
10/17/2022 4:00:00 PM 9.82 49.676 0.037 6.91 4.1 10.81
10/17/2022 4:15:00 PM 9.82 49.676 0.037 6.9 3.9 10.79
10/17/2022 4:30:00 PM 9.84 49.712 0.037 6.9 4.04 10.77
10/17/2022 4:45:00 PM 9.83 49.694 0.037 6.91 3.82 10.75
10/17/2022 5:00:00 PM 9.83 49.694 0.037 6.9 3.98 10.7
10/17/2022 5:15:00 PM 9.82 49.676 0.037 6.89 4.12 10.68
10/17/2022 5:30:00 PM 9.8 49.64 0.037 6.88 3.83 10.7
10/17/2022 5:45:00 PM 9.79 49.622 0.037 6.88 3.86 10.65
10/17/2022 6:00:00 PM 9.75 49.55 0.037 6.88 3.84 10.63
10/17/2022 6:15:00 PM 9.71 49.478 0.037 6.87 3.86 10.61
10/17/2022 6:30:00 PM 9.7 49.46 0.038 6.85 3.93 10.57
10/17/2022 6:45:00 PM 9.68 49.424 0.038 6.84 3.95 10.53
10/17/2022 7:00:00 PM 9.68 49.424 0.038 6.83 3.89 10.53
10/17/2022 7:15:00 PM 9.64 49.352 0.038 6.83 3.9 10.52
10/17/2022 7:30:00 PM 9.61 49.298 0.038 6.83 3.91 10.55
10/17/2022 7:45:00 PM 9.57 49.226 0.038 6.83 3.86 10.54
10/17/2022 8:00:00 PM 9.57 49.226 0.038 6.82 3.91 10.51
10/17/2022 8:15:00 PM 9.52 49.136 0.038 6.84 3.89 10.57
10/17/2022 8:30:00 PM 9.49 49.082 0.038 6.82 4.06 10.56
10/17/2022 8:45:00 PM 9.44 48.992 0.038 6.83 4.01 10.59
10/17/2022 9:00:00 PM 9.4 48.92 0.038 6.83 4.24 10.6
10/17/2022 9:15:00 PM 9.35 48.83 0.038 6.82 3.87 10.6
10/17/2022 9:30:00 PM 9.3 48.74 0.038 6.84 3.84 10.64
10/17/2022 9:45:00 PM 9.25 48.65 0.038 6.83 3.95 10.64
10/17/2022 10:00:00 PM 9.21 48.578 0.038 6.82 3.85 10.67
10/17/2022 10:15:00 PM 9.15 48.47 0.038 6.83 4.11 10.66
10/17/2022 10:30:00 PM 9.07 48.326 0.038 6.83 3.89 10.7
10/17/2022 10:45:00 PM 9.01 48.218 0.038 6.82 3.94 10.69
10/17/2022 11:00:00 PM 8.96 48.128 0.039 6.82 3.89 10.7
10/17/2022 11:15:00 PM 8.88 47.984 0.039 6.82 3.88 10.74
10/17/2022 11:30:00 PM 8.8 47.84 0.039 6.82 3.87 10.77
10/17/2022 11:45:00 PM 8.73 47.714 0.039 6.82 3.85 10.8
10/18/2022 12:00:00 AM 8.66 47.588 0.039 6.83 3.86 10.82
10/18/2022 12:15:00 AM 8.59 47.462 0.039 6.83 3.89 10.83
10/18/2022 12:30:00 AM 8.51 47.318 0.039 6.83 3.86 10.86
10/18/2022 12:45:00 AM 8.42 47.156 0.039 6.82 3.85 10.89
10/18/2022 1:00:00 AM 8.39 47.102 0.039 6.79 9.67 10.84
10/18/2022 1:15:00 AM 8.3 46.94 0.039 6.79 6.18 10.88
10/18/2022 1:30:00 AM 8.22 46.796 0.039 6.8 5.66 10.92
10/18/2022 1:45:00 AM 8.16 46.688 0.039 6.79 5.56 10.93
10/18/2022 2:00:00 AM 8.09 46.562 0.039 6.79 5.67 10.97
10/18/2022 2:15:00 AM 8 46.4 0.039 6.78 5.84 11.01
10/18/2022 2:30:00 AM 7.92 46.256 0.039 6.79 5.67 11.01
10/18/2022 2:45:00 AM 7.85 46.13 0.039 6.78 5.74 11.05
10/18/2022 3:00:00 AM 7.77 45.986 0.039 6.78 5.63 11.08
10/18/2022 3:15:00 AM 7.71 45.878 0.039 6.78 5.62 11.1
10/18/2022 3:30:00 AM 7.63 45.734 0.039 6.78 5.52 11.14
10/18/2022 3:45:00 AM 7.58 45.644 0.039 6.78 5.49 11.13
10/18/2022 4:00:00 AM 7.49 45.482 0.039 6.78 5.48 11.16
10/18/2022 4:15:00 AM 7.44 45.392 0.039 6.78 5.5 11.19
10/18/2022 4:30:00 AM 7.42 45.356 0.039 6.77 5.52 11.17
10/18/2022 4:45:00 AM 7.31 45.158 0.039 6.78 5.41 11.24
10/18/2022 5:00:00 AM 7.26 45.068 0.039 6.78 5.45 11.25
10/18/2022 5:15:00 AM 7.21 44.978 0.039 6.77 5.92 11.24
10/18/2022 5:30:00 AM 7.16 44.888 0.039 6.78 5.54 11.27
10/18/2022 5:45:00 AM 7.11 44.798 0.039 6.78 5.54 11.29
10/18/2022 6:00:00 AM 7.03 44.654 0.039 6.79 5.45 11.31
10/18/2022 6:15:00 AM 6.99 44.582 0.039 6.78 5.46 11.34
10/18/2022 6:30:00 AM 6.94 44.492 0.039 6.78 5.63 11.35
10/18/2022 6:45:00 AM 6.92 44.456 0.039 6.79 5.52 11.36
10/18/2022 7:00:00 AM 6.9 44.42 0.039 6.79 5.51 11.37
10/18/2022 7:15:00 AM 6.84 44.312 0.039 6.79 5.87 11.39
10/18/2022 7:30:00 AM 6.78 44.204 0.039 6.78 7 11.41
10/18/2022 7:45:00 AM 6.75 44.15 0.039 6.79 6.29 11.46
10/18/2022 8:00:00 AM 6.72 44.096 0.039 6.8 4.31 11.48
10/18/2022 8:15:00 AM 6.72 44.096 0.039 6.8 4.4 11.49
10/18/2022 8:30:00 AM 6.72 44.096 0.039 6.81 3.86 11.53
10/18/2022 8:45:00 AM 6.72 44.096 0.038 6.81 3.88 11.52
10/18/2022 9:00:00 AM 6.72 44.096 0.038 6.82 4.19 11.53
10/18/2022 9:15:00 AM 6.73 44.114 0.038 6.83 4.45 11.57
10/18/2022 9:30:00 AM 6.74 44.132 0.038 6.84 3.93 11.62
10/18/2022 9:45:00 AM 6.79 44.222 0.038 6.83 3.82 11.59
10/18/2022 10:00:00 AM 6.79 44.222 0.038 6.85 3.89 11.65
10/18/2022 10:15:00 AM 6.81 44.258 0.038 6.85 3.82 11.64
10/18/2022 10:30:00 AM 6.84 44.312 0.038 6.85 3.83 11.62
10/18/2022 10:45:00 AM 6.86 44.348 0.038 6.87 3.79 11.66
10/18/2022 11:00:00 AM 6.89 44.402 0.038 6.87 3.99 11.67
10/18/2022 11:15:00 AM 6.93 44.474 0.038 6.87 3.81 11.67
10/18/2022 11:30:00 AM 6.98 44.564 0.038 6.89 3.91 11.66
10/18/2022 11:45:00 AM 7.01 44.618 0.038 6.89 3.83 11.65
10/18/2022 12:00:00 PM 7.05 44.69 0.038 6.88 3.83 11.66
10/18/2022 12:15:00 PM 7.08 44.744 0.038 6.9 3.76 11.66
10/18/2022 12:30:00 PM 7.12 44.816 0.038 6.9 3.82 11.67
10/18/2022 12:45:00 PM 7.13 44.834 0.038 6.9 4.08 11.63
10/18/2022 1:00:00 PM 7.16 44.888 0.038 6.9 3.77 11.62
10/18/2022 1:15:00 PM 7.2 44.96 0.038 6.89 3.85 11.57
10/18/2022 1:30:00 PM 7.22 44.996 0.038 6.9 3.78 11.6
10/18/2022 1:45:00 PM 7.26 45.068 0.038 6.9 3.85 11.55
10/18/2022 2:00:00 PM 7.29 45.122 0.038 6.89 4 11.52
10/18/2022 2:15:00 PM 7.3 45.14 0.038 6.89 3.84 11.51
10/18/2022 2:30:00 PM 7.34 45.212 0.038 6.9 3.96 11.53
10/18/2022 2:45:00 PM 7.37 45.266 0.038 6.89 3.78 11.48
10/18/2022 3:00:00 PM 7.41 45.338 0.037 6.89 3.86 11.52
10/18/2022 3:15:00 PM 7.45 45.41 0.037 6.89 3.94 11.51
10/18/2022 3:30:00 PM 7.5 45.5 0.037 6.9 3.83 11.48
10/18/2022 3:45:00 PM 7.52 45.536 0.037 6.89 4.03 11.45
10/18/2022 4:00:00 PM 7.54 45.572 0.037 6.89 3.83 11.41
10/18/2022 4:15:00 PM 7.57 45.626 0.037 6.89 3.87 11.41
10/18/2022 4:30:00 PM 7.6 45.68 0.037 6.88 3.82 11.41
10/18/2022 4:45:00 PM 7.62 45.716 0.037 6.88 3.85 11.39
10/18/2022 5:00:00 PM 7.64 45.752 0.037 6.88 3.81 11.35
10/18/2022 5:15:00 PM 7.67 45.806 0.037 6.88 3.86 11.37
10/18/2022 5:30:00 PM 7.68 45.824 0.037 6.88 3.95 11.36
10/18/2022 5:45:00 PM 7.7 45.86 0.037 6.87 4.64 11.32
10/18/2022 6:00:00 PM 7.7 45.86 0.038 6.87 3.96 11.3
10/18/2022 6:15:00 PM 7.72 45.896 0.038 6.87 3.93 11.25
10/18/2022 6:30:00 PM 7.71 45.878 0.038 6.87 3.85 11.24
10/18/2022 6:45:00 PM 7.71 45.878 0.038 6.86 3.83 11.2
10/18/2022 7:00:00 PM 7.71 45.878 0.038 6.86 3.88 11.19
10/18/2022 7:15:00 PM 7.73 45.914 0.038 6.85 4.16 11.17
10/18/2022 7:30:00 PM 7.72 45.896 0.038 6.85 4.33 11.17
10/18/2022 7:45:00 PM 7.73 45.914 0.038 6.84 3.94 11.16
10/18/2022 8:00:00 PM 7.72 45.896 0.038 6.85 3.95 11.17
10/18/2022 8:15:00 PM 7.71 45.878 0.038 6.85 3.91 11.17
10/18/2022 8:30:00 PM 7.71 45.878 0.038 6.84 3.91 11.16
10/18/2022 8:45:00 PM 7.71 45.878 0.038 6.84 3.9 11.16
10/18/2022 9:00:00 PM 7.7 45.86 0.038 6.84 3.95 11.16
10/18/2022 9:15:00 PM 7.68 45.824 0.038 6.83 3.92 11.18
10/18/2022 9:30:00 PM 7.68 45.824 0.038 6.83 3.89 11.17
10/18/2022 9:45:00 PM 7.68 45.824 0.038 6.83 3.87 11.15
10/18/2022 10:00:00 PM 7.68 45.824 0.038 6.83 3.9 11.16
10/18/2022 10:15:00 PM 7.68 45.824 0.038 6.82 3.91 11.16
10/18/2022 10:30:00 PM 7.65 45.77 0.038 6.83 3.94 11.19
10/18/2022 10:45:00 PM 7.63 45.734 0.038 6.83 3.98 11.19
10/18/2022 11:00:00 PM 7.63 45.734 0.038 6.83 3.84 11.18
10/18/2022 11:15:00 PM 7.63 45.734 0.038 6.83 3.87 11.18
10/18/2022 11:30:00 PM 7.62 45.716 0.038 6.83 3.91 11.18
10/18/2022 11:45:00 PM 7.61 45.698 0.038 6.83 3.85 11.18
10/19/2022 12:00:00 AM 7.59 45.662 0.038 6.83 3.98 11.18
10/19/2022 12:15:00 AM 7.58 45.644 0.038 6.82 3.98 11.16
10/19/2022 12:30:00 AM 7.56 45.608 0.038 6.83 3.88 11.2
10/19/2022 12:45:00 AM 7.56 45.608 0.038 6.83 3.93 11.2
10/19/2022 1:00:00 AM 7.55 45.59 0.038 6.83 4.04 11.21
10/19/2022 1:15:00 AM 7.54 45.572 0.038 6.83 4.13 11.19
10/19/2022 1:30:00 AM 7.53 45.554 0.038 6.83 3.89 11.2
10/19/2022 1:45:00 AM 7.52 45.536 0.038 6.83 3.94 11.22
10/19/2022 2:00:00 AM 7.51 45.518 0.038 6.82 3.92 11.22
10/19/2022 2:15:00 AM 7.51 45.518 0.038 6.82 3.97 11.2
10/19/2022 2:30:00 AM 7.49 45.482 0.038 6.83 3.99 11.23
10/19/2022 2:45:00 AM 7.49 45.482 0.038 6.83 3.99 11.22
10/19/2022 3:00:00 AM 7.49 45.482 0.038 6.82 3.88 11.22
10/19/2022 3:15:00 AM 7.47 45.446 0.038 6.82 4.09 11.21
10/19/2022 3:30:00 AM 7.46 45.428 0.038 6.82 3.83 11.24
10/19/2022 3:45:00 AM 7.45 45.41 0.038 6.82 3.87 11.23
10/19/2022 4:00:00 AM 7.43 45.374 0.038 6.82 3.84 11.23
10/19/2022 4:15:00 AM 7.41 45.338 0.038 6.83 3.93 11.23
10/19/2022 4:30:00 AM 7.4 45.32 0.038 6.82 3.99 11.23
10/19/2022 4:45:00 AM 7.37 45.266 0.038 6.83 3.95 11.25
10/19/2022 5:00:00 AM 7.34 45.212 0.038 6.83 3.84 11.28
10/19/2022 5:15:00 AM 7.34 45.212 0.038 6.82 3.85 11.25
10/19/2022 5:30:00 AM 7.32 45.176 0.038 6.82 4.12 11.25
10/19/2022 5:45:00 AM 7.31 45.158 0.038 6.82 4.65 11.28
10/19/2022 6:00:00 AM 7.3 45.14 0.038 6.82 4.11 11.27
10/19/2022 6:15:00 AM 7.3 45.14 0.038 6.82 3.94 11.25
10/19/2022 6:30:00 AM 7.27 45.086 0.038 6.82 3.84 11.29
10/19/2022 6:45:00 AM 7.27 45.086 0.038 6.81 3.91 11.28
10/19/2022 7:00:00 AM 7.26 45.068 0.038 6.81 4.28 11.26
10/19/2022 7:15:00 AM 7.23 45.014 0.038 6.81 4.09 11.25
10/19/2022 7:30:00 AM 7.21 44.978 0.038 6.82 3.86 11.28
10/19/2022 7:45:00 AM 7.21 44.978 0.038 6.82 3.83 11.31
10/19/2022 8:00:00 AM 7.19 44.942 0.038 6.82 3.96 11.36
10/19/2022 8:15:00 AM 7.2 44.96 0.038 6.82 3.85 11.35
10/19/2022 8:30:00 AM 7.2 44.96 0.038 6.83 3.79 11.39
10/19/2022 8:45:00 AM 7.2 44.96 0.038 6.84 3.87 11.41
10/19/2022 9:00:00 AM 7.21 44.978 0.038 6.84 3.87 11.42
10/19/2022 9:15:00 AM 7.19 44.942 0.038 6.85 4.15 11.43
10/19/2022 9:30:00 AM 7.18 44.924 0.038 6.85 3.85 11.47
10/19/2022 9:45:00 AM 7.18 44.924 0.038 6.84 3.88 11.49
10/19/2022 10:00:00 AM 7.19 44.942 0.038 6.85 4.11 11.47
10/19/2022 10:15:00 AM 7.18 44.924 0.038 6.86 3.85 11.5
10/19/2022 10:30:00 AM 7.19 44.942 0.038 6.86 3.97 11.52
10/19/2022 10:45:00 AM 7.22 44.996 0.038 6.86 3.83 11.51
10/19/2022 11:00:00 AM 7.23 45.014 0.038 6.87 3.9 11.57
10/19/2022 11:15:00 AM 7.26 45.068 0.038 6.87 3.91 11.57
10/19/2022 11:30:00 AM 7.26 45.068 0.038 6.89 3.91 11.58
10/19/2022 11:45:00 AM 7.27 45.086 0.038 6.89 3.91 11.61
10/19/2022 12:00:00 PM 7.29 45.122 0.038 6.89 3.81 11.59
10/19/2022 12:15:00 PM 7.33 45.194 0.038 6.88 4.01 11.59
10/19/2022 12:30:00 PM 7.36 45.248 0.038 6.89 3.9 11.6
10/19/2022 12:45:00 PM 7.4 45.32 0.037 6.9 3.87 11.61
10/19/2022 1:00:00 PM 7.43 45.374 0.037 6.9 3.88 11.59
10/19/2022 1:15:00 PM 7.45 45.41 0.037 6.9 3.87 11.57
10/19/2022 1:30:00 PM 7.47 45.446 0.037 6.89 3.85 11.56
10/19/2022 1:45:00 PM 7.5 45.5 0.037 6.89 3.81 11.56
10/19/2022 2:00:00 PM 7.52 45.536 0.037 6.9 3.89 11.55
10/19/2022 2:15:00 PM 7.54 45.572 0.037 6.9 3.92 11.55
10/19/2022 2:30:00 PM 7.57 45.626 0.037 6.9 3.9 11.55
10/19/2022 2:45:00 PM 7.62 45.716 0.037 6.9 3.85 11.56
10/19/2022 3:00:00 PM 7.67 45.806 0.037 6.91 3.85 11.53
10/19/2022 3:15:00 PM 7.72 45.896 0.037 6.92 3.87 11.55
10/19/2022 3:30:00 PM 7.76 45.968 0.037 6.91 3.84 11.49
10/19/2022 3:45:00 PM 7.79 46.022 0.037 6.9 3.83 11.48
10/19/2022 4:00:00 PM 7.81 46.058 0.037 6.91 3.89 11.46
10/19/2022 4:15:00 PM 7.82 46.076 0.037 6.9 5.25 11.43
10/19/2022 4:30:00 PM 7.83 46.094 0.037 6.89 3.96 11.39
10/19/2022 4:45:00 PM 7.83 46.094 0.037 6.9 3.91 11.4
10/19/2022 5:00:00 PM 7.86 46.148 0.037 6.89 3.97 11.39
10/19/2022 5:15:00 PM 7.87 46.166 0.037 6.9 3.88 11.38
10/19/2022 5:30:00 PM 7.87 46.166 0.037 6.9 3.91 11.35
10/19/2022 5:45:00 PM 7.86 46.148 0.037 6.89 3.94 11.33
10/19/2022 6:00:00 PM 7.85 46.13 0.037 6.88 3.87 11.32
10/19/2022 6:15:00 PM 7.84 46.112 0.037 6.87 3.88 11.28
10/19/2022 6:30:00 PM 7.83 46.094 0.037 6.87 3.95 11.23
10/19/2022 6:45:00 PM 7.81 46.058 0.037 6.86 3.95 11.21
10/19/2022 7:00:00 PM 7.78 46.004 0.038 6.86 3.96 11.2
10/19/2022 7:15:00 PM 7.77 45.986 0.038 6.86 3.98 11.2
10/19/2022 7:30:00 PM 7.76 45.968 0.038 6.84 4.11 11.19
10/19/2022 7:45:00 PM 7.76 45.968 0.038 6.83 3.9 11.17
10/19/2022 8:00:00 PM 7.76 45.968 0.038 6.83 3.94 11.18
10/19/2022 8:15:00 PM 7.75 45.95 0.038 6.83 3.89 11.17
10/19/2022 8:30:00 PM 7.75 45.95 0.038 6.83 4.04 11.18
10/19/2022 8:45:00 PM 7.73 45.914 0.038 6.84 3.9 11.18
10/19/2022 9:00:00 PM 7.71 45.878 0.038 6.84 3.88 11.23
10/19/2022 9:15:00 PM 7.72 45.896 0.038 6.83 3.91 11.2
10/19/2022 9:30:00 PM 7.7 45.86 0.038 6.84 3.9 11.22
10/19/2022 9:45:00 PM 7.69 45.842 0.038 6.84 3.98 11.21
10/19/2022 10:00:00 PM 7.7 45.86 0.038 6.83 3.98 11.2
10/19/2022 10:15:00 PM 7.68 45.824 0.038 6.83 3.9 11.22
10/19/2022 10:30:00 PM 7.68 45.824 0.038 6.83 4.01 11.23
10/19/2022 10:45:00 PM 7.69 45.842 0.038 6.83 3.92 11.19
10/19/2022 11:00:00 PM 7.68 45.824 0.038 6.83 4.01 11.22
10/19/2022 11:15:00 PM 7.69 45.842 0.038 6.82 3.95 11.21
10/19/2022 11:30:00 PM 7.65 45.77 0.038 6.84 4.76 11.25
10/19/2022 11:45:00 PM 7.66 45.788 0.038 6.83 3.98 11.23
10/20/2022 12:00:00 AM 7.64 45.752 0.038 6.83 4.01 11.25
10/20/2022 12:15:00 AM 7.65 45.77 0.038 6.83 3.91 11.23
10/20/2022 12:30:00 AM 7.63 45.734 0.038 6.82 3.97 11.24
10/20/2022 12:45:00 AM 7.62 45.716 0.038 6.83 3.97 11.24
10/20/2022 1:00:00 AM 7.62 45.716 0.038 6.83 3.94 11.25
10/20/2022 1:15:00 AM 7.6 45.68 0.038 6.83 3.91 11.26
10/20/2022 1:30:00 AM 7.61 45.698 0.038 6.83 4.09 11.24
10/20/2022 1:45:00 AM 7.59 45.662 0.038 6.83 4.03 11.26
10/20/2022 2:00:00 AM 7.57 45.626 0.038 6.83 3.97 11.26
10/20/2022 2:15:00 AM 7.56 45.608 0.038 6.83 3.96 11.27
10/20/2022 2:30:00 AM 7.56 45.608 0.038 6.82 3.91 11.25
10/20/2022 2:45:00 AM 7.52 45.536 0.038 6.83 3.93 11.26
10/20/2022 3:00:00 AM 7.52 45.536 0.038 6.82 3.93 11.27
10/20/2022 3:15:00 AM 7.46 45.428 0.038 6.83 3.92 11.29
10/20/2022 3:30:00 AM 7.44 45.392 0.038 6.82 3.91 11.31
10/20/2022 3:45:00 AM 7.4 45.32 0.038 6.82 3.92 11.31
10/20/2022 4:00:00 AM 7.36 45.248 0.038 6.82 3.94 11.32
10/20/2022 4:15:00 AM 7.33 45.194 0.038 6.82 3.97 11.33
10/20/2022 4:30:00 AM 7.3 45.14 0.038 6.82 3.97 11.32
10/20/2022 4:45:00 AM 7.24 45.032 0.038 6.82 3.92 11.35
10/20/2022 5:00:00 AM 7.22 44.996 0.038 6.81 4 11.35
10/20/2022 5:15:00 AM 7.17 44.906 0.038 6.82 3.89 11.36
10/20/2022 5:30:00 AM 7.1 44.78 0.038 6.82 3.94 11.39
10/20/2022 5:45:00 AM 7.08 44.744 0.038 6.81 3.95 11.4
10/20/2022 6:00:00 AM 7 44.6 0.038 6.82 3.99 11.41
10/20/2022 6:15:00 AM 6.93 44.474 0.038 6.82 4.01 11.46
10/20/2022 6:30:00 AM 6.88 44.384 0.038 6.82 4.38 11.49
10/20/2022 6:45:00 AM 6.84 44.312 0.038 6.82 3.98 11.49
10/20/2022 7:00:00 AM 6.82 44.276 0.038 6.82 4.42 11.49
10/20/2022 7:15:00 AM 6.78 44.204 0.038 6.81 4.23 11.48
10/20/2022 7:30:00 AM 6.71 44.078 0.038 6.81 4.18 11.51
10/20/2022 7:45:00 AM 6.66 43.988 0.038 6.81 4.19 11.56
10/20/2022 8:00:00 AM 6.61 43.898 0.038 6.82 4.05 11.57
10/20/2022 8:15:00 AM 6.58 43.844 0.038 6.82 3.88 11.61
10/20/2022 8:30:00 AM 6.55 43.79 0.038 6.82 3.88 11.63
10/20/2022 8:45:00 AM 6.5 43.7 0.038 6.83 3.87 11.67
10/20/2022 9:00:00 AM 6.48 43.664 0.038 6.83 3.85 11.69
10/20/2022 9:15:00 AM 6.46 43.628 0.038 6.82 3.92 11.73
10/20/2022 9:30:00 AM 6.41 43.538 0.038 6.82 3.9 11.75
10/20/2022 9:45:00 AM 6.4 43.52 0.038 6.83 3.84 11.79
10/20/2022 10:00:00 AM 6.4 43.52 0.038 6.85 3.86 11.84
10/20/2022 10:15:00 AM 6.41 43.538 0.038 6.85 3.96 11.83
10/20/2022 10:30:00 AM 6.41 43.538 0.038 6.86 3.91 11.87
10/20/2022 10:45:00 AM 6.42 43.556 0.038 6.87 3.81 11.89
10/20/2022 11:00:00 AM 6.48 43.664 0.038 6.88 3.82 11.91
10/20/2022 11:15:00 AM 6.52 43.736 0.038 6.88 3.86 11.93
10/20/2022 11:30:00 AM 6.57 43.826 0.038 6.9 3.83 11.94
10/20/2022 11:45:00 AM 6.64 43.952 0.038 6.9 3.87 11.92
10/20/2022 12:00:00 PM 6.69 44.042 0.038 6.91 3.81 11.93
10/20/2022 12:15:00 PM 6.74 44.132 0.038 6.91 3.83 11.92
10/20/2022 12:30:00 PM 6.79 44.222 0.038 6.9 3.83 11.88
10/20/2022 12:45:00 PM 6.83 44.294 0.037 6.92 3.83 11.89
10/20/2022 1:00:00 PM 6.88 44.384 0.037 6.92 3.89 11.86
10/20/2022 1:15:00 PM 6.95 44.51 0.037 6.93 3.79 11.84
10/20/2022 1:30:00 PM 7.02 44.636 0.037 6.93 3.79 11.82
10/20/2022 1:45:00 PM 7.1 44.78 0.037 6.93 4.06 11.79
10/20/2022 2:00:00 PM 7.3 45.14 0.037 6.94 3.78 11.8
10/20/2022 2:15:00 PM 7.45 45.41 0.037 6.92 3.82 11.75
10/20/2022 2:30:00 PM 7.55 45.59 0.037 6.93 3.82 11.73
10/20/2022 2:45:00 PM 7.61 45.698 0.037 6.93 3.99 11.69
10/20/2022 3:00:00 PM 7.62 45.716 0.037 6.92 3.78 11.66
10/20/2022 3:15:00 PM 7.64 45.752 0.037 6.92 3.88 11.62
10/20/2022 3:30:00 PM 7.67 45.806 0.037 6.92 3.86 11.6
10/20/2022 3:45:00 PM 7.67 45.806 0.037 6.92 3.88 11.56
10/20/2022 4:00:00 PM 7.67 45.806 0.037 6.92 3.84 11.54
10/20/2022 4:15:00 PM 7.71 45.878 0.037 6.9 3.9 11.49
10/20/2022 4:30:00 PM 7.73 45.914 0.037 6.91 3.8 11.47
10/20/2022 4:45:00 PM 7.76 45.968 0.037 6.91 3.86 11.47
10/20/2022 5:00:00 PM 7.79 46.022 0.037 6.91 3.83 11.45
10/20/2022 5:15:00 PM 7.82 46.076 0.037 6.9 3.84 11.4
10/20/2022 5:30:00 PM 7.84 46.112 0.037 6.89 3.85 11.39
10/20/2022 5:45:00 PM 7.86 46.148 0.037 6.88 3.82 11.33
10/20/2022 6:00:00 PM 7.87 46.166 0.037 6.88 4.02 11.31
10/20/2022 6:15:00 PM 7.87 46.166 0.037 6.87 3.85 11.28
10/20/2022 6:30:00 PM 7.86 46.148 0.037 6.86 3.92 11.25
10/20/2022 6:45:00 PM 7.85 46.13 0.038 6.86 3.87 11.25
10/20/2022 7:00:00 PM 7.83 46.094 0.038 6.85 3.9 11.23
10/20/2022 7:15:00 PM 7.84 46.112 0.038 6.84 3.86 11.2
10/20/2022 7:30:00 PM 7.83 46.094 0.038 6.85 3.88 11.2
10/20/2022 7:45:00 PM 7.83 46.094 0.038 6.83 3.93 11.19
10/20/2022 8:00:00 PM 7.83 46.094 0.038 6.84 3.94 11.19
10/20/2022 8:15:00 PM 7.83 46.094 0.038 6.84 3.98 11.19
10/20/2022 8:30:00 PM 7.83 46.094 0.038 6.83 3.97 11.18
10/20/2022 8:45:00 PM 7.84 46.112 0.038 6.83 3.97 11.17
10/20/2022 9:00:00 PM 7.83 46.094 0.038 6.83 3.91 11.18
10/20/2022 9:15:00 PM 7.82 46.076 0.038 6.83 4.07 11.19
10/20/2022 9:30:00 PM 7.82 46.076 0.038 6.82 3.88 11.17
10/20/2022 9:45:00 PM 7.82 46.076 0.038 6.82 3.95 11.18
10/20/2022 10:00:00 PM 7.82 46.076 0.038 6.81 3.91 11.17
10/20/2022 10:15:00 PM 7.82 46.076 0.038 6.82 3.88 11.17
10/20/2022 10:30:00 PM 7.79 46.022 0.038 6.83 3.87 11.2
10/20/2022 10:45:00 PM 7.77 45.986 0.038 6.82 3.92 11.21
10/20/2022 11:00:00 PM 7.76 45.968 0.038 6.82 4.03 11.19
10/20/2022 11:15:00 PM 7.75 45.95 0.038 6.82 4 11.21
10/20/2022 11:30:00 PM 7.72 45.896 0.038 6.83 4.1 11.23
10/20/2022 11:45:00 PM 7.69 45.842 0.038 6.83 4.12 11.26
10/21/2022 12:00:00 AM 7.69 45.842 0.038 6.83 3.92 11.26
10/21/2022 12:15:00 AM 7.68 45.824 0.038 6.83 3.92 11.25
10/21/2022 12:30:00 AM 7.6 45.68 0.038 6.83 3.87 11.29
10/21/2022 12:45:00 AM 7.56 45.608 0.039 6.83 3.91 11.3
10/21/2022 1:00:00 AM 7.52 45.536 0.039 6.83 3.9 11.3
10/21/2022 1:15:00 AM 7.46 45.428 0.039 6.83 3.86 11.34
10/21/2022 1:30:00 AM 7.42 45.356 0.039 6.83 3.95 11.34
10/21/2022 1:45:00 AM 7.37 45.266 0.039 6.83 3.93 11.33
10/21/2022 2:00:00 AM 7.32 45.176 0.039 6.83 3.83 11.35
10/21/2022 2:15:00 AM 7.27 45.086 0.039 6.82 3.87 11.38
10/21/2022 2:30:00 AM 7.19 44.942 0.039 6.83 4.18 11.43
10/21/2022 2:45:00 AM 7.13 44.834 0.039 6.83 3.96 11.43
10/21/2022 3:00:00 AM 7.08 44.744 0.039 6.83 3.91 11.45
10/21/2022 3:15:00 AM 7.02 44.636 0.039 6.82 3.97 11.47
10/21/2022 3:30:00 AM 6.96 44.528 0.039 6.83 3.91 11.51
10/21/2022 3:45:00 AM 6.9 44.42 0.039 6.82 3.88 11.5
10/21/2022 4:00:00 AM 6.85 44.33 0.039 6.82 3.92 11.53
10/21/2022 4:15:00 AM 6.78 44.204 0.039 6.82 3.89 11.57
10/21/2022 4:30:00 AM 6.72 44.096 0.039 6.84 3.87 11.59
10/21/2022 4:45:00 AM 6.67 44.006 0.039 6.84 3.94 11.6
10/21/2022 5:00:00 AM 6.61 43.898 0.039 6.83 3.97 11.62
10/21/2022 5:15:00 AM 6.57 43.826 0.039 6.83 3.86 11.63
10/21/2022 5:30:00 AM 6.5 43.7 0.039 6.83 3.93 11.66
10/21/2022 5:45:00 AM 6.44 43.592 0.039 6.82 3.99 11.69
10/21/2022 6:00:00 AM 6.39 43.502 0.039 6.82 3.89 11.71
10/21/2022 6:15:00 AM 6.35 43.43 0.039 6.81 4.14 11.72
10/21/2022 6:30:00 AM 6.3 43.34 0.039 6.81 3.87 11.72
10/21/2022 6:45:00 AM 6.23 43.214 0.039 6.8 3.94 11.75
10/21/2022 7:00:00 AM 6.18 43.124 0.039 6.81 3.96 11.78
10/21/2022 7:15:00 AM 6.13 43.034 0.039 6.81 3.86 11.8
10/21/2022 7:30:00 AM 6.08 42.944 0.039 6.8 3.88 11.83
10/21/2022 7:45:00 AM 6.03 42.854 0.039 6.8 3.89 11.85
10/21/2022 8:00:00 AM 5.98 42.764 0.039 6.8 3.84 11.87
10/21/2022 8:15:00 AM 5.93 42.674 0.039 6.81 3.92 11.9
10/21/2022 8:30:00 AM 5.87 42.566 0.038 6.81 4.29 11.97
10/21/2022 8:45:00 AM 5.85 42.53 0.038 6.81 3.97 11.99
10/21/2022 9:00:00 AM 5.81 42.458 0.038 6.82 3.98 12.01
10/21/2022 9:15:00 AM 5.79 42.422 0.038 6.82 4.04 12.03
10/21/2022 9:30:00 AM 5.75 42.35 0.038 6.82 3.96 12.05
10/21/2022 9:45:00 AM 5.7 42.26 0.038 6.83 3.95 12.08
10/21/2022 10:00:00 AM 5.69 42.242 0.038 6.83 4.24 12.08
10/21/2022 10:15:00 AM 5.7 42.26 0.038 6.82 3.97 12.09
10/21/2022 10:30:00 AM 5.7 42.26 0.038 6.83 3.95 12.1
10/21/2022 10:45:00 AM 5.71 42.278 0.038 6.83 3.95 12.1
10/21/2022 11:00:00 AM 5.74 42.332 0.038 6.84 4.01 12.11
10/21/2022 11:15:00 AM 5.82 42.476 0.038 6.84 4.07 12.11
10/21/2022 11:30:00 AM 5.89 42.602 0.038 6.86 4 12.12
10/21/2022 11:45:00 AM 6.01 42.818 0.038 6.87 4.2 12.13
10/21/2022 12:00:00 PM 6.17 43.106 0.038 6.87 3.98 12.1
10/21/2022 12:15:00 PM 6.33 43.394 0.038 6.87 3.96 12.03
10/21/2022 12:30:00 PM 6.53 43.754 0.038 6.89 4.22 12.06
10/21/2022 12:45:00 PM 6.7 44.06 0.038 6.9 3.91 11.96
10/21/2022 1:00:00 PM 6.91 44.438 0.038 6.91 3.99 11.94
10/21/2022 1:15:00 PM 7.15 44.87 0.038 6.91 4.07 11.87
10/21/2022 1:30:00 PM 7.39 45.302 0.038 6.92 3.93 11.82
10/21/2022 1:45:00 PM 7.6 45.68 0.038 6.93 3.94 11.77
10/21/2022 2:00:00 PM 7.76 45.968 0.038 6.93 3.92 11.75
10/21/2022 2:15:00 PM 7.84 46.112 0.038 6.93 3.94 11.68
10/21/2022 2:30:00 PM 7.92 46.256 0.038 6.92 4.08 11.6
10/21/2022 2:45:00 PM 7.97 46.346 0.038 6.92 4.04 11.56
10/21/2022 3:00:00 PM 8.03 46.454 0.038 6.92 4.11 11.52
10/21/2022 3:15:00 PM 8.05 46.49 0.038 6.93 3.91 11.46
10/21/2022 3:30:00 PM 8.09 46.562 0.038 6.92 3.94 11.44
10/21/2022 3:45:00 PM 8.12 46.616 0.038 6.92 3.95 11.4
10/21/2022 4:00:00 PM 8.16 46.688 0.038 6.91 3.9 11.37
10/21/2022 4:15:00 PM 8.18 46.724 0.038 6.9 3.94 11.32
10/21/2022 4:30:00 PM 8.19 46.742 0.038 6.91 4.04 11.27
10/21/2022 4:45:00 PM 8.18 46.724 0.038 6.91 4.02 11.25
10/21/2022 5:00:00 PM 8.18 46.724 0.038 6.9 3.96 11.21
10/21/2022 5:15:00 PM 8.17 46.706 0.038 6.89 3.99 11.2
10/21/2022 5:30:00 PM 8.17 46.706 0.038 6.88 3.98 11.18
10/21/2022 5:45:00 PM 8.16 46.688 0.038 6.88 3.95 11.18
10/21/2022 6:00:00 PM 8.16 46.688 0.038 6.88 4 11.17
10/21/2022 6:15:00 PM 8.16 46.688 0.038 6.88 4.35 11.14
10/21/2022 6:30:00 PM 8.14 46.652 0.038 6.88 3.97 11.14
10/21/2022 6:45:00 PM 8.13 46.634 0.038 6.87 4 11.1
10/21/2022 7:00:00 PM 8.12 46.616 0.038 6.86 4 11.08
10/21/2022 7:15:00 PM 8.11 46.598 0.038 6.86 3.96 11.1
10/21/2022 7:30:00 PM 8.1 46.58 0.038 6.86 3.94 11.09
10/21/2022 7:45:00 PM 8.08 46.544 0.038 6.85 3.99 11.06
10/21/2022 8:00:00 PM 8.07 46.526 0.038 6.85 4.08 11.07
10/21/2022 8:15:00 PM 8.06 46.508 0.038 6.85 4.1 11.07
10/21/2022 8:30:00 PM 8.05 46.49 0.038 6.84 4.1 11.03
10/21/2022 8:45:00 PM 8.03 46.454 0.038 6.83 3.97 11
10/21/2022 9:00:00 PM 8.02 46.436 0.038 6.84 4.09 11.02
10/21/2022 9:15:00 PM 8.01 46.418 0.038 6.84 3.95 11.05
10/21/2022 9:30:00 PM 7.99 46.382 0.038 6.83 4.03 11.04
10/21/2022 9:45:00 PM 7.97 46.346 0.038 6.83 4.07 11.05
10/21/2022 10:00:00 PM 7.95 46.31 0.038 6.81 4 11.01
10/21/2022 10:15:00 PM 7.91 46.238 0.039 6.83 4.1 11.09
10/21/2022 10:30:00 PM 7.9 46.22 0.039 6.82 4.01 11.05
10/21/2022 10:45:00 PM 7.88 46.184 0.039 6.82 4.08 11.08
10/21/2022 11:00:00 PM 7.83 46.094 0.039 6.84 4.02 11.11
10/21/2022 11:15:00 PM 7.8 46.04 0.039 6.84 4.01 11.16
10/21/2022 11:30:00 PM 7.75 45.95 0.039 6.84 4.04 11.18
10/21/2022 11:45:00 PM 7.72 45.896 0.039 6.84 3.98 11.21
10/22/2022 12:00:00 AM 7.66 45.788 0.039 6.84 4.04 11.22
10/22/2022 12:15:00 AM 7.62 45.716 0.039 6.83 4.19 11.22
10/22/2022 12:30:00 AM 7.59 45.662 0.039 6.83 4.38 11.23
10/22/2022 12:45:00 AM 7.54 45.572 0.039 6.83 4.02 11.25
10/22/2022 1:00:00 AM 7.48 45.464 0.039 6.84 3.96 11.29
10/22/2022 1:15:00 AM 7.43 45.374 0.039 6.84 3.97 11.28
10/22/2022 1:30:00 AM 7.37 45.266 0.039 6.84 4.02 11.33
10/22/2022 1:45:00 AM 7.32 45.176 0.039 6.82 4.07 11.28
10/22/2022 2:00:00 AM 7.27 45.086 0.039 6.84 4.07 11.33
10/22/2022 2:15:00 AM 7.22 44.996 0.039 6.84 4 11.37
10/22/2022 2:30:00 AM 7.18 44.924 0.039 6.83 3.99 11.38
10/22/2022 2:45:00 AM 7.11 44.798 0.039 6.84 4.06 11.43
10/22/2022 3:00:00 AM 7.05 44.69 0.039 6.84 4.04 11.41
10/22/2022 3:15:00 AM 7 44.6 0.039 6.83 4.02 11.43
10/22/2022 3:30:00 AM 6.94 44.492 0.039 6.83 4.06 11.45
10/22/2022 3:45:00 AM 6.89 44.402 0.039 6.83 4.02 11.47
10/22/2022 4:00:00 AM 6.84 44.312 0.039 6.83 3.95 11.47
10/22/2022 4:15:00 AM 6.79 44.222 0.039 6.83 4.04 11.5
10/22/2022 4:30:00 AM 6.74 44.132 0.039 6.84 3.98 11.5
10/22/2022 4:45:00 AM 6.69 44.042 0.039 6.83 3.99 11.53
10/22/2022 5:00:00 AM 6.63 43.934 0.039 6.82 3.97 11.55
10/22/2022 5:15:00 AM 6.58 43.844 0.039 6.83 4.07 11.57
10/22/2022 5:30:00 AM 6.51 43.718 0.039 6.84 3.98 11.61
10/22/2022 5:45:00 AM 6.45 43.61 0.039 6.84 3.95 11.65
10/22/2022 6:00:00 AM 6.48 43.664 0.039 6.81 3.95 11.54
10/22/2022 6:15:00 AM 6.41 43.538 0.039 6.82 4.01 11.59
10/22/2022 6:30:00 AM 6.31 43.358 0.039 6.84 4 11.69
10/22/2022 6:45:00 AM 6.29 43.322 0.039 6.83 3.99 11.66
10/22/2022 7:00:00 AM 6.23 43.214 0.039 6.82 3.97 11.72
10/22/2022 7:15:00 AM 6.18 43.124 0.039 6.83 4.05 11.75
10/22/2022 7:30:00 AM 6.16 43.088 0.039 6.83 4 11.76
10/22/2022 7:45:00 AM 6.11 42.998 0.039 6.84 3.96 11.79
10/22/2022 8:00:00 AM 6.05 42.89 0.039 6.82 4.09 11.79
10/22/2022 8:15:00 AM 6.03 42.854 0.039 6.83 3.95 11.83
10/22/2022 8:30:00 AM 5.98 42.764 0.039 6.82 3.95 11.87
10/22/2022 8:45:00 AM 5.96 42.728 0.039 6.83 3.98 11.89
10/22/2022 9:00:00 AM 5.91 42.638 0.039 6.82 4 11.95
10/22/2022 9:15:00 AM 5.9 42.62 0.039 6.81 4 11.9
10/22/2022 9:30:00 AM 5.89 42.602 0.039 6.81 3.95 11.94
10/22/2022 9:45:00 AM 5.85 42.53 0.039 6.84 3.93 12
10/22/2022 10:00:00 AM 5.85 42.53 0.039 6.83 3.93 11.98
10/22/2022 10:15:00 AM 5.83 42.494 0.039 6.83 3.97 12
10/22/2022 10:30:00 AM 5.87 42.566 0.039 6.82 3.97 11.98
10/22/2022 10:45:00 AM 5.87 42.566 0.039 6.84 4.09 12.05
10/22/2022 11:00:00 AM 5.9 42.62 0.038 6.86 4.07 12.06
10/22/2022 11:15:00 AM 5.95 42.71 0.038 6.86 4.07 12.09
10/22/2022 11:30:00 AM 6.04 42.872 0.038 6.87 3.95 12.08
10/22/2022 11:45:00 AM 6.14 43.052 0.038 6.88 3.94 12.05
10/22/2022 12:00:00 PM 6.28 43.304 0.038 6.89 3.93 12.03
10/22/2022 12:15:00 PM 6.51 43.718 0.038 6.9 3.99 12.02
10/22/2022 12:30:00 PM 6.69 44.042 0.038 6.92 3.93 12.01
10/22/2022 12:45:00 PM 6.9 44.42 0.038 6.91 3.93 11.97
10/22/2022 1:00:00 PM 7.13 44.834 0.038 6.93 3.94 11.94
10/22/2022 1:15:00 PM 7.47 45.446 0.038 6.92 4 11.84
10/22/2022 1:30:00 PM 7.73 45.914 0.038 6.94 3.92 11.8
10/22/2022 1:45:00 PM 7.96 46.328 0.038 6.93 3.92 11.73
10/22/2022 2:00:00 PM 8.18 46.724 0.038 6.92 3.92 11.65
10/22/2022 2:15:00 PM 8.33 46.994 0.038 6.93 4.03 11.61
10/22/2022 2:30:00 PM 8.43 47.174 0.038 6.94 4.17 11.56
10/22/2022 2:45:00 PM 8.52 47.336 0.038 6.93 3.91 11.5
10/22/2022 3:00:00 PM 8.56 47.408 0.038 6.94 3.97 11.43
10/22/2022 3:15:00 PM 8.58 47.444 0.038 6.94 3.96 11.4
10/22/2022 3:30:00 PM 8.65 47.57 0.038 6.95 3.94 11.37
10/22/2022 3:45:00 PM 8.67 47.606 0.038 6.93 3.9 11.27
10/22/2022 4:00:00 PM 8.72 47.696 0.038 6.93 3.97 11.28
10/22/2022 4:15:00 PM 8.76 47.768 0.038 6.92 3.92 11.22
10/22/2022 4:30:00 PM 8.74 47.732 0.038 6.9 3.99 11.1
10/22/2022 4:45:00 PM 8.77 47.786 0.038 6.9 4.06 11.1
10/22/2022 5:00:00 PM 8.77 47.786 0.038 6.9 4.02 11.06
10/22/2022 5:15:00 PM 8.78 47.804 0.038 6.9 3.94 11.08
10/22/2022 5:30:00 PM 8.78 47.804 0.038 6.89 4.06 11.05
10/22/2022 5:45:00 PM 8.78 47.804 0.038 6.89 4 11.03
10/22/2022 6:00:00 PM 8.77 47.786 0.038 6.89 4.07 11.03
10/22/2022 6:15:00 PM 8.77 47.786 0.038 6.88 4.02 11.02
10/22/2022 6:30:00 PM 8.77 47.786 0.038 6.87 3.97 10.99
10/22/2022 6:45:00 PM 8.76 47.768 0.038 6.88 3.96 10.99
10/22/2022 7:00:00 PM 8.75 47.75 0.038 6.87 4.05 10.96
10/22/2022 7:15:00 PM 8.75 47.75 0.038 6.86 4.13 10.94
10/22/2022 7:30:00 PM 8.74 47.732 0.038 6.87 3.99 10.96
10/22/2022 7:45:00 PM 8.73 47.714 0.038 6.87 4.02 10.96
10/22/2022 8:00:00 PM 8.73 47.714 0.038 6.86 4.02 10.96
10/22/2022 8:15:00 PM 8.73 47.714 0.038 6.85 4.04 10.94
10/22/2022 8:30:00 PM 8.73 47.714 0.038 6.87 4.11 10.98
10/22/2022 8:45:00 PM 8.72 47.696 0.038 6.86 4.06 10.96
10/22/2022 9:00:00 PM 8.71 47.678 0.038 6.86 3.99 10.95
10/22/2022 9:15:00 PM 8.7 47.66 0.038 6.86 4.05 10.97
10/22/2022 9:30:00 PM 8.69 47.642 0.038 6.86 4.04 10.96
10/22/2022 9:45:00 PM 8.68 47.624 0.038 6.87 3.98 11
10/22/2022 10:00:00 PM 8.67 47.606 0.038 6.86 4.01 10.95
10/22/2022 10:15:00 PM 8.64 47.552 0.038 6.85 4.21 10.98
10/22/2022 10:30:00 PM 8.62 47.516 0.038 6.86 4.01 10.97
10/22/2022 10:45:00 PM 8.59 47.462 0.038 6.87 4.06 11.02
10/22/2022 11:00:00 PM 8.56 47.408 0.038 6.86 4.09 11.01
10/22/2022 11:15:00 PM 8.54 47.372 0.039 6.86 4.14 11
10/22/2022 11:30:00 PM 8.49 47.282 0.039 6.86 4.01 11.04
10/22/2022 11:45:00 PM 8.45 47.21 0.039 6.86 3.99 11.07
10/23/2022 12:00:00 AM 8.41 47.138 0.039 6.86 4 11.08
10/23/2022 12:15:00 AM 8.36 47.048 0.039 6.87 4.01 11.1
10/23/2022 12:30:00 AM 8.32 46.976 0.039 6.87 4.04 11.09
10/23/2022 12:45:00 AM 8.27 46.886 0.039 6.87 3.98 11.14
10/23/2022 1:00:00 AM 8.22 46.796 0.039 6.87 4.29 11.15
10/23/2022 1:15:00 AM 8.17 46.706 0.039 6.87 4.19 11.18
10/23/2022 1:30:00 AM 8.12 46.616 0.039 6.86 4.12 11.19
10/23/2022 1:45:00 AM 8.07 46.526 0.039 6.87 3.97 11.21
10/23/2022 2:00:00 AM 8.01 46.418 0.039 6.87 4.06 11.22
10/23/2022 2:15:00 AM 7.96 46.328 0.039 6.87 4.43 11.25
10/23/2022 2:30:00 AM 7.9 46.22 0.039 6.87 4.02 11.26
10/23/2022 2:45:00 AM 7.84 46.112 0.039 6.88 4.13 11.29
10/23/2022 3:00:00 AM 7.79 46.022 0.039 6.87 4.22 11.29
10/23/2022 3:15:00 AM 7.74 45.932 0.039 6.87 4.08 11.3
10/23/2022 3:30:00 AM 7.68 45.824 0.039 6.87 3.99 11.34
10/23/2022 3:45:00 AM 7.62 45.716 0.039 6.87 4.05 11.35
10/23/2022 4:00:00 AM 7.56 45.608 0.039 6.87 4.07 11.38
10/23/2022 4:15:00 AM 7.51 45.518 0.039 6.87 4 11.39
10/23/2022 4:30:00 AM 7.46 45.428 0.039 6.87 4.07 11.41
10/23/2022 4:45:00 AM 7.4 45.32 0.039 6.87 3.99 11.42
10/23/2022 5:00:00 AM 7.34 45.212 0.039 6.87 4.03 11.43
10/23/2022 5:15:00 AM 7.29 45.122 0.039 6.87 4 11.48
10/23/2022 5:30:00 AM 7.24 45.032 0.039 6.86 4.02 11.47
10/23/2022 5:45:00 AM 7.19 44.942 0.039 6.86 4.01 11.48
10/23/2022 6:00:00 AM 7.13 44.834 0.039 6.87 4.01 11.53
10/23/2022 6:15:00 AM 7.08 44.744 0.039 6.86 4.13 11.54
10/23/2022 6:30:00 AM 7.03 44.654 0.039 6.86 4.09 11.55
10/23/2022 6:45:00 AM 6.97 44.546 0.039 6.86 4.02 11.59
10/23/2022 7:00:00 AM 6.91 44.438 0.039 6.86 4.03 11.6
10/23/2022 7:15:00 AM 6.87 44.366 0.039 6.86 4 11.61
10/23/2022 7:30:00 AM 6.81 44.258 0.039 6.86 4.02 11.64
10/23/2022 7:45:00 AM 6.77 44.186 0.039 6.86 4.13 11.67
10/23/2022 8:00:00 AM 6.72 44.096 0.039 6.86 4.03 11.69
10/23/2022 8:15:00 AM 6.68 44.024 0.039 6.87 4.21 11.72
10/23/2022 8:30:00 AM 6.65 43.97 0.039 6.87 4.09 11.76
10/23/2022 8:45:00 AM 6.61 43.898 0.039 6.88 4.09 11.79
10/23/2022 9:00:00 AM 6.6 43.88 0.039 6.88 4.02 11.83
10/23/2022 9:15:00 AM 6.59 43.862 0.039 6.89 4.13 11.84
10/23/2022 9:30:00 AM 6.57 43.826 0.039 6.89 4.17 11.87
10/23/2022 9:45:00 AM 6.55 43.79 0.039 6.9 4 11.92
10/23/2022 10:00:00 AM 6.58 43.844 0.039 6.91 4.22 11.96
10/23/2022 10:15:00 AM 6.65 43.97 0.039 6.9 5.87 11.94
10/23/2022 10:30:00 AM 6.66 43.988 0.038 6.91 3.94 11.97
10/23/2022 10:45:00 AM 6.69 44.042 0.038 6.92 4.01 11.96
10/23/2022 11:00:00 AM 6.74 44.132 0.038 6.92 4 11.94
10/23/2022 11:15:00 AM 6.81 44.258 0.038 6.92 3.96 11.93
10/23/2022 11:30:00 AM 6.89 44.402 0.038 6.92 3.97 11.93
10/23/2022 11:45:00 AM 7.01 44.618 0.038 6.93 4.07 11.92
10/23/2022 12:00:00 PM 7.14 44.852 0.038 6.93 4.01 11.88
10/23/2022 12:15:00 PM 7.27 45.086 0.038 6.94 3.98 11.85
10/23/2022 12:30:00 PM 7.4 45.32 0.038 6.94 3.97 11.82
10/23/2022 12:45:00 PM 7.57 45.626 0.038 6.94 4 11.79
10/23/2022 1:00:00 PM 7.84 46.112 0.038 6.95 3.96 11.75
10/23/2022 1:15:00 PM 8.12 46.616 0.038 6.96 3.97 11.7
10/23/2022 1:30:00 PM 8.38 47.084 0.038 6.96 3.91 11.64
10/23/2022 1:45:00 PM 8.61 47.498 0.038 6.97 3.95 11.6
10/23/2022 2:00:00 PM 8.75 47.75 0.038 6.97 3.97 11.53
10/23/2022 2:15:00 PM 8.84 47.912 0.038 6.97 3.92 11.48
10/23/2022 2:30:00 PM 8.88 47.984 0.038 6.98 3.9 11.45
10/23/2022 2:45:00 PM 8.94 48.092 0.038 6.96 3.89 11.4
10/23/2022 3:00:00 PM 9 48.2 0.038 6.97 3.95 11.37
10/23/2022 3:15:00 PM 9.01 48.218 0.038 6.98 3.9 11.33
10/23/2022 3:30:00 PM 9.04 48.272 0.038 6.97 3.91 11.3
10/23/2022 3:45:00 PM 9.11 48.398 0.038 6.97 3.94 11.28
10/23/2022 4:00:00 PM 9.19 48.542 0.038 6.97 4.15 11.26
10/23/2022 4:15:00 PM 9.28 48.704 0.038 6.98 3.92 11.23
10/23/2022 4:30:00 PM 9.32 48.776 0.038 6.97 3.91 11.17
10/23/2022 4:45:00 PM 9.38 48.884 0.037 6.97 3.96 11.14
10/23/2022 5:00:00 PM 9.45 49.01 0.037 6.96 3.95 11.12
10/23/2022 5:15:00 PM 9.5 49.1 0.037 6.96 4.03 11.09
10/23/2022 5:30:00 PM 9.55 49.19 0.037 6.97 3.94 11.06
10/23/2022 5:45:00 PM 9.56 49.208 0.038 6.96 3.95 11.01
10/23/2022 6:00:00 PM 9.57 49.226 0.038 6.94 3.97 10.96
10/23/2022 6:15:00 PM 9.59 49.262 0.038 6.94 4.06 10.9
10/23/2022 6:30:00 PM 9.6 49.28 0.038 6.93 3.94 10.86
10/23/2022 6:45:00 PM 9.61 49.298 0.038 6.92 3.95 10.82
10/23/2022 7:00:00 PM 9.62 49.316 0.038 6.91 4.12 10.8
10/23/2022 7:15:00 PM 9.64 49.352 0.038 6.91 4.03 10.78
10/23/2022 7:30:00 PM 9.66 49.388 0.038 6.91 3.98 10.76
10/23/2022 7:45:00 PM 9.68 49.424 0.038 6.9 3.99 10.75
10/23/2022 8:00:00 PM 9.69 49.442 0.038 6.9 4.02 10.74
10/23/2022 8:15:00 PM 9.7 49.46 0.038 6.89 4 10.72
10/23/2022 8:30:00 PM 9.7 49.46 0.038 6.88 3.96 10.7
10/23/2022 8:45:00 PM 9.71 49.478 0.038 6.88 4.06 10.69
10/23/2022 9:00:00 PM 9.72 49.496 0.038 6.88 3.96 10.69
10/23/2022 9:15:00 PM 9.73 49.514 0.039 6.89 3.96 10.69
10/23/2022 9:30:00 PM 9.74 49.532 0.039 6.89 3.99 10.68
10/23/2022 9:45:00 PM 9.76 49.568 0.039 6.89 4 10.69
10/23/2022 10:00:00 PM 9.77 49.586 0.039 6.89 3.97 10.69
10/23/2022 10:15:00 PM 9.77 49.586 0.039 6.88 3.98 10.68
10/23/2022 10:30:00 PM 9.77 49.586 0.039 6.88 4.07 10.69
10/23/2022 10:45:00 PM 9.77 49.586 0.039 6.89 3.96 10.7
10/23/2022 11:00:00 PM 9.76 49.568 0.039 6.88 4 10.69
10/23/2022 11:15:00 PM 9.75 49.55 0.039 6.88 4.51 10.68
10/23/2022 11:30:00 PM 9.74 49.532 0.039 6.88 4.11 10.69
10/23/2022 11:45:00 PM 9.73 49.514 0.039 6.88 4.05 10.68
10/24/2022 12:00:00 AM 9.71 49.478 0.039 6.89 3.95 10.69
10/24/2022 12:15:00 AM 9.7 49.46 0.039 6.89 3.96 10.69
10/24/2022 12:30:00 AM 9.68 49.424 0.039 6.89 3.98 10.71
10/24/2022 12:45:00 AM 9.66 49.388 0.039 6.89 3.95 10.73
10/24/2022 1:00:00 AM 9.65 49.37 0.039 6.89 3.99 10.71
10/24/2022 1:15:00 AM 9.62 49.316 0.039 6.89 3.95 10.72
10/24/2022 1:30:00 AM 9.59 49.262 0.039 6.89 3.92 10.74
10/24/2022 1:45:00 AM 9.56 49.208 0.039 6.89 3.98 10.74
10/24/2022 2:00:00 AM 9.53 49.154 0.039 6.89 4 10.76
10/24/2022 2:15:00 AM 9.5 49.1 0.039 6.89 3.94 10.74
10/24/2022 2:30:00 AM 9.47 49.046 0.039 6.89 3.92 10.76
10/24/2022 2:45:00 AM 9.44 48.992 0.039 6.89 3.9 10.75
10/24/2022 3:00:00 AM 9.4 48.92 0.039 6.88 3.94 10.78
10/24/2022 3:15:00 AM 9.37 48.866 0.039 6.89 3.95 10.79
10/24/2022 3:30:00 AM 9.33 48.794 0.039 6.89 4.02 10.81
10/24/2022 3:45:00 AM 9.3 48.74 0.039 6.88 3.96 10.79
10/24/2022 4:00:00 AM 9.27 48.686 0.039 6.89 4 10.81
10/24/2022 4:15:00 AM 9.23 48.614 0.039 6.89 3.94 10.84
10/24/2022 4:30:00 AM 9.19 48.542 0.039 6.89 4 10.84
10/24/2022 4:45:00 AM 9.16 48.488 0.039 6.89 3.93 10.85
10/24/2022 5:00:00 AM 9.13 48.434 0.039 6.89 4.04 10.86
10/24/2022 5:15:00 AM 9.09 48.362 0.039 6.89 3.94 10.87
10/24/2022 5:30:00 AM 9.07 48.326 0.039 6.88 3.93 10.88
10/24/2022 5:45:00 AM 9.04 48.272 0.039 6.89 3.94 10.9
10/24/2022 6:00:00 AM 9.02 48.236 0.039 6.92 3.91 10.83
10/24/2022 6:15:00 AM 9.01 48.218 0.039 6.89 4.04 10.91
10/24/2022 6:30:00 AM 9 48.2 0.039 6.89 3.94 10.92
10/24/2022 6:45:00 AM 8.99 48.182 0.039 6.89 3.96 10.92
10/24/2022 7:00:00 AM 8.98 48.164 0.039 6.89 3.99 10.94
10/24/2022 7:15:00 AM 8.96 48.128 0.039 6.9 3.96 10.95
10/24/2022 7:30:00 AM 8.96 48.128 0.039 6.9 3.97 10.95
10/24/2022 7:45:00 AM 8.95 48.11 0.039 6.9 3.97 10.96
10/24/2022 8:00:00 AM 8.94 48.092 0.039 6.91 3.99 10.98
10/24/2022 8:15:00 AM 8.93 48.074 0.039 6.9 3.98 10.99
10/24/2022 8:30:00 AM 8.92 48.056 0.039 6.91 3.96 11.02
10/24/2022 8:45:00 AM 8.92 48.056 0.039 6.92 3.91 11.05
10/24/2022 9:00:00 AM 8.92 48.056 0.039 6.92 3.95 11.09
10/24/2022 9:15:00 AM 8.95 48.11 0.039 6.93 5.42 11.11
10/24/2022 9:30:00 AM 8.99 48.182 0.039 6.94 3.96 11.15
10/24/2022 9:45:00 AM 9.02 48.236 0.039 6.95 3.98 11.17
10/24/2022 10:00:00 AM 9.07 48.326 0.039 6.95 3.99 11.2
10/24/2022 10:15:00 AM 9.11 48.398 0.039 6.99 3.92 11.17
10/24/2022 10:30:00 AM 9.19 48.542 0.039 6.98 3.97 11.23
10/24/2022 10:45:00 AM 9.26 48.668 0.039 6.98 5.13 11.2
10/24/2022 11:00:00 AM 9.34 48.812 0.039 6.98 3.97 11.21
10/24/2022 11:15:00 AM 9.43 48.974 0.038 7 4 11.21
10/24/2022 11:30:00 AM 9.51 49.118 0.038 7 4.49 11.18
10/24/2022 11:45:00 AM 9.62 49.316 0.038 7.01 3.91 11.18
10/24/2022 12:00:00 PM 9.73 49.514 0.038 7.02 3.91 11.15
10/24/2022 12:15:00 PM 9.85 49.73 0.038 7.02 3.84 11.12
10/24/2022 12:30:00 PM 9.99 49.982 0.038 7.02 3.81 11.1
10/24/2022 12:45:00 PM 10.11 50.198 0.038 7.03 3.89 11.09
10/24/2022 1:00:00 PM 10.23 50.414 0.038 7.05 3.84 11.05
10/24/2022 1:15:00 PM 10.3 50.54 0.038 7.05 3.86 11.02
10/24/2022 1:30:00 PM 10.37 50.666 0.038 7.05 3.82 10.99
10/24/2022 1:45:00 PM 10.47 50.846 0.038 7.06 3.99 10.97
10/24/2022 2:00:00 PM 10.59 51.062 0.038 7.05 3.97 10.94
10/24/2022 2:15:00 PM 10.68 51.224 0.038 7.07 3.79 10.93
10/24/2022 2:30:00 PM 10.8 51.44 0.038 7.07 3.85 10.87
10/24/2022 2:45:00 PM 10.88 51.584 0.038 7.08 9.15 10.85
10/24/2022 3:00:00 PM 10.96 51.728 0.038 7.08 3.92 10.81
10/24/2022 3:15:00 PM 11.02 51.836 0.038 7.06 3.91 10.73
10/24/2022 3:30:00 PM 11.14 52.052 0.038 7.07 3.78 10.7
10/24/2022 3:45:00 PM 11.21 52.178 0.038 7.07 3.79 10.66
10/24/2022 4:00:00 PM 11.27 52.286 0.038 7.06 3.74 10.62
10/24/2022 4:15:00 PM 11.31 52.358 0.038 7.07 3.78 10.6
10/24/2022 4:30:00 PM 11.35 52.43 0.038 7.07 3.77 10.58
10/24/2022 4:45:00 PM 11.37 52.466 0.038 7.05 3.78 10.53
10/24/2022 5:00:00 PM 11.37 52.466 0.038 7.09 3.81 10.39
10/24/2022 5:15:00 PM 11.39 52.502 0.038 7.05 3.78 10.48
10/24/2022 5:30:00 PM 11.41 52.538 0.038 7.04 3.73 10.43
10/24/2022 5:45:00 PM 11.42 52.556 0.038 7.03 3.83 10.38
10/24/2022 6:00:00 PM 11.42 52.556 0.038 7.03 3.77 10.34
10/24/2022 6:15:00 PM 11.43 52.574 0.038 7.02 3.89 10.29
10/24/2022 6:30:00 PM 11.43 52.574 0.038 7.01 3.93 10.26
10/24/2022 6:45:00 PM 11.43 52.574 0.038 7 3.76 10.23
10/24/2022 7:00:00 PM 11.42 52.556 0.038 6.98 3.85 10.18
10/24/2022 7:15:00 PM 11.41 52.538 0.039 6.98 3.81 10.19
10/24/2022 7:30:00 PM 11.4 52.52 0.039 6.98 3.8 10.17
10/24/2022 7:45:00 PM 11.38 52.484 0.039 6.98 4.1 10.18
10/24/2022 8:00:00 PM 11.37 52.466 0.039 6.98 3.87 10.19
10/24/2022 8:15:00 PM 11.35 52.43 0.039 6.98 3.84 10.18
10/24/2022 8:30:00 PM 11.34 52.412 0.039 6.98 3.83 10.18
10/24/2022 8:45:00 PM 11.33 52.394 0.039 6.99 3.86 10.18
10/24/2022 9:00:00 PM 11.32 52.376 0.039 6.99 3.86 10.17
10/24/2022 9:15:00 PM 11.31 52.358 0.039 6.98 3.86 10.16
10/24/2022 9:30:00 PM 11.3 52.34 0.039 6.98 3.91 10.18
10/24/2022 9:45:00 PM 11.29 52.322 0.039 6.98 3.9 10.18
10/24/2022 10:00:00 PM 11.3 52.34 0.039 6.98 3.82 10.19
10/24/2022 10:15:00 PM 11.29 52.322 0.039 6.98 3.86 10.19
10/24/2022 10:30:00 PM 11.29 52.322 0.039 6.98 3.89 10.17
10/24/2022 10:45:00 PM 11.28 52.304 0.039 6.96 3.89 10.15
10/24/2022 11:00:00 PM 11.27 52.286 0.039 6.97 3.87 10.16
10/24/2022 11:15:00 PM 11.27 52.286 0.039 6.96 3.91 10.17
10/24/2022 11:30:00 PM 11.26 52.268 0.039 6.97 3.92 10.16
10/24/2022 11:45:00 PM 11.26 52.268 0.039 6.97 3.93 10.17
10/25/2022 12:00:00 AM 11.25 52.25 0.039 6.97 3.81 10.16
10/25/2022 12:15:00 AM 11.24 52.232 0.039 6.97 3.84 10.19
10/25/2022 12:30:00 AM 11.23 52.214 0.039 6.97 3.77 10.21
10/25/2022 12:45:00 AM 11.23 52.214 0.039 6.97 3.77 10.19
10/25/2022 1:00:00 AM 11.22 52.196 0.04 6.97 3.82 10.19
10/25/2022 1:15:00 AM 11.21 52.178 0.04 6.98 3.83 10.21
10/25/2022 1:30:00 AM 11.2 52.16 0.04 6.98 3.95 10.2
10/25/2022 1:45:00 AM 11.2 52.16 0.04 6.98 3.86 10.23
10/25/2022 2:00:00 AM 11.19 52.142 0.04 6.97 3.83 10.21
10/25/2022 2:15:00 AM 11.18 52.124 0.04 6.98 3.83 10.24
10/25/2022 2:30:00 AM 11.16 52.088 0.04 6.98 4.05 10.23
10/25/2022 2:45:00 AM 11.15 52.07 0.04 6.98 3.83 10.25
10/25/2022 3:00:00 AM 11.14 52.052 0.04 6.97 3.89 10.23
10/25/2022 3:15:00 AM 11.13 52.034 0.04 6.98 4.02 10.25
10/25/2022 3:30:00 AM 11.12 52.016 0.04 6.98 3.84 10.25
10/25/2022 3:45:00 AM 11.11 51.998 0.04 6.97 4.18 10.23
10/25/2022 4:00:00 AM 11.09 51.962 0.04 6.96 3.86 10.23
10/25/2022 4:15:00 AM 11.08 51.944 0.04 6.96 3.8 10.24
10/25/2022 4:30:00 AM 11.07 51.926 0.04 6.97 3.83 10.24
10/25/2022 4:45:00 AM 11.06 51.908 0.04 6.96 3.78 10.23
10/25/2022 5:00:00 AM 11.05 51.89 0.04 6.96 3.85 10.24
10/25/2022 5:15:00 AM 11.03 51.854 0.04 6.95 3.81 10.25
10/25/2022 5:30:00 AM 11.02 51.836 0.04 6.95 3.95 10.25
10/25/2022 5:45:00 AM 11.01 51.818 0.04 6.96 3.87 10.26
10/25/2022 6:00:00 AM 11 51.8 0.04 6.96 3.82 10.28
10/25/2022 6:15:00 AM 10.99 51.782 0.04 6.96 3.84 10.3
10/25/2022 6:30:00 AM 10.98 51.764 0.04 6.96 3.82 10.29
10/25/2022 6:45:00 AM 10.97 51.746 0.04 6.96 3.91 10.29
10/25/2022 7:00:00 AM 10.96 51.728 0.04 6.96 3.97 10.28
10/25/2022 7:15:00 AM 10.96 51.728 0.04 6.96 3.9 10.29
10/25/2022 7:30:00 AM 10.95 51.71 0.041 6.95 3.86 10.27
10/25/2022 7:45:00 AM 10.94 51.692 0.059 6.97 3.82 10.28
10/25/2022 8:00:00 AM 10.94 51.692 0.058 6.96 4.12 10.31
10/25/2022 8:15:00 AM 10.93 51.674 0.059 6.96 3.88 10.32
10/25/2022 8:30:00 AM 11.09 51.962 0.04 7.49 1.68 10.52
10/25/2022 8:45:00 AM 10.92 51.656 0.039 7.07 1.46 10.56
10/25/2022 9:00:00 AM 10.92 51.656 0.039 7.04 2.54 10.58
10/25/2022 9:15:00 AM 10.93 51.674 0.038 7.03 2.61 10.59
10/25/2022 9:30:00 AM 10.95 51.71 0.039 7.03 1.41 10.65
10/25/2022 9:45:00 AM 10.97 51.746 0.039 7.03 1.31 10.69
10/25/2022 10:00:00 AM 11.01 51.818 0.039 7.04 1.27 10.72
10/25/2022 10:15:00 AM 11.04 51.872 0.039 7.05 1.31 10.74
10/25/2022 10:30:00 AM 11.07 51.926 0.039 7.05 1.32 10.73
10/25/2022 10:45:00 AM 11.13 52.034 0.039 7.07 1.24 10.75
10/25/2022 11:00:00 AM 11.21 52.178 0.039 7.1 1.32 10.78
10/25/2022 11:15:00 AM 11.27 52.286 0.038 7.12 1.27 10.77
10/25/2022 11:30:00 AM 11.32 52.376 0.038 7.13 1.27 10.74
10/25/2022 11:45:00 AM 11.36 52.448 0.038 7.13 1.29 10.72
10/25/2022 12:00:00 PM 11.42 52.556 0.038 7.14 1.24 10.72
10/25/2022 12:15:00 PM 11.45 52.61 0.038 7.13 1.31 10.65
10/25/2022 12:30:00 PM 11.49 52.682 0.038 7.13 1.23 10.63
10/25/2022 12:45:00 PM 11.54 52.772 0.037 7.13 2.61 10.65
10/25/2022 1:00:00 PM 11.57 52.826 0.038 7.14 1.25 10.62
10/25/2022 1:15:00 PM 11.63 52.934 0.038 7.15 1.34 10.62
10/25/2022 1:30:00 PM 11.7 53.06 0.038 7.16 1.2 10.63
10/25/2022 1:45:00 PM 11.79 53.222 0.038 7.16 1.27 10.62
10/25/2022 2:00:00 PM 11.83 53.294 0.038 7.15 1.24 10.58
10/25/2022 2:15:00 PM 11.89 53.402 0.038 7.15 1.3 10.56
10/25/2022 2:30:00 PM 11.97 53.546 0.038 7.15 1.3 10.54
10/25/2022 2:45:00 PM 12.04 53.672 0.038 7.14 1.27 10.49
10/25/2022 3:00:00 PM 12.12 53.816 0.038 7.16 1.28 10.51
10/25/2022 3:15:00 PM 12.21 53.978 0.038 7.17 1.24 10.52
10/25/2022 3:30:00 PM 12.28 54.104 0.038 7.17 1.23 10.49
10/25/2022 3:45:00 PM 12.29 54.122 0.038 7.16 1.32 10.42
10/25/2022 4:00:00 PM 12.28 54.104 0.038 7.15 1.18 10.39
10/25/2022 4:15:00 PM 12.31 54.158 0.038 7.14 1.31 10.35
10/25/2022 4:30:00 PM 12.37 54.266 0.038 7.15 1.59 10.36
10/25/2022 4:45:00 PM 12.39 54.302 0.038 7.11 1.26 10.31
10/25/2022 5:00:00 PM 12.41 54.338 0.038 7.13 1.34 10.28
10/25/2022 5:15:00 PM 12.43 54.374 0.038 7.13 1.42 10.26
10/25/2022 5:30:00 PM 12.44 54.392 0.038 7.11 1.27 10.21
10/25/2022 5:45:00 PM 12.45 54.41 0.038 7.11 1.26 10.17
10/25/2022 6:00:00 PM 12.46 54.428 0.038 7.09 1.32 10.11
10/25/2022 6:15:00 PM 12.47 54.446 0.038 7.08 1.42 10.06
10/25/2022 6:30:00 PM 12.47 54.446 0.038 7.07 1.31 10
10/25/2022 6:45:00 PM 12.47 54.446 0.038 7.05 1.35 9.96
10/25/2022 7:00:00 PM 12.47 54.446 0.038 7.06 1.32 9.99
10/25/2022 7:15:00 PM 12.45 54.41 0.038 7.04 1.34 9.95
10/25/2022 7:30:00 PM 12.44 54.392 0.038 7.05 1.38 10
10/25/2022 7:45:00 PM 12.43 54.374 0.038 7.05 1.32 9.98
10/25/2022 8:00:00 PM 12.42 54.356 0.038 7.04 1.33 9.98
10/25/2022 8:15:00 PM 12.41 54.338 0.038 7.04 1.29 9.98
10/25/2022 8:30:00 PM 12.41 54.338 0.038 7.04 1.35 9.99
10/25/2022 8:45:00 PM 12.4 54.32 0.039 7.03 1.27 9.99
10/25/2022 9:00:00 PM 12.39 54.302 0.039 7.03 1.37 9.96
10/25/2022 9:15:00 PM 12.39 54.302 0.039 7.03 1.27 9.99
10/25/2022 9:30:00 PM 12.39 54.302 0.039 7.03 1.32 9.99
10/25/2022 9:45:00 PM 12.38 54.284 0.039 7.03 1.35 9.97
10/25/2022 10:00:00 PM 12.37 54.266 0.039 7.03 1.36 9.98
10/25/2022 10:15:00 PM 12.35 54.23 0.039 7.03 1.4 9.98
10/25/2022 10:30:00 PM 12.33 54.194 0.039 7.04 1.24 9.98
10/25/2022 10:45:00 PM 12.31 54.158 0.039 7.04 1.35 9.98
10/25/2022 11:00:00 PM 12.29 54.122 0.039 7.04 1.29 9.99
10/25/2022 11:15:00 PM 12.26 54.068 0.039 7.03 1.25 9.98
10/25/2022 11:30:00 PM 12.23 54.014 0.039 7.04 1.55 10.02
10/25/2022 11:45:00 PM 12.21 53.978 0.039 7.04 1.46 10.02
10/26/2022 12:00:00 AM 12.19 53.942 0.039 7.04 1.32 10.02
10/26/2022 12:15:00 AM 12.16 53.888 0.039 7.03 1.25 10.03
10/26/2022 12:30:00 AM 12.14 53.852 0.039 7.04 1.45 10.07
10/26/2022 12:45:00 AM 12.11 53.798 0.039 7.03 1.32 10.06
10/26/2022 1:00:00 AM 12.08 53.744 0.038 7.03 2.76 10.08
10/26/2022 1:15:00 AM 12.05 53.69 0.039 7.03 1.37 10.07
10/26/2022 1:30:00 AM 12.02 53.636 0.039 7.04 1.39 10.1
10/26/2022 1:45:00 AM 11.98 53.564 0.039 7.03 1.45 10.09
10/26/2022 2:00:00 AM 11.93 53.474 0.039 7.03 1.3 10.09
10/26/2022 2:15:00 AM 11.88 53.384 0.039 7.04 1.31 10.11
10/26/2022 2:30:00 AM 11.85 53.33 0.039 7.04 1.45 10.13
10/26/2022 2:45:00 AM 11.82 53.276 0.039 7.04 1.35 10.14
10/26/2022 3:00:00 AM 11.78 53.204 0.039 7.04 1.32 10.13
10/26/2022 3:15:00 AM 11.74 53.132 0.039 7.04 1.34 10.15
10/26/2022 3:30:00 AM 11.69 53.042 0.039 7.04 1.58 10.16
10/26/2022 3:45:00 AM 11.64 52.952 0.039 7.04 1.37 10.17
10/26/2022 4:00:00 AM 11.59 52.862 0.039 7.04 1.32 10.19
10/26/2022 4:15:00 AM 11.53 52.754 0.039 7.04 1.33 10.2
10/26/2022 4:30:00 AM 11.48 52.664 0.039 7.05 1.65 10.21
10/26/2022 4:45:00 AM 11.43 52.574 0.039 7.04 1.4 10.21
10/26/2022 5:00:00 AM 11.37 52.466 0.039 7.05 1.31 10.24
10/26/2022 5:15:00 AM 11.33 52.394 0.039 7.05 1.44 10.25
10/26/2022 5:30:00 AM 11.27 52.286 0.038 7.04 2.78 10.27
10/26/2022 5:45:00 AM 11.22 52.196 0.039 7.05 1.36 10.29
10/26/2022 6:00:00 AM 11.17 52.106 0.039 7.05 1.41 10.3
10/26/2022 6:15:00 AM 11.12 52.016 0.039 7.05 1.45 10.32
10/26/2022 6:30:00 AM 11.08 51.944 0.039 7.05 1.38 10.32
10/26/2022 6:45:00 AM 11.04 51.872 0.039 7.05 1.4 10.34
10/26/2022 7:00:00 AM 11 51.8 0.039 7.05 1.43 10.34
10/26/2022 7:15:00 AM 10.96 51.728 0.039 7.06 1.43 10.37
10/26/2022 7:30:00 AM 10.94 51.692 0.039 7.06 1.38 10.38
10/26/2022 7:45:00 AM 10.9 51.62 0.039 7.06 1.38 10.4
10/26/2022 8:00:00 AM 10.87 51.566 0.039 7.07 1.41 10.42
10/26/2022 8:15:00 AM 10.84 51.512 0.039 7.07 1.33 10.42
10/26/2022 8:30:00 AM 10.79 51.422 0.039 7.07 1.39 10.46
10/26/2022 8:45:00 AM 10.77 51.386 0.039 7.08 1.34 10.5
10/26/2022 9:00:00 AM 10.76 51.368 0.039 7.09 1.35 10.54
10/26/2022 9:15:00 AM 10.78 51.404 0.039 7.1 1.37 10.6
10/26/2022 9:30:00 AM 10.8 51.44 0.039 7.11 1.31 10.64
10/26/2022 9:45:00 AM 10.82 51.476 0.039 7.11 1.41 10.67
10/26/2022 10:00:00 AM 10.83 51.494 0.039 7.11 1.42 10.67
10/26/2022 10:15:00 AM 10.83 51.494 0.039 7.11 1.38 10.65
10/26/2022 10:30:00 AM 10.85 51.53 0.039 7.11 1.4 10.69
10/26/2022 10:45:00 AM 10.89 51.602 0.038 7.12 1.5 10.71
10/26/2022 11:00:00 AM 10.91 51.638 0.038 7.12 1.41 10.7
10/26/2022 11:15:00 AM 10.97 51.746 0.038 7.13 2.82 10.72
10/26/2022 11:30:00 AM 11.05 51.89 0.038 7.14 1.35 10.73
10/26/2022 11:45:00 AM 11.13 52.034 0.038 7.15 1.35 10.73
10/26/2022 12:00:00 PM 11.2 52.16 0.038 7.16 1.39 10.72
10/26/2022 12:15:00 PM 11.25 52.25 0.038 7.16 1.36 10.69
10/26/2022 12:30:00 PM 11.27 52.286 0.038 7.16 1.41 10.64
10/26/2022 12:45:00 PM 11.29 52.322 0.038 7.15 1.39 10.6
10/26/2022 1:00:00 PM 11.35 52.43 0.038 7.16 1.38 10.61
10/26/2022 1:15:00 PM 11.39 52.502 0.038 7.16 1.36 10.59
10/26/2022 1:30:00 PM 11.4 52.52 0.038 7.16 1.38 10.57
10/26/2022 1:45:00 PM 11.4 52.52 0.038 7.15 1.53 10.51
10/26/2022 2:00:00 PM 11.41 52.538 0.038 7.15 1.42 10.5
10/26/2022 2:15:00 PM 11.43 52.574 0.038 7.15 1.4 10.48
10/26/2022 2:30:00 PM 11.46 52.628 0.038 7.15 1.38 10.46
10/26/2022 2:45:00 PM 11.47 52.646 0.038 7.14 1.35 10.42
10/26/2022 3:00:00 PM 11.49 52.682 0.038 7.13 1.42 10.39
10/26/2022 3:15:00 PM 11.5 52.7 0.038 7.13 1.36 10.38
10/26/2022 3:30:00 PM 11.51 52.718 0.038 7.12 1.35 10.34
10/26/2022 3:45:00 PM 11.53 52.754 0.038 7.13 1.42 10.39
10/26/2022 4:00:00 PM 11.55 52.79 0.037 7.13 2.84 10.41
10/26/2022 4:15:00 PM 11.55 52.79 0.038 7.13 1.34 10.39
10/26/2022 4:30:00 PM 11.55 52.79 0.038 7.12 1.36 10.35
10/26/2022 4:45:00 PM 11.55 52.79 0.038 7.11 1.4 10.33
10/26/2022 5:00:00 PM 11.56 52.808 0.038 7.11 1.34 10.33
10/26/2022 5:15:00 PM 11.56 52.808 0.038 7.11 1.36 10.3
10/26/2022 5:30:00 PM 11.55 52.79 0.038 7.11 1.64 10.29
10/26/2022 5:45:00 PM 11.54 52.772 0.038 7.1 1.42 10.29
10/26/2022 6:00:00 PM 11.53 52.754 0.038 7.09 1.4 10.26
10/26/2022 6:15:00 PM 11.53 52.754 0.038 7.08 1.36 10.24
10/26/2022 6:30:00 PM 11.53 52.754 0.038 7.07 1.48 10.22
10/26/2022 6:45:00 PM 11.53 52.754 0.038 7.07 1.37 10.18
10/26/2022 7:00:00 PM 11.53 52.754 0.038 7.07 1.39 10.2
10/26/2022 7:15:00 PM 11.51 52.718 0.038 7.07 1.5 10.21
10/26/2022 7:30:00 PM 11.51 52.718 0.039 7.06 1.47 10.19
10/26/2022 7:45:00 PM 11.51 52.718 0.039 7.06 1.41 10.19
10/26/2022 8:00:00 PM 11.51 52.718 0.039 7.06 1.41 10.19
10/26/2022 8:15:00 PM 11.51 52.718 0.039 7.07 1.34 10.19
10/26/2022 8:30:00 PM 11.5 52.7 0.039 7.07 1.48 10.19
10/26/2022 8:45:00 PM 11.5 52.7 0.039 7.07 1.47 10.21
10/26/2022 9:00:00 PM 11.49 52.682 0.039 7.07 1.45 10.21
10/26/2022 9:15:00 PM 11.49 52.682 0.039 7.07 1.41 10.22
10/26/2022 9:30:00 PM 11.48 52.664 0.039 7.07 1.44 10.19
10/26/2022 9:45:00 PM 11.48 52.664 0.039 7.07 1.42 10.22
10/26/2022 10:00:00 PM 11.47 52.646 0.039 7.08 1.45 10.22
10/26/2022 10:15:00 PM 11.47 52.646 0.039 7.08 1.45 10.23
10/26/2022 10:30:00 PM 11.46 52.628 0.039 7.08 1.48 10.23
10/26/2022 10:45:00 PM 11.44 52.592 0.039 7.07 1.45 10.22
10/26/2022 11:00:00 PM 11.42 52.556 0.038 7.08 2.86 10.25
10/26/2022 11:15:00 PM 11.41 52.538 0.039 7.08 1.43 10.25
10/26/2022 11:30:00 PM 11.39 52.502 0.039 7.08 1.48 10.26
10/26/2022 11:45:00 PM 11.39 52.502 0.039 7.08 1.4 10.27
10/27/2022 12:00:00 AM 11.38 52.484 0.039 7.07 1.61 10.27
10/27/2022 12:15:00 AM 11.36 52.448 0.039 7.07 1.42 10.27
10/27/2022 12:30:00 AM 11.35 52.43 0.039 7.07 1.42 10.26
10/27/2022 12:45:00 AM 11.32 52.376 0.039 7.08 1.46 10.28
10/27/2022 1:00:00 AM 11.28 52.304 0.039 7.08 1.45 10.31
10/27/2022 1:15:00 AM 11.25 52.25 0.039 7.08 1.42 10.31
10/27/2022 1:30:00 AM 11.21 52.178 0.039 7.09 1.56 10.32
10/27/2022 1:45:00 AM 11.18 52.124 0.039 7.09 1.4 10.34
10/27/2022 2:00:00 AM 11.17 52.106 0.039 7.09 1.44 10.35
10/27/2022 2:15:00 AM 11.14 52.052 0.039 7.09 1.41 10.35
10/27/2022 2:30:00 AM 11.12 52.016 0.039 7.09 1.56 10.37
10/27/2022 2:45:00 AM 11.1 51.98 0.039 7.09 1.46 10.38
10/27/2022 3:00:00 AM 11.07 51.926 0.039 7.09 1.48 10.38
10/27/2022 3:15:00 AM 11.04 51.872 0.039 7.08 1.59 10.39
10/27/2022 3:30:00 AM 11.02 51.836 0.039 7.08 1.42 10.4
10/27/2022 3:45:00 AM 10.99 51.782 0.039 7.09 1.42 10.4
10/27/2022 4:00:00 AM 10.97 51.746 0.039 7.09 1.49 10.42
10/27/2022 4:15:00 AM 10.94 51.692 0.039 7.07 1.49 10.42
10/27/2022 4:30:00 AM 10.92 51.656 0.039 7.06 1.49 10.43
10/27/2022 4:45:00 AM 10.89 51.602 0.039 7.06 1.41 10.45
10/27/2022 5:00:00 AM 10.85 51.53 0.039 7.06 1.53 10.46
10/27/2022 5:15:00 AM 10.81 51.458 0.039 7.07 1.41 10.47
10/27/2022 5:30:00 AM 10.77 51.386 0.039 7.07 1.46 10.49
10/27/2022 5:45:00 AM 10.74 51.332 0.039 7.06 1.76 10.48
10/27/2022 6:00:00 AM 10.7 51.26 0.039 7.06 1.41 10.51
10/27/2022 6:15:00 AM 10.65 51.17 0.039 7.07 1.52 10.53
10/27/2022 6:30:00 AM 10.62 51.116 0.039 7.06 1.46 10.54
10/27/2022 6:45:00 AM 10.59 51.062 0.039 7.06 1.48 10.55
10/27/2022 7:00:00 AM 10.55 50.99 0.039 7.07 1.55 10.57
10/27/2022 7:15:00 AM 10.5 50.9 0.037 7.06 2.86 10.57
10/27/2022 7:30:00 AM 10.46 50.828 0.037 7.06 2.83 10.59
10/27/2022 7:45:00 AM 10.41 50.738 0.039 7.07 1.52 10.62
10/27/2022 8:00:00 AM 10.37 50.666 0.039 7.07 1.5 10.66
10/27/2022 8:15:00 AM 10.34 50.612 0.039 7.08 1.59 10.7
10/27/2022 8:30:00 AM 10.31 50.558 0.039 7.08 1.48 10.75
10/27/2022 8:45:00 AM 10.28 50.504 0.037 7.09 2.82 10.82
10/27/2022 9:00:00 AM 10.22 50.396 0.038 7.1 2.8 10.84
10/27/2022 9:15:00 AM 10.16 50.288 0.039 7.1 1.48 10.87
10/27/2022 9:30:00 AM 10.1 50.18 0.039 7.1 1.49 10.89
10/27/2022 9:45:00 AM 10.03 50.054 0.038 7.1 2.76 10.9
10/27/2022 10:00:00 AM 9.97 49.946 0.038 7.1 2.91 10.94
10/27/2022 10:15:00 AM 9.92 49.856 0.039 7.1 1.52 10.95
10/27/2022 10:30:00 AM 9.87 49.766 0.039 7.1 1.54 10.97
10/27/2022 10:45:00 AM 9.84 49.712 0.039 7.11 1.58 11.01
10/27/2022 11:00:00 AM 9.81 49.658 0.039 7.11 1.53 11.03
10/27/2022 11:15:00 AM 9.81 49.658 0.039 7.12 1.46 11.07
10/27/2022 11:30:00 AM 9.85 49.73 0.039 7.12 1.59 11.1
10/27/2022 11:45:00 AM 9.94 49.892 0.038 7.13 3.14 11.11
10/27/2022 12:00:00 PM 10.04 50.072 0.038 7.14 2.83 11.1
10/27/2022 12:15:00 PM 10.16 50.288 0.038 7.15 1.47 11.1
10/27/2022 12:30:00 PM 10.31 50.558 0.038 7.15 1.63 11.08
10/27/2022 12:45:00 PM 10.51 50.918 0.038 7.16 1.51 11.06
10/27/2022 1:00:00 PM 10.7 51.26 0.038 7.16 1.48 11.03
10/27/2022 1:15:00 PM 10.89 51.602 0.038 7.17 1.43 11
10/27/2022 1:30:00 PM 11.04 51.872 0.038 7.17 1.57 10.96
10/27/2022 1:45:00 PM 11.17 52.106 0.038 7.17 1.42 10.93
10/27/2022 2:00:00 PM 11.24 52.232 0.038 7.17 1.4 10.91
10/27/2022 2:15:00 PM 11.25 52.25 0.038 7.17 1.62 10.89
10/27/2022 2:30:00 PM 11.23 52.214 0.038 7.17 1.44 10.87
10/27/2022 2:45:00 PM 11.18 52.124 0.038 7.17 1.47 10.83
10/27/2022 3:00:00 PM 11.13 52.034 0.038 7.17 1.48 10.83
10/27/2022 3:15:00 PM 11.1 51.98 0.038 7.17 1.48 10.82
10/27/2022 3:30:00 PM 11.09 51.962 0.038 7.17 1.43 10.78
10/27/2022 3:45:00 PM 11.05 51.89 0.038 7.17 1.47 10.8
10/27/2022 4:00:00 PM 11.03 51.854 0.038 7.16 1.46 10.77
10/27/2022 4:15:00 PM 10.98 51.764 0.038 7.15 1.48 10.74
10/27/2022 4:30:00 PM 10.94 51.692 0.038 7.15 1.5 10.73
10/27/2022 4:45:00 PM 10.89 51.602 0.038 7.14 1.62 10.71
10/27/2022 5:00:00 PM 10.85 51.53 0.038 7.14 1.46 10.71
10/27/2022 5:15:00 PM 10.79 51.422 0.038 7.13 1.47 10.72
10/27/2022 5:30:00 PM 10.74 51.332 0.038 7.13 1.68 10.72
10/27/2022 5:45:00 PM 10.68 51.224 0.038 7.12 1.5 10.71
10/27/2022 6:00:00 PM 10.62 51.116 0.038 7.12 1.45 10.7
10/27/2022 6:15:00 PM 10.55 50.99 0.038 7.11 1.52 10.7
10/27/2022 6:30:00 PM 10.49 50.882 0.038 7.11 1.55 10.7
10/27/2022 6:45:00 PM 10.41 50.738 0.038 7.1 1.53 10.7
10/27/2022 7:00:00 PM 10.33 50.594 0.036 7.1 3.17 10.71
10/27/2022 7:15:00 PM 10.26 50.468 0.038 7.1 1.55 10.73
10/27/2022 7:30:00 PM 10.18 50.324 0.038 7.09 2.8 10.75
10/27/2022 7:45:00 PM 10.11 50.198 0.039 7.09 1.55 10.77
10/27/2022 8:00:00 PM 10.04 50.072 0.038 7.09 2.83 10.79
10/27/2022 8:15:00 PM 9.98 49.964 0.039 7.09 1.58 10.8
10/27/2022 8:30:00 PM 9.92 49.856 0.039 7.09 1.56 10.82
10/27/2022 8:45:00 PM 9.85 49.73 0.038 7.08 2.86 10.83
10/27/2022 9:00:00 PM 9.79 49.622 0.039 7.09 1.93 10.84
10/27/2022 9:15:00 PM 9.73 49.514 0.039 7.08 1.53 10.86
10/27/2022 9:30:00 PM 9.66 49.388 0.039 7.08 1.6 10.89
10/27/2022 9:45:00 PM 9.6 49.28 0.039 7.08 1.57 10.91
10/27/2022 10:00:00 PM 9.54 49.172 0.039 7.07 1.61 10.92
10/27/2022 10:15:00 PM 9.49 49.082 0.039 7.05 1.56 10.94
10/27/2022 10:30:00 PM 9.43 48.974 0.039 7.05 1.55 10.97
10/27/2022 10:45:00 PM 9.37 48.866 0.039 7.04 1.74 10.98
10/27/2022 11:00:00 PM 9.3 48.74 0.039 7.05 1.55 11
10/27/2022 11:15:00 PM 9.23 48.614 0.039 7.05 1.55 11.03
10/27/2022 11:30:00 PM 9.16 48.488 0.039 7.05 1.55 11.05
10/27/2022 11:45:00 PM 9.09 48.362 0.039 7.05 1.85 11.08
10/28/2022 12:00:00 AM 9.02 48.236 0.039 7.05 1.57 11.09
10/28/2022 12:15:00 AM 8.94 48.092 0.039 7.05 1.55 11.12
10/28/2022 12:30:00 AM 8.86 47.948 0.039 7.05 1.58 11.15
10/28/2022 12:45:00 AM 8.79 47.822 0.039 7.05 1.6 11.17
10/28/2022 1:00:00 AM 8.71 47.678 0.039 7.05 1.64 11.2
10/28/2022 1:15:00 AM 8.64 47.552 0.038 7.05 3.27 11.23
10/28/2022 1:30:00 AM 8.56 47.408 0.039 7.05 1.6 11.25
10/28/2022 1:45:00 AM 8.49 47.282 0.039 7.05 1.69 11.27
10/28/2022 2:00:00 AM 8.41 47.138 0.039 7.05 1.64 11.28
10/28/2022 2:15:00 AM 8.33 46.994 0.039 7.05 1.57 11.32
10/28/2022 2:30:00 AM 8.25 46.85 0.039 7.05 1.56 11.35
10/28/2022 2:45:00 AM 8.18 46.724 0.039 7.05 1.57 11.38
10/28/2022 3:00:00 AM 8.1 46.58 0.039 7.05 1.55 11.4
10/28/2022 3:15:00 AM 8.02 46.436 0.039 7.05 1.64 11.43
10/28/2022 3:30:00 AM 7.94 46.292 0.039 7.05 1.58 11.47
10/28/2022 3:45:00 AM 7.87 46.166 0.039 7.05 1.65 11.49
10/28/2022 4:00:00 AM 7.8 46.04 0.039 7.05 1.58 11.5
10/28/2022 4:15:00 AM 7.71 45.878 0.039 7.05 1.59 11.54
10/28/2022 4:30:00 AM 7.63 45.734 0.039 7.05 1.54 11.57
10/28/2022 4:45:00 AM 7.56 45.608 0.039 7.05 1.6 11.59
10/28/2022 5:00:00 AM 7.49 45.482 0.039 7.05 1.61 11.63
10/28/2022 5:15:00 AM 7.42 45.356 0.039 7.05 1.56 11.64
10/28/2022 5:30:00 AM 7.37 45.266 0.039 7.05 1.59 11.65
10/28/2022 5:45:00 AM 7.31 45.158 0.039 7.05 1.63 11.66
10/28/2022 6:00:00 AM 7.24 45.032 0.039 7.05 1.58 11.68
10/28/2022 6:15:00 AM 7.19 44.942 0.039 7.05 1.54 11.69
10/28/2022 6:30:00 AM 7.12 44.816 0.039 7.06 1.55 11.72
10/28/2022 6:45:00 AM 7.05 44.69 0.039 7.06 1.6 11.74
10/28/2022 7:00:00 AM 6.99 44.582 0.039 7.06 1.57 11.76
10/28/2022 7:15:00 AM 6.94 44.492 0.039 7.05 1.62 11.78
10/28/2022 7:30:00 AM 6.87 44.366 0.039 7.06 1.59 11.82
10/28/2022 7:45:00 AM 6.81 44.258 0.039 7.06 1.57 11.85
10/28/2022 8:00:00 AM 6.78 44.204 0.037 7.06 3 11.86
10/28/2022 8:15:00 AM 6.72 44.096 0.039 7.06 1.61 11.92
10/28/2022 8:30:00 AM 6.69 44.042 0.039 7.07 1.57 11.98
10/28/2022 8:45:00 AM 6.66 43.988 0.037 7.08 2.88 12
10/28/2022 9:00:00 AM 6.63 43.934 0.039 7.09 1.56 12.07
10/28/2022 9:15:00 AM 6.61 43.898 0.039 7.09 1.57 12.1
10/28/2022 9:30:00 AM 6.6 43.88 0.039 7.1 1.57 12.16
10/28/2022 9:45:00 AM 6.59 43.862 0.039 7.11 1.53 12.19
10/28/2022 10:00:00 AM 6.61 43.898 0.039 7.12 1.56 12.19
10/28/2022 10:15:00 AM 6.63 43.934 0.039 7.13 1.55 12.22
10/28/2022 10:30:00 AM 6.68 44.024 0.039 7.14 1.55 12.23
10/28/2022 10:45:00 AM 6.74 44.132 0.038 7.14 1.56 12.23
10/28/2022 11:00:00 AM 6.8 44.24 0.038 7.15 1.52 12.24
10/28/2022 11:15:00 AM 6.88 44.384 0.038 7.16 1.61 12.24
10/28/2022 11:30:00 AM 6.96 44.528 0.038 7.16 1.56 12.21
10/28/2022 11:45:00 AM 7.06 44.708 0.038 7.17 1.51 12.2
10/28/2022 12:00:00 PM 7.2 44.96 0.037 7.16 2.86 12.15
10/28/2022 12:15:00 PM 7.33 45.194 0.038 7.17 1.51 12.12
10/28/2022 12:30:00 PM 7.51 45.518 0.038 7.17 1.86 12.08
10/28/2022 12:45:00 PM 7.73 45.914 0.038 7.17 1.77 12.04
10/28/2022 1:00:00 PM 7.98 46.364 0.038 7.17 1.51 11.97
10/28/2022 1:15:00 PM 8.19 46.742 0.038 7.17 1.56 11.92
10/28/2022 1:30:00 PM 8.35 47.03 0.038 7.17 1.52 11.88
10/28/2022 1:45:00 PM 8.47 47.246 0.038 7.18 1.56 11.83
10/28/2022 2:00:00 PM 8.56 47.408 0.038 7.17 1.54 11.79
10/28/2022 2:15:00 PM 8.59 47.462 0.038 7.17 1.51 11.75
10/28/2022 2:30:00 PM 8.56 47.408 0.038 7.18 1.51 11.73
10/28/2022 2:45:00 PM 8.56 47.408 0.038 7.17 1.7 11.71
10/28/2022 3:00:00 PM 8.58 47.444 0.038 7.18 1.49 11.7
10/28/2022 3:15:00 PM 8.64 47.552 0.038 7.18 1.56 11.68
10/28/2022 3:30:00 PM 8.7 47.66 0.038 7.18 1.49 11.66
10/28/2022 3:45:00 PM 8.76 47.768 0.038 7.18 1.51 11.63
10/28/2022 4:00:00 PM 8.81 47.858 0.038 7.18 1.57 11.6
10/28/2022 4:15:00 PM 8.86 47.948 0.038 7.18 1.55 11.55
10/28/2022 4:30:00 PM 8.9 48.02 0.038 7.17 1.53 11.52
10/28/2022 4:45:00 PM 8.93 48.074 0.038 7.17 1.5 11.49
10/28/2022 5:00:00 PM 8.95 48.11 0.038 7.16 1.54 11.47
10/28/2022 5:15:00 PM 8.96 48.128 0.038 7.16 1.62 11.44
10/28/2022 5:30:00 PM 8.95 48.11 0.038 7.15 1.57 11.42
10/28/2022 5:45:00 PM 8.93 48.074 0.038 7.14 1.61 11.39
10/28/2022 6:00:00 PM 8.9 48.02 0.038 7.14 1.63 11.36
10/28/2022 6:15:00 PM 8.86 47.948 0.038 7.13 1.64 11.33
10/28/2022 6:30:00 PM 8.81 47.858 0.038 7.12 1.6 11.31
10/28/2022 6:45:00 PM 8.76 47.768 0.038 7.11 1.56 11.28
10/28/2022 7:00:00 PM 8.72 47.696 0.038 7.11 1.58 11.26
10/28/2022 7:15:00 PM 8.68 47.624 0.038 7.1 1.5 11.27
10/28/2022 7:30:00 PM 8.64 47.552 0.038 7.1 1.89 11.27
10/28/2022 7:45:00 PM 8.6 47.48 0.038 7.1 1.69 11.27
10/28/2022 8:00:00 PM 8.56 47.408 0.038 7.1 1.64 11.29
10/28/2022 8:15:00 PM 8.52 47.336 0.038 7.09 1.64 11.3
10/28/2022 8:30:00 PM 8.48 47.264 0.038 7.09 1.61 11.31
10/28/2022 8:45:00 PM 8.44 47.192 0.038 7.09 1.57 11.31
10/28/2022 9:00:00 PM 8.4 47.12 0.038 7.09 1.77 11.32
10/28/2022 9:15:00 PM 8.36 47.048 0.038 7.09 1.61 11.33
10/28/2022 9:30:00 PM 8.31 46.958 0.038 7.09 1.68 11.34
10/28/2022 9:45:00 PM 8.27 46.886 0.039 7.09 1.6 11.35
10/28/2022 10:00:00 PM 8.23 46.814 0.039 7.09 1.64 11.36
10/28/2022 10:15:00 PM 8.19 46.742 0.039 7.08 1.6 11.38
10/28/2022 10:30:00 PM 8.15 46.67 0.039 7.08 1.68 11.39
10/28/2022 10:45:00 PM 8.1 46.58 0.039 7.08 1.68 11.4
10/28/2022 11:00:00 PM 8.05 46.49 0.039 7.08 1.7 11.42
10/28/2022 11:15:00 PM 8 46.4 0.039 7.08 1.62 11.44
10/28/2022 11:30:00 PM 7.96 46.328 0.039 7.08 1.6 11.45
10/28/2022 11:45:00 PM 7.9 46.22 0.039 7.08 1.64 11.46
10/29/2022 12:00:00 AM 7.84 46.112 0.039 7.08 1.64 11.49
10/29/2022 12:15:00 AM 7.78 46.004 0.039 7.08 1.73 11.52
10/29/2022 12:30:00 AM 7.73 45.914 0.039 7.08 1.63 11.52
10/29/2022 12:45:00 AM 7.67 45.806 0.039 7.08 1.77 11.55
10/29/2022 1:00:00 AM 7.61 45.698 0.039 7.08 1.6 11.56
10/29/2022 1:15:00 AM 7.54 45.572 0.039 7.09 1.59 11.6
10/29/2022 1:30:00 AM 7.48 45.464 0.039 7.09 1.57 11.62
10/29/2022 1:45:00 AM 7.42 45.356 0.037 7.09 2.98 11.63
10/29/2022 2:00:00 AM 7.36 45.248 0.039 7.09 1.63 11.65
10/29/2022 2:15:00 AM 7.29 45.122 0.037 7.09 2.91 11.68
10/29/2022 2:30:00 AM 7.24 45.032 0.037 7.09 2.93 11.69
10/29/2022 2:45:00 AM 7.16 44.888 0.037 7.09 2.9 11.71
10/29/2022 3:00:00 AM 7.1 44.78 0.039 7.09 1.6 11.75
10/29/2022 3:15:00 AM 7.04 44.672 0.039 7.09 1.57 11.76
10/29/2022 3:30:00 AM 6.97 44.546 0.039 7.09 1.6 11.78
10/29/2022 3:45:00 AM 6.91 44.438 0.039 7.09 1.65 11.8
10/29/2022 4:00:00 AM 6.85 44.33 0.039 7.09 1.59 11.82
10/29/2022 4:15:00 AM 6.78 44.204 0.038 7.09 2.86 11.85
10/29/2022 4:30:00 AM 6.72 44.096 0.039 7.09 2.25 11.87
10/29/2022 4:45:00 AM 6.65 43.97 0.038 7.09 2.86 11.9
10/29/2022 5:00:00 AM 6.6 43.88 0.038 7.09 3.04 11.91
10/29/2022 5:15:00 AM 6.54 43.772 0.039 7.09 1.62 11.92
10/29/2022 5:30:00 AM 6.47 43.646 0.039 7.09 1.63 11.95
10/29/2022 5:45:00 AM 6.42 43.556 0.039 7.09 1.77 11.97
10/29/2022 6:00:00 AM 6.36 43.448 0.039 7.09 1.62 11.99
10/29/2022 6:15:00 AM 6.31 43.358 0.039 7.09 1.6 12
10/29/2022 6:30:00 AM 6.25 43.25 0.039 7.09 1.65 12.02
10/29/2022 6:45:00 AM 6.2 43.16 0.039 7.09 1.6 12.04
10/29/2022 7:00:00 AM 6.14 43.052 0.039 7.09 3.06 12.06
10/29/2022 7:15:00 AM 6.08 42.944 0.039 7.09 1.62 12.09
10/29/2022 7:30:00 AM 6.05 42.89 0.039 7.09 1.66 12.09
10/29/2022 7:45:00 AM 5.99 42.782 0.039 7.09 1.63 12.11
10/29/2022 8:00:00 AM 5.92 42.656 0.039 7.09 1.69 12.16
10/29/2022 8:15:00 AM 5.88 42.584 0.039 7.09 1.54 12.2
10/29/2022 8:30:00 AM 5.82 42.476 0.039 7.1 1.59 12.23
10/29/2022 8:45:00 AM 5.79 42.422 0.039 7.1 1.59 12.27
10/29/2022 9:00:00 AM 5.75 42.35 0.039 7.11 1.59 12.3
10/29/2022 9:15:00 AM 5.7 42.26 0.039 7.08 1.58 12.33
10/29/2022 9:30:00 AM 5.66 42.188 0.039 7.07 1.53 12.37
10/29/2022 9:45:00 AM 5.63 42.134 0.039 7.08 1.6 12.4
10/29/2022 10:00:00 AM 5.6 42.08 0.039 7.08 1.58 12.43
10/29/2022 10:15:00 AM 5.58 42.044 0.038 7.08 3.16 12.45
10/29/2022 10:30:00 AM 5.58 42.044 0.039 7.09 1.58 12.46
10/29/2022 10:45:00 AM 5.6 42.08 0.039 7.1 1.56 12.47
10/29/2022 11:00:00 AM 5.61 42.098 0.039 7.11 1.52 12.49
10/29/2022 11:15:00 AM 5.66 42.188 0.039 7.12 1.61 12.51
10/29/2022 11:30:00 AM 5.75 42.35 0.039 7.12 1.54 12.5
10/29/2022 11:45:00 AM 5.87 42.566 0.039 7.13 1.57 12.5
10/29/2022 12:00:00 PM 6.04 42.872 0.039 7.13 1.62 12.47
10/29/2022 12:15:00 PM 6.25 43.25 0.038 7.13 1.6 12.43
10/29/2022 12:30:00 PM 6.46 43.628 0.038 7.14 1.55 12.39
10/29/2022 12:45:00 PM 6.73 44.114 0.038 7.14 1.54 12.33
10/29/2022 1:00:00 PM 7.05 44.69 0.037 7.15 2.91 12.28
10/29/2022 1:15:00 PM 7.29 45.122 0.038 7.15 1.52 12.19
10/29/2022 1:30:00 PM 7.53 45.554 0.037 7.15 3.09 12.14
10/29/2022 1:45:00 PM 7.74 45.932 0.038 7.16 1.54 12.08
10/29/2022 2:00:00 PM 7.9 46.22 0.038 7.16 1.57 12.02
10/29/2022 2:15:00 PM 7.98 46.364 0.038 7.16 1.5 11.98
10/29/2022 2:30:00 PM 8.01 46.418 0.038 7.15 1.53 11.92
10/29/2022 2:45:00 PM 8 46.4 0.038 7.16 1.54 11.89
10/29/2022 3:00:00 PM 8.02 46.436 0.038 7.16 1.58 11.84
10/29/2022 3:15:00 PM 8.07 46.526 0.038 7.15 1.54 11.8
10/29/2022 3:30:00 PM 8.09 46.562 0.038 7.16 1.58 11.78
10/29/2022 3:45:00 PM 8.12 46.616 0.038 7.15 1.55 11.73
10/29/2022 4:00:00 PM 8.14 46.652 0.038 7.15 1.53 11.7
10/29/2022 4:15:00 PM 8.15 46.67 0.038 7.14 1.89 11.65
10/29/2022 4:30:00 PM 8.14 46.652 0.038 7.14 1.57 11.62
10/29/2022 4:45:00 PM 8.13 46.634 0.038 7.14 1.65 11.6
10/29/2022 5:00:00 PM 8.12 46.616 0.038 7.13 1.59 11.58
10/29/2022 5:15:00 PM 8.1 46.58 0.038 7.13 1.56 11.56
10/29/2022 5:30:00 PM 8.08 46.544 0.038 7.12 1.54 11.55
10/29/2022 5:45:00 PM 8.06 46.508 0.038 7.12 1.61 11.53
10/29/2022 6:00:00 PM 8.03 46.454 0.038 7.11 1.63 11.51
10/29/2022 6:15:00 PM 8 46.4 0.038 7.11 1.59 11.5
10/29/2022 6:30:00 PM 7.97 46.346 0.037 7.1 2.98 11.49
10/29/2022 6:45:00 PM 7.93 46.274 0.038 7.1 1.61 11.47
10/29/2022 7:00:00 PM 7.88 46.184 0.038 7.1 1.6 11.49
10/29/2022 7:15:00 PM 7.83 46.094 0.038 7.1 1.65 11.5
10/29/2022 7:30:00 PM 7.79 46.022 0.038 7.09 1.62 11.51
10/29/2022 7:45:00 PM 7.74 45.932 0.038 7.09 1.64 11.51
10/29/2022 8:00:00 PM 7.69 45.842 0.038 7.09 1.61 11.53
10/29/2022 8:15:00 PM 7.65 45.77 0.039 7.09 1.65 11.53
10/29/2022 8:30:00 PM 7.61 45.698 0.039 7.08 1.61 11.54
10/29/2022 8:45:00 PM 7.58 45.644 0.039 7.08 1.74 11.54
10/29/2022 9:00:00 PM 7.54 45.572 0.039 7.08 1.59 11.57
10/29/2022 9:15:00 PM 7.5 45.5 0.039 7.08 1.64 11.57
10/29/2022 9:30:00 PM 7.47 45.446 0.039 7.08 1.83 11.56
10/29/2022 9:45:00 PM 7.44 45.392 0.039 7.08 1.61 11.57
10/29/2022 10:00:00 PM 7.4 45.32 0.039 7.07 2.03 11.58
10/29/2022 10:15:00 PM 7.36 45.248 0.039 7.07 1.66 11.59
10/29/2022 10:30:00 PM 7.32 45.176 0.039 7.08 1.6 11.6
10/29/2022 10:45:00 PM 7.28 45.104 0.039 7.08 1.6 11.63
10/29/2022 11:00:00 PM 7.23 45.014 0.039 7.08 1.62 11.64
10/29/2022 11:15:00 PM 7.2 44.96 0.039 7.07 1.63 11.64
10/29/2022 11:30:00 PM 7.17 44.906 0.039 7.07 1.59 11.64
10/29/2022 11:45:00 PM 7.11 44.798 0.039 7.08 1.68 11.68
10/30/2022 12:00:00 AM 7.07 44.726 0.039 7.08 1.73 11.68
10/30/2022 12:15:00 AM 7.02 44.636 0.039 7.08 1.65 11.7
10/30/2022 12:30:00 AM 6.97 44.546 0.037 7.07 3.02 11.7
10/30/2022 12:45:00 AM 6.91 44.438 0.037 7.08 2.94 11.74
10/30/2022 1:00:00 AM 6.84 44.312 0.037 7.08 3.09 11.76
10/30/2022 1:15:00 AM 6.79 44.222 0.037 7.08 2.96 11.78
10/30/2022 1:30:00 AM 6.73 44.114 0.039 7.08 1.63 11.79
10/30/2022 1:45:00 AM 6.68 44.024 0.038 7.08 2.99 11.8
10/30/2022 2:00:00 AM 6.62 43.916 0.039 7.08 1.61 11.82
10/30/2022 2:15:00 AM 6.56 43.808 0.039 7.08 1.59 11.84
10/30/2022 2:30:00 AM 6.49 43.682 0.039 7.08 1.64 11.88
10/30/2022 2:45:00 AM 6.44 43.592 0.039 7.08 1.61 11.89
10/30/2022 3:00:00 AM 6.38 43.484 0.039 7.08 1.59 11.91
10/30/2022 3:15:00 AM 6.33 43.394 0.037 7.08 2.95 11.93
10/30/2022 3:30:00 AM 6.27 43.286 0.038 7.08 2.99 11.96
10/30/2022 3:45:00 AM 6.21 43.178 0.038 7.08 3.01 11.98
10/30/2022 4:00:00 AM 6.15 43.07 0.038 7.08 3.01 12
10/30/2022 4:15:00 AM 6.09 42.962 0.038 7.09 3.12 12.03
10/30/2022 4:30:00 AM 6.03 42.854 0.039 7.09 1.72 12.05
10/30/2022 4:45:00 AM 5.98 42.764 0.039 7.09 1.68 12.07
10/30/2022 5:00:00 AM 5.92 42.656 0.039 7.09 1.58 12.09
10/30/2022 5:15:00 AM 5.86 42.548 0.038 7.09 3 12.12
10/30/2022 5:30:00 AM 5.8 42.44 0.039 7.09 1.65 12.13
10/30/2022 5:45:00 AM 5.75 42.35 0.039 7.09 1.58 12.15
10/30/2022 6:00:00 AM 5.69 42.242 0.039 7.09 1.62 12.17
10/30/2022 6:15:00 AM 5.64 42.152 0.038 7.09 3.02 12.19
10/30/2022 6:30:00 AM 5.58 42.044 0.039 7.09 1.54 12.22
10/30/2022 6:45:00 AM 5.52 41.936 0.039 7.09 1.91 12.23
10/30/2022 7:00:00 AM 5.46 41.828 0.039 7.09 1.57 12.26
10/30/2022 7:15:00 AM 5.42 41.756 0.039 7.09 1.66 12.28
10/30/2022 7:30:00 AM 5.36 41.648 0.039 7.09 1.54 12.3
10/30/2022 7:45:00 AM 5.32 41.576 0.039 7.09 1.58 12.32
10/30/2022 8:00:00 AM 5.27 41.486 0.039 7.09 1.58 12.35
10/30/2022 8:15:00 AM 5.22 41.396 0.038 7.09 2.96 12.39
10/30/2022 8:30:00 AM 5.18 41.324 0.039 7.1 1.62 12.43
10/30/2022 8:45:00 AM 5.15 41.27 0.039 7.1 1.58 12.48
10/30/2022 9:00:00 AM 5.13 41.234 0.039 7.11 1.55 12.51
10/30/2022 9:15:00 AM 5.09 41.162 0.037 7.11 2.97 12.55
10/30/2022 9:30:00 AM 5.07 41.126 0.039 7.11 1.53 12.56
10/30/2022 9:45:00 AM 5.03 41.054 0.038 7.12 2.87 12.58
10/30/2022 10:00:00 AM 5.01 41.018 0.039 7.12 1.57 12.59
10/30/2022 10:15:00 AM 4.99 40.982 0.039 7.12 1.57 12.61
10/30/2022 10:30:00 AM 4.99 40.982 0.038 7.12 2.81 12.62
10/30/2022 10:45:00 AM 5.01 41.018 0.039 7.12 1.54 12.62
10/30/2022 11:00:00 AM 5.04 41.072 0.039 7.13 1.52 12.64
10/30/2022 11:15:00 AM 5.09 41.162 0.039 7.13 1.57 12.64
10/30/2022 11:30:00 AM 5.18 41.324 0.039 7.13 1.53 12.63
10/30/2022 11:45:00 AM 5.31 41.558 0.039 7.13 1.5 12.62
10/30/2022 12:00:00 PM 5.48 41.864 0.038 7.14 1.51 12.6
10/30/2022 12:15:00 PM 5.69 42.242 0.038 7.14 1.53 12.56
10/30/2022 12:30:00 PM 5.92 42.656 0.038 7.14 2.9 12.52
10/30/2022 12:45:00 PM 6.21 43.178 0.037 7.15 2.89 12.45
10/30/2022 1:00:00 PM 6.44 43.592 0.038 7.15 1.67 12.39
10/30/2022 1:15:00 PM 6.68 44.024 0.038 7.15 1.56 12.33
10/30/2022 1:30:00 PM 6.88 44.384 0.038 7.16 1.58 12.27
10/30/2022 1:45:00 PM 7.12 44.816 0.037 7.16 2.96 12.2
10/30/2022 2:00:00 PM 7.21 44.978 0.038 7.16 1.5 12.15
10/30/2022 2:15:00 PM 7.26 45.068 0.038 7.16 1.54 12.1
10/30/2022 2:30:00 PM 7.31 45.158 0.038 7.16 1.48 12.06
10/30/2022 2:45:00 PM 7.37 45.266 0.038 7.17 1.56 12.03
10/30/2022 3:00:00 PM 7.38 45.284 0.038 7.16 1.52 11.97
10/30/2022 3:15:00 PM 7.42 45.356 0.038 7.16 1.51 11.95
10/30/2022 3:30:00 PM 7.47 45.446 0.038 7.16 1.53 11.91
10/30/2022 3:45:00 PM 7.55 45.59 0.038 7.16 1.51 11.89
10/30/2022 4:00:00 PM 7.62 45.716 0.038 7.16 1.57 11.86
10/30/2022 4:15:00 PM 7.68 45.824 0.038 7.16 1.49 11.82
10/30/2022 4:30:00 PM 7.69 45.842 0.038 7.16 1.57 11.77
10/30/2022 4:45:00 PM 7.69 45.842 0.038 7.15 1.51 11.71
10/30/2022 5:00:00 PM 7.69 45.842 0.038 7.14 1.52 11.69
10/30/2022 5:15:00 PM 7.69 45.842 0.038 7.14 1.49 11.66
10/30/2022 5:30:00 PM 7.68 45.824 0.038 7.13 1.54 11.63
10/30/2022 5:45:00 PM 7.67 45.806 0.038 7.13 1.55 11.62
10/30/2022 6:00:00 PM 7.65 45.77 0.038 7.12 1.54 11.59
10/30/2022 6:15:00 PM 7.64 45.752 0.038 7.11 1.53 11.55
10/30/2022 6:30:00 PM 7.62 45.716 0.038 7.11 1.55 11.54
10/30/2022 6:45:00 PM 7.61 45.698 0.038 7.1 1.57 11.52
10/30/2022 7:00:00 PM 7.6 45.68 0.038 7.1 1.59 11.51
10/30/2022 7:15:00 PM 7.58 45.644 0.038 7.09 1.58 11.5
10/30/2022 7:30:00 PM 7.57 45.626 0.038 7.09 1.59 11.5
10/30/2022 7:45:00 PM 7.58 45.644 0.038 7.08 1.71 11.47
10/30/2022 8:00:00 PM 7.56 45.608 0.038 7.09 1.6 11.49
10/30/2022 8:15:00 PM 7.56 45.608 0.038 7.08 1.57 11.5
10/30/2022 8:30:00 PM 7.56 45.608 0.038 7.08 1.61 11.46
10/30/2022 8:45:00 PM 7.53 45.554 0.038 7.07 1.53 11.49
10/30/2022 9:00:00 PM 7.51 45.518 0.038 7.08 1.58 11.49
10/30/2022 9:15:00 PM 7.5 45.5 0.038 7.08 1.62 11.5
10/30/2022 9:30:00 PM 7.5 45.5 0.039 7.07 1.58 11.48
10/30/2022 9:45:00 PM 7.5 45.5 0.039 7.08 1.56 11.48
10/30/2022 10:00:00 PM 7.48 45.464 0.039 7.07 1.7 11.48
10/30/2022 10:15:00 PM 7.46 45.428 0.039 7.07 1.62 11.49
10/30/2022 10:30:00 PM 7.45 45.41 0.039 7.08 1.67 11.49
10/30/2022 10:45:00 PM 7.44 45.392 0.039 7.07 1.79 11.49
10/30/2022 11:00:00 PM 7.42 45.356 0.039 7.07 1.57 11.49
10/30/2022 11:15:00 PM 7.39 45.302 0.039 7.07 1.64 11.51
10/30/2022 11:30:00 PM 7.37 45.266 0.039 7.07 1.57 11.51
10/30/2022 11:45:00 PM 7.34 45.212 0.039 7.07 1.56 11.52
10/31/2022 12:00:00 AM 7.31 45.158 0.039 7.07 1.55 11.54
10/31/2022 12:15:00 AM 7.29 45.122 0.039 7.07 1.57 11.53
10/31/2022 12:30:00 AM 7.26 45.068 0.039 7.07 1.58 11.54
10/31/2022 12:45:00 AM 7.22 44.996 0.039 7.07 1.74 11.54
10/31/2022 1:00:00 AM 7.19 44.942 0.039 7.07 1.56 11.57
10/31/2022 1:15:00 AM 7.15 44.87 0.039 7.07 1.56 11.58
10/31/2022 1:30:00 AM 7.11 44.798 0.039 7.07 1.61 11.59
10/31/2022 1:45:00 AM 7.08 44.744 0.039 7.08 1.54 11.62
10/31/2022 2:00:00 AM 7.07 44.726 0.039 7.08 1.56 11.63
10/31/2022 2:15:00 AM 7.05 44.69 0.039 7.08 1.56 11.63
10/31/2022 2:30:00 AM 7.03 44.654 0.039 7.08 1.7 11.64
10/31/2022 2:45:00 AM 7.01 44.618 0.039 7.08 1.56 11.64
10/31/2022 3:00:00 AM 6.99 44.582 0.039 7.08 1.63 11.65
10/31/2022 3:15:00 AM 6.96 44.528 0.039 7.08 1.6 11.66
10/31/2022 3:30:00 AM 6.93 44.474 0.039 7.08 1.57 11.67
10/31/2022 3:45:00 AM 6.91 44.438 0.038 7.08 2.92 11.67
10/31/2022 4:00:00 AM 6.89 44.402 0.039 7.08 1.69 11.69
10/31/2022 4:15:00 AM 6.87 44.366 0.039 7.08 1.53 11.69
10/31/2022 4:30:00 AM 6.85 44.33 0.039 7.08 1.55 11.7
10/31/2022 4:45:00 AM 6.83 44.294 0.039 7.08 1.56 11.71
10/31/2022 5:00:00 AM 6.79 44.222 0.039 7.08 1.54 11.71
10/31/2022 5:15:00 AM 6.76 44.168 0.039 7.08 1.6 11.72
10/31/2022 5:30:00 AM 6.72 44.096 0.039 7.08 1.56 11.74
10/31/2022 5:45:00 AM 6.69 44.042 0.039 7.08 1.54 11.75
10/31/2022 6:00:00 AM 6.66 43.988 0.039 7.08 1.65 11.75
10/31/2022 6:15:00 AM 6.62 43.916 0.039 7.08 1.59 11.78
10/31/2022 6:30:00 AM 6.58 43.844 0.039 7.08 1.54 11.79
10/31/2022 6:45:00 AM 6.54 43.772 0.039 7.08 1.62 11.8
10/31/2022 7:00:00 AM 6.52 43.736 0.039 7.08 1.68 11.81
10/31/2022 7:15:00 AM 6.49 43.682 0.039 7.08 1.6 11.83
10/31/2022 7:30:00 AM 6.47 43.646 0.038 7.08 2.99 11.83
10/31/2022 7:45:00 AM 6.44 43.592 0.039 7.08 1.63 11.85
10/31/2022 8:00:00 AM 6.44 43.592 0.039 7.09 1.56 11.88
10/31/2022 8:15:00 AM 6.45 43.61 0.039 7.09 1.57 11.91
10/31/2022 8:30:00 AM 6.45 43.61 0.039 7.09 1.86 11.91
10/31/2022 8:45:00 AM 6.46 43.628 0.039 7.1 1.63 11.93
10/31/2022 9:00:00 AM 6.47 43.646 0.039 7.1 1.56 11.98
10/31/2022 9:15:00 AM 6.5 43.7 0.039 7.11 1.59 12
10/31/2022 9:30:00 AM 6.55 43.79 0.039 7.12 1.57 12.03
10/31/2022 9:45:00 AM 6.57 43.826 0.039 7.12 1.57 12.04
10/31/2022 10:00:00 AM 6.61 43.898 0.039 7.13 1.58 12.04
10/31/2022 10:15:00 AM 6.65 43.97 0.039 7.13 1.6 12.04
10/31/2022 10:30:00 AM 6.69 44.042 0.039 7.14 1.56 12.05
10/31/2022 10:45:00 AM 6.73 44.114 0.039 7.14 1.55 12.05
10/31/2022 11:00:00 AM 6.8 44.24 0.039 7.14 1.6 12.04
10/31/2022 11:15:00 AM 6.89 44.402 0.038 7.15 1.56 12.04
10/31/2022 11:30:00 AM 6.98 44.564 0.038 7.15 1.59 12.02
10/31/2022 11:45:00 AM 7.08 44.744 0.038 7.15 1.59 12.01
10/31/2022 12:00:00 PM 7.19 44.942 0.038 7.16 1.51 11.99
10/31/2022 12:15:00 PM 7.26 45.068 0.038 7.16 1.55 11.96
10/31/2022 12:30:00 PM 7.35 45.23 0.038 7.16 1.57 11.94
10/31/2022 12:45:00 PM 7.41 45.338 0.038 7.16 1.5 11.91
10/31/2022 1:00:00 PM 7.52 45.536 0.038 7.16 1.52 11.89
10/31/2022 1:15:00 PM 7.6 45.68 0.038 7.16 1.51 11.84
10/31/2022 1:30:00 PM 7.66 45.788 0.038 7.16 1.56 11.8
10/31/2022 1:45:00 PM 7.7 45.86 0.038 7.16 1.56 11.76
10/31/2022 2:00:00 PM 7.75 45.95 0.038 7.16 1.57 11.72
10/31/2022 2:15:00 PM 7.8 46.04 0.038 7.16 1.5 11.71
10/31/2022 2:30:00 PM 7.85 46.13 0.038 7.16 1.55 11.68
10/31/2022 2:45:00 PM 7.91 46.238 0.038 7.16 1.45 11.67
10/31/2022 3:00:00 PM 7.99 46.382 0.038 7.16 1.46 11.66
10/31/2022 3:15:00 PM 8.08 46.544 0.038 7.16 1.44 11.64
10/31/2022 3:30:00 PM 8.13 46.634 0.038 7.16 1.43 11.61
10/31/2022 3:45:00 PM 8.17 46.706 0.038 7.16 1.48 11.59
10/31/2022 4:00:00 PM 8.21 46.778 0.038 7.16 1.44 11.56
10/31/2022 4:15:00 PM 8.25 46.85 0.038 7.15 1.45 11.52
10/31/2022 4:30:00 PM 8.27 46.886 0.038 7.14 1.51 11.48
10/31/2022 4:45:00 PM 8.29 46.922 0.038 7.13 1.45 11.43
10/31/2022 5:00:00 PM 8.32 46.976 0.038 7.13 1.48 11.4
10/31/2022 5:15:00 PM 8.34 47.012 0.038 7.13 1.44 11.38
10/31/2022 5:30:00 PM 8.36 47.048 0.038 7.12 1.49 11.35
10/31/2022 5:45:00 PM 8.38 47.084 0.038 7.11 1.5 11.31
10/31/2022 6:00:00 PM 8.4 47.12 0.036 7.1 2.93 11.28
10/31/2022 6:15:00 PM 8.41 47.138 0.038 7.1 1.5 11.25
10/31/2022 6:30:00 PM 8.43 47.174 0.038 7.09 1.57 11.23
10/31/2022 6:45:00 PM 8.44 47.192 0.038 7.09 1.56 11.21
10/31/2022 7:00:00 PM 8.46 47.228 0.038 7.08 1.52 11.19
10/31/2022 7:15:00 PM 8.48 47.264 0.038 7.08 1.51 11.19
10/31/2022 7:30:00 PM 8.5 47.3 0.038 7.07 1.55 11.17
10/31/2022 7:45:00 PM 8.52 47.336 0.038 7.07 1.62 11.17
10/31/2022 8:00:00 PM 8.53 47.354 0.039 7.07 1.47 11.15
10/31/2022 8:15:00 PM 8.55 47.39 0.037 7.07 2.84 11.16
10/31/2022 8:30:00 PM 8.57 47.426 0.039 7.06 1.51 11.14
10/31/2022 8:45:00 PM 8.59 47.462 0.039 7.06 1.47 11.14
10/31/2022 9:00:00 PM 8.6 47.48 0.039 7.06 1.82 11.12
10/31/2022 9:15:00 PM 8.62 47.516 0.039 7.05 1.69 11.11
10/31/2022 9:30:00 PM 8.64 47.552 0.039 7.05 1.58 11.11
10/31/2022 9:45:00 PM 8.66 47.588 0.039 7.05 1.59 11.1
10/31/2022 10:00:00 PM 8.67 47.606 0.039 7.05 1.56 11.09
10/31/2022 10:15:00 PM 8.69 47.642 0.039 7.05 1.51 11.09
10/31/2022 10:30:00 PM 8.71 47.678 0.039 7.04 1.55 11.07
10/31/2022 10:45:00 PM 8.73 47.714 0.039 7.04 1.77 11.06
10/31/2022 11:00:00 PM 8.74 47.732 0.039 7.03 1.49 11.04
10/31/2022 11:15:00 PM 8.76 47.768 0.039 7.04 1.59 11.04
10/31/2022 11:30:00 PM 8.78 47.804 0.039 7.04 1.54 11.04
10/31/2022 11:45:00 PM 8.79 47.822 0.039 7.03 1.51 11.04
11/1/2022 12:00:00 AM 8.81 47.858 0.039 7.03 1.45 11.03
11/1/2022 12:15:00 AM 8.82 47.876 0.039 7.03 1.57 11.03
11/1/2022 12:30:00 AM 8.83 47.894 0.039 7.03 1.49 11.04
11/1/2022 12:45:00 AM 8.85 47.93 0.039 7.03 1.5 11.02
11/1/2022 1:00:00 AM 8.86 47.948 0.039 7.03 1.49 11.02
11/1/2022 1:15:00 AM 8.87 47.966 0.039 7.03 1.51 11.02
11/1/2022 1:30:00 AM 8.88 47.984 0.039 7.03 1.52 11.02
11/1/2022 1:45:00 AM 8.89 48.002 0.038 7.03 2.9 11.02
11/1/2022 2:00:00 AM 8.9 48.02 0.038 7.02 2.93 11.01
11/1/2022 2:15:00 AM 8.91 48.038 0.039 7.03 1.6 11.01
11/1/2022 2:30:00 AM 8.92 48.056 0.039 7.02 1.54 11.01
11/1/2022 2:45:00 AM 8.93 48.074 0.039 7.03 1.49 11.01
11/1/2022 3:00:00 AM 8.94 48.092 0.039 7.03 1.53 11
11/1/2022 3:15:00 AM 8.95 48.11 0.039 7.02 1.54 11.01
11/1/2022 3:30:00 AM 8.96 48.128 0.039 7.02 1.48 11.01
11/1/2022 3:45:00 AM 8.97 48.146 0.039 7.02 1.49 11.01
11/1/2022 4:00:00 AM 8.98 48.164 0.039 7.02 1.5 10.99
11/1/2022 4:15:00 AM 8.98 48.164 0.039 7.02 1.52 11
11/1/2022 4:30:00 AM 8.99 48.182 0.039 7.02 1.51 11
11/1/2022 4:45:00 AM 9 48.2 0.04 7.02 1.55 10.99
11/1/2022 5:00:00 AM 9.01 48.218 0.04 7.02 1.51 10.99
11/1/2022 5:15:00 AM 9.01 48.218 0.04 7.02 1.55 11
11/1/2022 5:30:00 AM 9.02 48.236 0.04 7.01 1.48 10.98
11/1/2022 5:45:00 AM 9.03 48.254 0.04 7.01 1.65 10.98
11/1/2022 6:00:00 AM 9.03 48.254 0.04 7.01 1.54 10.98
11/1/2022 6:15:00 AM 9.04 48.272 0.04 7.01 1.52 10.98
11/1/2022 6:30:00 AM 9.05 48.29 0.04 7.01 1.54 10.97
11/1/2022 6:45:00 AM 9.05 48.29 0.04 7.01 1.51 10.96
11/1/2022 7:00:00 AM 9.07 48.326 0.04 6.99 1.61 10.94
11/1/2022 7:15:00 AM 9.07 48.326 0.04 6.99 1.85 10.92
11/1/2022 7:30:00 AM 9.08 48.344 0.04 6.99 1.53 10.92
11/1/2022 7:45:00 AM 9.09 48.362 0.04 6.99 1.55 10.92
11/1/2022 8:00:00 AM 9.1 48.38 0.04 6.99 1.59 10.91
11/1/2022 8:15:00 AM 9.11 48.398 0.04 6.99 1.65 10.93
11/1/2022 8:30:00 AM 9.12 48.416 0.04 6.99 1.61 10.94
11/1/2022 8:45:00 AM 9.13 48.434 0.04 7 1.62 10.99
11/1/2022 9:00:00 AM 9.15 48.47 0.04 7 1.55 11.01
11/1/2022 9:15:00 AM 9.16 48.488 0.04 7 1.53 11.01
11/1/2022 9:30:00 AM 9.18 48.524 0.04 7.01 1.5 11.03
11/1/2022 9:45:00 AM 9.21 48.578 0.04 7.01 1.56 11.05
11/1/2022 10:00:00 AM 9.24 48.632 0.039 7.02 1.63 11.08
11/1/2022 10:15:00 AM 9.27 48.686 0.039 7.02 1.55 11.08
11/1/2022 10:30:00 AM 9.32 48.776 0.039 7.04 1.58 11.14
11/1/2022 10:45:00 AM 9.37 48.866 0.038 7.06 3.02 11.14
11/1/2022 11:00:00 AM 9.41 48.938 0.039 7.07 1.62 11.14
11/1/2022 11:15:00 AM 9.46 49.028 0.039 7.08 1.52 11.14
11/1/2022 11:30:00 AM 9.5 49.1 0.039 7.1 1.61 11.15
11/1/2022 11:45:00 AM 9.57 49.226 0.038 7.1 2.86 11.15
11/1/2022 12:00:00 PM 9.66 49.388 0.039 7.12 1.52 11.16
11/1/2022 12:15:00 PM 9.75 49.55 0.039 7.12 1.67 11.16
11/1/2022 12:30:00 PM 9.84 49.712 0.037 7.12 2.79 11.15
11/1/2022 12:45:00 PM 9.95 49.91 0.039 7.13 1.54 11.15
11/1/2022 1:00:00 PM 10.12 50.216 0.039 7.14 1.54 11.1
11/1/2022 1:15:00 PM 10.19 50.342 0.038 7.14 3.01 11.08
11/1/2022 1:30:00 PM 10.24 50.432 0.037 7.14 2.97 11.06
11/1/2022 1:45:00 PM 10.27 50.486 0.039 7.14 1.51 11.03
11/1/2022 2:00:00 PM 10.31 50.558 0.039 7.14 1.59 10.99
11/1/2022 2:15:00 PM 10.32 50.576 0.037 7.13 2.88 10.98
11/1/2022 2:30:00 PM 10.39 50.702 0.039 7.14 1.92 10.97
11/1/2022 2:45:00 PM 10.49 50.882 0.037 7.14 3 10.97
11/1/2022 3:00:00 PM 10.55 50.99 0.039 7.14 1.56 10.94
11/1/2022 3:15:00 PM 10.63 51.134 0.039 7.15 1.43 10.93
11/1/2022 3:30:00 PM 10.68 51.224 0.039 7.15 1.5 10.9
11/1/2022 3:45:00 PM 10.71 51.278 0.038 7.15 1.44 10.87
11/1/2022 4:00:00 PM 10.73 51.314 0.038 7.15 1.4 10.85
11/1/2022 4:15:00 PM 10.76 51.368 0.038 7.15 1.42 10.84
11/1/2022 4:30:00 PM 10.78 51.404 0.039 7.13 1.6 10.79
11/1/2022 4:45:00 PM 10.8 51.44 0.038 7.13 1.65 10.79
11/1/2022 5:00:00 PM 10.8 51.44 0.039 7.12 1.42 10.74
11/1/2022 5:15:00 PM 10.79 51.422 0.039 7.12 1.44 10.69
11/1/2022 5:30:00 PM 10.78 51.404 0.039 7.11 1.44 10.68
11/1/2022 5:45:00 PM 10.76 51.368 0.039 7.1 1.5 10.64
11/1/2022 6:00:00 PM 10.75 51.35 0.039 7.08 1.5 10.6
11/1/2022 6:15:00 PM 10.73 51.314 0.039 7.07 1.49 10.57
11/1/2022 6:30:00 PM 10.73 51.314 0.039 7.07 1.55 10.55
11/1/2022 6:45:00 PM 10.71 51.278 0.038 7.06 2.96 10.53
11/1/2022 7:00:00 PM 10.68 51.224 0.039 7.06 1.46 10.54
11/1/2022 7:15:00 PM 10.68 51.224 0.038 7.06 2.96 10.54
11/1/2022 7:30:00 PM 10.68 51.224 0.039 7.05 1.55 10.51
11/1/2022 7:45:00 PM 10.68 51.224 0.039 7.04 1.45 10.53
11/1/2022 8:00:00 PM 10.68 51.224 0.039 7.04 1.51 10.53
11/1/2022 8:15:00 PM 10.68 51.224 0.038 7.03 2.75 10.54
11/1/2022 8:30:00 PM 10.67 51.206 0.039 7.03 1.51 10.53
11/1/2022 8:45:00 PM 10.65 51.17 0.039 7.03 1.56 10.54
11/1/2022 9:00:00 PM 10.64 51.152 0.039 7.03 1.46 10.55
11/1/2022 9:15:00 PM 10.62 51.116 0.039 7.03 1.51 10.54
11/1/2022 9:30:00 PM 10.62 51.116 0.039 7.03 1.47 10.55
11/1/2022 9:45:00 PM 10.61 51.098 0.039 7.03 1.46 10.55
11/1/2022 10:00:00 PM 10.58 51.044 0.039 7.02 1.51 10.54
11/1/2022 10:15:00 PM 10.55 50.99 0.039 7.03 1.61 10.57
11/1/2022 10:30:00 PM 10.52 50.936 0.039 7.03 2.93 10.57
11/1/2022 10:45:00 PM 10.49 50.882 0.039 7.03 1.6 10.56
11/1/2022 11:00:00 PM 10.46 50.828 0.039 7.03 1.49 10.59
11/1/2022 11:15:00 PM 10.43 50.774 0.039 7.03 1.62 10.59
11/1/2022 11:30:00 PM 10.4 50.72 0.037 7.03 3 10.6
11/1/2022 11:45:00 PM 10.37 50.666 0.038 7.02 2.74 10.6
11/2/2022 12:00:00 AM 10.32 50.576 0.04 7.03 1.51 10.62
11/2/2022 12:15:00 AM 10.28 50.504 0.04 7.03 1.47 10.64
11/2/2022 12:30:00 AM 10.24 50.432 0.038 7.03 2.72 10.68
11/2/2022 12:45:00 AM 10.21 50.378 0.04 7.03 1.47 10.66
11/2/2022 1:00:00 AM 10.16 50.288 0.04 7.04 1.47 10.7
11/2/2022 1:15:00 AM 10.11 50.198 0.04 7.04 1.51 10.72
11/2/2022 1:30:00 AM 10.06 50.108 0.04 7.04 1.49 10.73
11/2/2022 1:45:00 AM 10.01 50.018 0.04 7.04 1.55 10.75
11/2/2022 2:00:00 AM 9.96 49.928 0.04 7.04 1.58 10.78
11/2/2022 2:15:00 AM 9.91 49.838 0.04 7.05 1.54 10.81
11/2/2022 2:30:00 AM 9.87 49.766 0.04 7.05 1.56 10.82
11/2/2022 2:45:00 AM 9.83 49.694 0.04 7.05 1.49 10.82
11/2/2022 3:00:00 AM 9.79 49.622 0.04 7.05 1.58 10.85
11/2/2022 3:15:00 AM 9.75 49.55 0.04 7.06 1.59 10.87
11/2/2022 3:30:00 AM 9.74 49.532 0.039 7.05 2.73 10.85
11/2/2022 3:45:00 AM 9.71 49.478 0.04 7.05 1.62 10.87
11/2/2022 4:00:00 AM 9.69 49.442 0.038 7.05 3.47 10.89
11/2/2022 4:15:00 AM 9.67 49.406 0.04 7.06 1.54 10.9
11/2/2022 4:30:00 AM 9.64 49.352 0.04 7.06 1.52 10.9
11/2/2022 4:45:00 AM 9.63 49.334 0.04 7.06 1.9 10.88
11/2/2022 5:00:00 AM 9.6 49.28 0.039 7.06 2.97 10.89
11/2/2022 5:15:00 AM 9.58 49.244 0.039 7.06 3.08 10.92
11/2/2022 5:30:00 AM 9.56 49.208 0.04 7.07 1.61 10.92
11/2/2022 5:45:00 AM 9.53 49.154 0.04 7.07 1.8 10.93
11/2/2022 6:00:00 AM 9.51 49.118 0.038 7.07 3.06 10.95
11/2/2022 6:15:00 AM 9.49 49.082 0.04 7.07 1.53 10.94
11/2/2022 6:30:00 AM 9.46 49.028 0.04 7.08 1.55 10.97
11/2/2022 6:45:00 AM 9.44 48.992 0.039 7.08 2.83 10.97
11/2/2022 7:00:00 AM 9.41 48.938 0.04 7.08 1.62 10.98
11/2/2022 7:15:00 AM 9.39 48.902 0.039 7.08 3.06 10.98
11/2/2022 7:30:00 AM 9.36 48.848 0.039 7.08 2.88 11.01
11/2/2022 7:45:00 AM 9.34 48.812 0.039 7.08 2.83 11.01
11/2/2022 8:00:00 AM 9.31 48.758 0.039 7.08 2.81 11.02
11/2/2022 8:15:00 AM 9.29 48.722 0.04 7.09 1.54 11.05
11/2/2022 8:30:00 AM 9.27 48.686 0.04 7.09 1.56 11.08
11/2/2022 8:45:00 AM 9.25 48.65 0.039 7.09 2.76 11.12
11/2/2022 9:00:00 AM 9.24 48.632 0.04 7.1 1.6 11.15
11/2/2022 9:15:00 AM 9.23 48.614 0.04 7.11 1.62 11.19
11/2/2022 9:30:00 AM 9.22 48.596 0.04 7.11 1.65 11.24
11/2/2022 9:45:00 AM 9.23 48.614 0.037 7.12 2.88 11.28
11/2/2022 10:00:00 AM 9.24 48.632 0.039 7.13 1.53 11.31
11/2/2022 10:15:00 AM 9.25 48.65 0.039 7.14 1.56 11.35
11/2/2022 10:30:00 AM 9.28 48.704 0.039 7.14 1.54 11.36
11/2/2022 10:45:00 AM 9.31 48.758 0.039 7.15 1.55 11.39
11/2/2022 11:00:00 AM 9.34 48.812 0.039 7.15 1.53 11.41
11/2/2022 11:15:00 AM 9.37 48.866 0.039 7.16 1.53 11.41
11/2/2022 11:30:00 AM 9.39 48.902 0.039 7.16 1.58 11.4
11/2/2022 11:45:00 AM 9.44 48.992 0.039 7.16 1.56 11.39
11/2/2022 12:00:00 PM 9.54 49.172 0.037 7.15 2.86 11.37
11/2/2022 12:15:00 PM 9.67 49.406 0.037 7.16 2.95 11.35
11/2/2022 12:30:00 PM 9.81 49.658 0.037 7.15 2.86 11.3
11/2/2022 12:45:00 PM 10.05 50.09 0.039 7.16 1.48 11.29
11/2/2022 1:00:00 PM 10.27 50.486 0.037 7.16 2.84 11.24
11/2/2022 1:15:00 PM 10.51 50.918 0.039 7.17 1.51 11.22
11/2/2022 1:30:00 PM 10.68 51.224 0.039 7.17 1.52 11.14
11/2/2022 1:45:00 PM 10.84 51.512 0.038 7.17 1.59 11.14
11/2/2022 2:00:00 PM 10.96 51.728 0.038 7.18 1.53 11.12
11/2/2022 2:15:00 PM 10.99 51.782 0.038 7.18 1.5 11.09
11/2/2022 2:30:00 PM 10.96 51.728 0.038 7.18 1.54 11.04
11/2/2022 2:45:00 PM 10.93 51.674 0.038 7.17 1.61 11.01
11/2/2022 3:00:00 PM 10.92 51.656 0.038 7.17 1.53 10.98
11/2/2022 3:15:00 PM 10.94 51.692 0.038 7.17 1.56 10.97
11/2/2022 3:30:00 PM 10.94 51.692 0.038 7.17 1.54 10.93
11/2/2022 3:45:00 PM 10.94 51.692 0.038 7.16 1.61 10.9
11/2/2022 4:00:00 PM 10.93 51.674 0.038 7.16 1.59 10.87
11/2/2022 4:15:00 PM 10.92 51.656 0.038 7.15 1.58 10.83
11/2/2022 4:30:00 PM 10.89 51.602 0.038 7.14 1.56 10.81
11/2/2022 4:45:00 PM 10.87 51.566 0.038 7.13 1.57 10.78
11/2/2022 5:00:00 PM 10.84 51.512 0.039 7.12 1.6 10.76
11/2/2022 5:15:00 PM 10.81 51.458 0.039 7.12 1.54 10.74
11/2/2022 5:30:00 PM 10.77 51.386 0.039 7.11 1.57 10.74
11/2/2022 5:45:00 PM 10.73 51.314 0.039 7.1 1.51 10.73
11/2/2022 6:00:00 PM 10.68 51.224 0.039 7.1 1.61 10.72
11/2/2022 6:15:00 PM 10.63 51.134 0.039 7.09 1.55 10.7
11/2/2022 6:30:00 PM 10.58 51.044 0.039 7.09 1.6 10.7
11/2/2022 6:45:00 PM 10.52 50.936 0.039 7.09 1.62 10.7
11/2/2022 7:00:00 PM 10.46 50.828 0.039 7.08 1.57 10.69
11/2/2022 7:15:00 PM 10.4 50.72 0.039 7.08 1.63 10.7
11/2/2022 7:30:00 PM 10.33 50.594 0.039 7.08 1.7 10.72
11/2/2022 7:45:00 PM 10.27 50.486 0.039 7.08 1.6 10.72
11/2/2022 8:00:00 PM 10.21 50.378 0.039 7.07 1.6 10.72
11/2/2022 8:15:00 PM 10.15 50.27 0.039 7.07 1.59 10.76
11/2/2022 8:30:00 PM 10.09 50.162 0.037 7.07 3.05 10.79
11/2/2022 8:45:00 PM 10.04 50.072 0.039 7.07 1.58 10.8
11/2/2022 9:00:00 PM 9.99 49.982 0.039 7.07 1.63 10.82
11/2/2022 9:15:00 PM 9.94 49.892 0.039 7.07 1.7 10.83
11/2/2022 9:30:00 PM 9.89 49.802 0.037 7.07 3.01 10.83
11/2/2022 9:45:00 PM 9.85 49.73 0.039 7.07 1.68 10.85
11/2/2022 10:00:00 PM 9.8 49.64 0.039 7.07 1.59 10.86
11/2/2022 10:15:00 PM 9.75 49.55 0.039 7.07 1.64 10.88
11/2/2022 10:30:00 PM 9.71 49.478 0.039 7.07 1.59 10.89
11/2/2022 10:45:00 PM 9.66 49.388 0.039 7.07 1.62 10.9
11/2/2022 11:00:00 PM 9.61 49.298 0.039 7.07 1.7 10.92
11/2/2022 11:15:00 PM 9.57 49.226 0.039 7.07 1.68 10.94
11/2/2022 11:30:00 PM 9.51 49.118 0.039 7.07 1.63 10.95
11/2/2022 11:45:00 PM 9.46 49.028 0.039 7.07 1.61 10.97
11/3/2022 12:00:00 AM 9.41 48.938 0.039 7.07 1.73 10.99
11/3/2022 12:15:00 AM 9.36 48.848 0.039 7.07 1.68 11
11/3/2022 12:30:00 AM 9.3 48.74 0.039 7.07 1.62 11.03
11/3/2022 12:45:00 AM 9.23 48.614 0.039 7.07 1.6 11.04
11/3/2022 1:00:00 AM 9.18 48.524 0.039 7.07 1.6 11.06
11/3/2022 1:15:00 AM 9.12 48.416 0.04 7.07 1.66 11.08
11/3/2022 1:30:00 AM 9.05 48.29 0.039 7.07 3.08 11.1
11/3/2022 1:45:00 AM 8.99 48.182 0.04 7.07 1.64 11.11
11/3/2022 2:00:00 AM 8.93 48.074 0.04 7.07 1.68 11.14
11/3/2022 2:15:00 AM 8.87 47.966 0.04 7.07 1.94 11.14
11/3/2022 2:30:00 AM 8.8 47.84 0.04 7.07 1.66 11.18
11/3/2022 2:45:00 AM 8.74 47.732 0.04 7.07 1.62 11.2
11/3/2022 3:00:00 AM 8.67 47.606 0.04 7.08 1.66 11.22
11/3/2022 3:15:00 AM 8.61 47.498 0.04 7.07 1.72 11.24
11/3/2022 3:30:00 AM 8.55 47.39 0.04 7.08 1.67 11.27
11/3/2022 3:45:00 AM 8.48 47.264 0.04 7.08 1.81 11.29
11/3/2022 4:00:00 AM 8.42 47.156 0.04 7.08 1.67 11.31
11/3/2022 4:15:00 AM 8.36 47.048 0.04 7.08 1.74 11.33
11/3/2022 4:30:00 AM 8.29 46.922 0.04 7.08 1.67 11.36
11/3/2022 4:45:00 AM 8.22 46.796 0.04 7.08 1.66 11.37
11/3/2022 5:00:00 AM 8.16 46.688 0.04 7.08 1.68 11.39
11/3/2022 5:15:00 AM 8.09 46.562 0.04 7.08 1.65 11.41
11/3/2022 5:30:00 AM 8.03 46.454 0.04 7.08 1.68 11.44
11/3/2022 5:45:00 AM 7.97 46.346 0.04 7.08 1.66 11.45
11/3/2022 6:00:00 AM 7.9 46.22 0.04 7.08 1.66 11.49
11/3/2022 6:15:00 AM 7.84 46.112 0.04 7.08 1.66 11.51
11/3/2022 6:30:00 AM 7.78 46.004 0.04 7.08 1.63 11.53
11/3/2022 6:45:00 AM 7.72 45.896 0.04 7.08 1.72 11.54
11/3/2022 7:00:00 AM 7.66 45.788 0.04 7.08 1.62 11.57
11/3/2022 7:15:00 AM 7.59 45.662 0.04 7.08 1.69 11.6
11/3/2022 7:30:00 AM 7.54 45.572 0.04 7.08 1.6 11.61
11/3/2022 7:45:00 AM 7.48 45.464 0.04 7.08 1.67 11.64
11/3/2022 8:00:00 AM 7.42 45.356 0.04 7.08 1.72 11.66
11/3/2022 8:15:00 AM 7.37 45.266 0.04 7.08 1.65 11.69
11/3/2022 8:30:00 AM 7.32 45.176 0.04 7.09 1.68 11.75
11/3/2022 8:45:00 AM 7.27 45.086 0.04 7.1 1.65 11.8
11/3/2022 9:00:00 AM 7.23 45.014 0.04 7.1 1.64 11.83
11/3/2022 9:15:00 AM 7.19 44.942 0.04 7.1 1.62 11.86
11/3/2022 9:30:00 AM 7.16 44.888 0.04 7.11 1.61 11.9
11/3/2022 9:45:00 AM 7.12 44.816 0.04 7.11 1.63 11.93
11/3/2022 10:00:00 AM 7.1 44.78 0.04 7.12 1.65 11.95
11/3/2022 10:15:00 AM 7.08 44.744 0.04 7.12 1.66 11.97
11/3/2022 10:30:00 AM 7.08 44.744 0.039 7.12 1.62 12
11/3/2022 10:45:00 AM 7.1 44.78 0.039 7.13 1.67 12.01
11/3/2022 11:00:00 AM 7.13 44.834 0.039 7.13 1.68 12.02
11/3/2022 11:15:00 AM 7.18 44.924 0.039 7.14 1.63 12.03
11/3/2022 11:30:00 AM 7.26 45.068 0.039 7.14 1.73 12.05
11/3/2022 11:45:00 AM 7.37 45.266 0.039 7.15 1.61 12.03
11/3/2022 12:00:00 PM 7.52 45.536 0.039 7.15 1.71 12.02
11/3/2022 12:15:00 PM 7.69 45.842 0.039 7.15 1.69 12
11/3/2022 12:30:00 PM 7.9 46.22 0.039 7.16 1.59 11.97
11/3/2022 12:45:00 PM 8.14 46.652 0.039 7.16 1.57 11.92
11/3/2022 1:00:00 PM 8.41 47.138 0.039 7.17 1.6 11.87
11/3/2022 1:15:00 PM 8.66 47.588 0.039 7.17 1.64 11.82
11/3/2022 1:30:00 PM 8.88 47.984 0.039 7.18 1.64 11.77
11/3/2022 1:45:00 PM 9.08 48.344 0.039 7.18 1.6 11.7
11/3/2022 2:00:00 PM 9.22 48.596 0.039 7.18 1.59 11.66
11/3/2022 2:15:00 PM 9.28 48.704 0.038 7.18 2.95 11.61
11/3/2022 2:30:00 PM 9.33 48.794 0.039 7.18 1.56 11.57
11/3/2022 2:45:00 PM 9.34 48.812 0.039 7.18 1.65 11.52
11/3/2022 3:00:00 PM 9.38 48.884 0.038 7.18 1.58 11.48
11/3/2022 3:15:00 PM 9.44 48.992 0.038 7.18 1.59 11.44
11/3/2022 3:30:00 PM 9.47 49.046 0.038 7.18 1.59 11.4
11/3/2022 3:45:00 PM 9.5 49.1 0.038 7.18 1.71 11.36
11/3/2022 4:00:00 PM 9.53 49.154 0.038 7.17 1.64 11.31
11/3/2022 4:15:00 PM 9.53 49.154 0.039 7.16 1.62 11.27
11/3/2022 4:30:00 PM 9.54 49.172 0.039 7.16 1.65 11.24
11/3/2022 4:45:00 PM 9.54 49.172 0.039 7.15 1.62 11.21
11/3/2022 5:00:00 PM 9.54 49.172 0.037 7.15 2.98 11.19
11/3/2022 5:15:00 PM 9.53 49.154 0.039 7.14 1.68 11.17
11/3/2022 5:30:00 PM 9.52 49.136 0.039 7.14 1.73 11.14
11/3/2022 5:45:00 PM 9.5 49.1 0.039 7.13 1.61 11.13
11/3/2022 6:00:00 PM 9.48 49.064 0.039 7.12 1.65 11.1
11/3/2022 6:15:00 PM 9.46 49.028 0.039 7.12 1.73 11.08
11/3/2022 6:30:00 PM 9.43 48.974 0.039 7.11 1.97 11.07
11/3/2022 6:45:00 PM 9.39 48.902 0.037 7.1 3.07 11.06
11/3/2022 7:00:00 PM 9.35 48.83 0.039 7.1 1.69 11.06
11/3/2022 7:15:00 PM 9.31 48.758 0.039 7.1 1.64 11.06
11/3/2022 7:30:00 PM 9.26 48.668 0.038 7.09 3.05 11.07
11/3/2022 7:45:00 PM 9.22 48.596 0.039 7.09 1.68 11.09
11/3/2022 8:00:00 PM 9.17 48.506 0.039 7.09 1.67 11.09
11/3/2022 8:15:00 PM 9.13 48.434 0.039 7.09 1.75 11.1
11/3/2022 8:30:00 PM 9.09 48.362 0.039 7.08 1.66 11.11
11/3/2022 8:45:00 PM 9.06 48.308 0.039 7.08 1.75 11.12
11/3/2022 9:00:00 PM 9.03 48.254 0.039 7.08 1.74 11.13
11/3/2022 9:15:00 PM 9 48.2 0.039 7.08 1.67 11.15
11/3/2022 9:30:00 PM 8.97 48.146 0.039 7.08 1.7 11.14
11/3/2022 9:45:00 PM 8.94 48.092 0.039 7.08 1.67 11.15
11/3/2022 10:00:00 PM 8.92 48.056 0.038 7.08 2.99 11.16
11/3/2022 10:15:00 PM 8.89 48.002 0.039 7.08 1.65 11.18
11/3/2022 10:30:00 PM 8.86 47.948 0.039 7.08 1.68 11.18
11/3/2022 10:45:00 PM 8.83 47.894 0.039 7.08 1.63 11.19
11/3/2022 11:00:00 PM 8.8 47.84 0.039 7.08 1.66 11.2
11/3/2022 11:15:00 PM 8.77 47.786 0.039 7.07 1.69 11.2
11/3/2022 11:30:00 PM 8.74 47.732 0.039 7.07 1.69 11.22
11/3/2022 11:45:00 PM 8.71 47.678 0.039 7.07 1.72 11.22
11/4/2022 12:00:00 AM 8.68 47.624 0.039 7.07 1.69 11.22
11/4/2022 12:15:00 AM 8.63 47.534 0.039 7.08 1.82 11.25
11/4/2022 12:30:00 AM 8.6 47.48 0.039 7.08 1.71 11.25
11/4/2022 12:45:00 AM 8.56 47.408 0.039 7.08 1.71 11.26
11/4/2022 1:00:00 AM 8.52 47.336 0.039 7.08 1.67 11.28
11/4/2022 1:15:00 AM 8.48 47.264 0.039 7.08 1.68 11.3
11/4/2022 1:30:00 AM 8.44 47.192 0.039 7.08 1.69 11.31
11/4/2022 1:45:00 AM 8.39 47.102 0.04 7.08 1.74 11.31
11/4/2022 2:00:00 AM 8.35 47.03 0.038 7.08 3.09 11.33
11/4/2022 2:15:00 AM 8.3 46.94 0.04 7.08 1.75 11.34
11/4/2022 2:30:00 AM 8.26 46.868 0.04 7.08 1.68 11.36
11/4/2022 2:45:00 AM 8.21 46.778 0.04 7.08 1.65 11.37
11/4/2022 3:00:00 AM 8.16 46.688 0.04 7.08 1.71 11.39
11/4/2022 3:15:00 AM 8.12 46.616 0.04 7.08 1.72 11.4
11/4/2022 3:30:00 AM 8.07 46.526 0.04 7.08 1.81 11.41
11/4/2022 3:45:00 AM 8.02 46.436 0.04 7.08 1.69 11.43
11/4/2022 4:00:00 AM 7.98 46.364 0.04 7.08 1.73 11.45
11/4/2022 4:15:00 AM 7.93 46.274 0.04 7.08 1.73 11.47
11/4/2022 4:30:00 AM 7.88 46.184 0.04 7.08 1.74 11.48
11/4/2022 4:45:00 AM 7.83 46.094 0.04 7.08 1.73 11.5
11/4/2022 5:00:00 AM 7.78 46.004 0.04 7.08 1.74 11.52
11/4/2022 5:15:00 AM 7.74 45.932 0.04 7.09 1.72 11.53
11/4/2022 5:30:00 AM 7.69 45.842 0.04 7.09 1.67 11.56
11/4/2022 5:45:00 AM 7.64 45.752 0.04 7.09 1.69 11.58
11/4/2022 6:00:00 AM 7.6 45.68 0.039 7.08 3.21 11.59
11/4/2022 6:15:00 AM 7.55 45.59 0.039 7.08 3.15 11.61
11/4/2022 6:30:00 AM 7.5 45.5 0.04 7.09 1.7 11.61
11/4/2022 6:45:00 AM 7.46 45.428 0.04 7.09 1.7 11.64
11/4/2022 7:00:00 AM 7.41 45.338 0.04 7.09 1.67 11.66
11/4/2022 7:15:00 AM 7.36 45.248 0.04 7.09 1.71 11.67
11/4/2022 7:30:00 AM 7.32 45.176 0.04 7.09 1.77 11.69
11/4/2022 7:45:00 AM 7.27 45.086 0.04 7.09 1.71 11.7
11/4/2022 8:00:00 AM 7.23 45.014 0.04 7.09 1.64 11.74
11/4/2022 8:15:00 AM 7.19 44.942 0.04 7.09 1.72 11.76
11/4/2022 8:30:00 AM 7.16 44.888 0.04 7.1 1.69 11.8
11/4/2022 8:45:00 AM 7.13 44.834 0.04 7.1 1.67 11.85
11/4/2022 9:00:00 AM 7.11 44.798 0.04 7.11 1.74 11.89
11/4/2022 9:15:00 AM 7.09 44.762 0.04 7.11 1.66 11.92
11/4/2022 9:30:00 AM 7.07 44.726 0.04 7.12 1.74 11.95
11/4/2022 9:45:00 AM 7.05 44.69 0.04 7.12 1.73 11.97
11/4/2022 10:00:00 AM 7.03 44.654 0.04 7.12 1.71 11.98
11/4/2022 10:15:00 AM 7.02 44.636 0.04 7.13 1.69 12.01
11/4/2022 10:30:00 AM 7.03 44.654 0.04 7.13 1.73 12.02
11/4/2022 10:45:00 AM 7.06 44.708 0.038 7.13 2.9 12.03
11/4/2022 11:00:00 AM 7.1 44.78 0.039 7.14 1.68 12.04
11/4/2022 11:15:00 AM 7.16 44.888 0.039 7.15 1.72 12.06
11/4/2022 11:30:00 AM 7.25 45.05 0.039 7.15 1.68 12.05
11/4/2022 11:45:00 AM 7.37 45.266 0.039 7.16 1.68 12.05
11/4/2022 12:00:00 PM 7.53 45.554 0.039 7.16 1.71 12.03
11/4/2022 12:15:00 PM 7.73 45.914 0.039 7.17 1.7 12.01
11/4/2022 12:30:00 PM 7.96 46.328 0.039 7.18 1.68 11.96
11/4/2022 12:45:00 PM 8.21 46.778 0.039 7.18 1.75 11.91
11/4/2022 1:00:00 PM 8.5 47.3 0.039 7.19 1.64 11.85
11/4/2022 1:15:00 PM 8.73 47.714 0.039 7.19 1.63 11.79
11/4/2022 1:30:00 PM 8.97 48.146 0.039 7.19 1.64 11.73
11/4/2022 1:45:00 PM 9.14 48.452 0.039 7.19 1.65 11.68
11/4/2022 2:00:00 PM 9.3 48.74 0.039 7.2 1.64 11.63
11/4/2022 2:15:00 PM 9.37 48.866 0.039 7.2 1.69 11.59
11/4/2022 2:30:00 PM 9.4 48.92 0.039 7.2 1.69 11.56
11/4/2022 2:45:00 PM 9.46 49.028 0.038 7.2 1.77 11.52
11/4/2022 3:00:00 PM 9.51 49.118 0.038 7.2 1.59 11.48
11/4/2022 3:15:00 PM 9.62 49.316 0.036 7.2 2.96 11.42
11/4/2022 3:30:00 PM 9.66 49.388 0.038 7.2 1.65 11.39
11/4/2022 3:45:00 PM 9.72 49.496 0.036 7.2 3.06 11.35
11/4/2022 4:00:00 PM 9.77 49.586 0.038 7.2 1.6 11.33
11/4/2022 4:15:00 PM 9.82 49.676 0.038 7.2 1.63 11.3
11/4/2022 4:30:00 PM 9.86 49.748 0.038 7.19 1.59 11.25
11/4/2022 4:45:00 PM 9.89 49.802 0.038 7.19 1.61 11.19
11/4/2022 5:00:00 PM 9.92 49.856 0.038 7.18 1.63 11.17
11/4/2022 5:15:00 PM 9.94 49.892 0.038 7.17 1.58 11.12
11/4/2022 5:30:00 PM 9.95 49.91 0.038 7.17 1.6 11.09
11/4/2022 5:45:00 PM 9.95 49.91 0.039 7.15 1.6 11.04
11/4/2022 6:00:00 PM 9.93 49.874 0.039 7.14 1.72 11.01
11/4/2022 6:15:00 PM 9.9 49.82 0.039 7.13 1.67 10.97
11/4/2022 6:30:00 PM 9.87 49.766 0.039 7.1 1.69 10.95
11/4/2022 6:45:00 PM 9.84 49.712 0.039 7.11 1.69 10.94
11/4/2022 7:00:00 PM 9.82 49.676 0.039 7.1 1.64 10.92
11/4/2022 7:15:00 PM 9.79 49.622 0.039 7.1 1.68 10.92
11/4/2022 7:30:00 PM 9.76 49.568 0.039 7.09 1.65 10.93
11/4/2022 7:45:00 PM 9.74 49.532 0.039 7.09 1.67 10.92
11/4/2022 8:00:00 PM 9.71 49.478 0.039 7.09 1.65 10.92
11/4/2022 8:15:00 PM 9.69 49.442 0.039 7.09 1.66 10.93
11/4/2022 8:30:00 PM 9.68 49.424 0.039 7.09 2.68 10.93
11/4/2022 8:45:00 PM 9.67 49.406 0.039 7.08 1.95 10.93
11/4/2022 9:00:00 PM 9.66 49.388 0.039 7.08 1.73 10.92
11/4/2022 9:15:00 PM 9.64 49.352 0.037 7.08 3.04 10.93
11/4/2022 9:30:00 PM 9.64 49.352 0.039 7.08 1.68 10.92
11/4/2022 9:45:00 PM 9.63 49.334 0.039 7.08 1.71 10.92
11/4/2022 10:00:00 PM 9.63 49.334 0.039 7.08 1.76 10.93
11/4/2022 10:15:00 PM 9.62 49.316 0.039 7.08 1.7 10.91
11/4/2022 10:30:00 PM 9.61 49.298 0.037 7.07 3.01 10.91
11/4/2022 10:45:00 PM 9.6 49.28 0.039 7.08 1.64 10.92
11/4/2022 11:00:00 PM 9.6 49.28 0.039 7.07 1.67 10.9
11/4/2022 11:15:00 PM 9.59 49.262 0.039 7.07 3.11 10.93
11/4/2022 11:30:00 PM 9.58 49.244 0.039 7.07 1.68 10.93
11/4/2022 11:45:00 PM 9.57 49.226 0.039 7.07 1.76 10.92
11/5/2022 12:00:00 AM 9.56 49.208 0.039 7.07 1.7 10.93
11/5/2022 12:15:00 AM 9.54 49.172 0.037 7.07 2.97 10.93
11/5/2022 12:30:00 AM 9.52 49.136 0.039 7.07 1.65 10.93
11/5/2022 12:45:00 AM 9.51 49.118 0.039 7.07 1.65 10.95
11/5/2022 1:00:00 AM 9.49 49.082 0.04 7.07 1.76 10.94
11/5/2022 1:15:00 AM 9.47 49.046 0.04 7.07 1.8 10.94
11/5/2022 1:30:00 AM 9.45 49.01 0.04 7.07 1.7 10.95
11/5/2022 1:45:00 AM 9.43 48.974 0.04 7.07 1.8 10.95
11/5/2022 2:00:00 AM 9.41 48.938 0.04 7.07 1.75 10.96
11/5/2022 2:15:00 AM 9.38 48.884 0.04 7.07 1.76 10.96
11/5/2022 2:30:00 AM 9.36 48.848 0.04 7.07 1.83 10.97
11/5/2022 2:45:00 AM 9.33 48.794 0.039 7.07 3.11 10.98
11/5/2022 3:00:00 AM 9.32 48.776 0.04 7.07 1.72 10.99
11/5/2022 3:15:00 AM 9.29 48.722 0.04 7.07 1.77 11
11/5/2022 3:30:00 AM 9.26 48.668 0.04 7.07 1.92 11.01
11/5/2022 3:45:00 AM 9.24 48.632 0.04 7.07 1.72 11.02
11/5/2022 4:00:00 AM 9.22 48.596 0.04 7.07 1.71 11.02
11/5/2022 4:15:00 AM 9.21 48.578 0.04 7.07 1.74 11.03
11/5/2022 4:30:00 AM 9.19 48.542 0.038 7.07 2.93 11.03
11/5/2022 4:45:00 AM 9.16 48.488 0.04 7.07 1.72 11.04
11/5/2022 5:00:00 AM 9.14 48.452 0.039 7.07 3.12 11.05
11/5/2022 5:15:00 AM 9.12 48.416 0.04 7.07 1.86 11.05
11/5/2022 5:30:00 AM 9.1 48.38 0.04 7.07 1.81 11.05
11/5/2022 5:45:00 AM 9.08 48.344 0.04 7.07 1.96 11.06
11/5/2022 6:00:00 AM 9.07 48.326 0.04 7.07 1.72 11.07
11/5/2022 6:15:00 AM 9.05 48.29 0.04 7.07 1.71 11.08
11/5/2022 6:30:00 AM 9.04 48.272 0.04 7.07 1.73 11.08
11/5/2022 6:45:00 AM 9.03 48.254 0.04 7.07 1.68 11.08
11/5/2022 7:00:00 AM 9.01 48.218 0.04 7.07 1.73 11.09
11/5/2022 7:15:00 AM 9.01 48.218 0.04 7.07 1.78 11.09
11/5/2022 7:30:00 AM 9.02 48.236 0.04 7.07 1.75 11.09
11/5/2022 7:45:00 AM 9.03 48.254 0.04 7.07 1.67 11.09
11/5/2022 8:00:00 AM 9.04 48.272 0.04 7.07 1.7 11.09
11/5/2022 8:15:00 AM 9.05 48.29 0.04 7.07 1.66 11.1
11/5/2022 8:30:00 AM 9.07 48.326 0.04 7.07 1.72 11.12
11/5/2022 8:45:00 AM 9.08 48.344 0.04 7.08 1.77 11.14
11/5/2022 9:00:00 AM 9.11 48.398 0.04 7.08 1.74 11.15
11/5/2022 9:15:00 AM 9.13 48.434 0.04 7.09 1.73 11.17
11/5/2022 9:30:00 AM 9.16 48.488 0.04 7.1 1.7 11.2
11/5/2022 9:45:00 AM 9.2 48.56 0.04 7.1 1.68 11.23
11/5/2022 10:00:00 AM 9.25 48.65 0.04 7.11 1.74 11.27
11/5/2022 10:15:00 AM 9.3 48.74 0.04 7.12 1.77 11.27
11/5/2022 10:30:00 AM 9.35 48.83 0.04 7.12 1.68 11.29
11/5/2022 10:45:00 AM 9.41 48.938 0.04 7.13 1.72 11.3
11/5/2022 11:00:00 AM 9.48 49.064 0.039 7.14 1.76 11.29
11/5/2022 11:15:00 AM 9.57 49.226 0.039 7.15 1.77 11.34
11/5/2022 11:30:00 AM 9.68 49.424 0.039 7.16 1.77 11.32
11/5/2022 11:45:00 AM 9.8 49.64 0.039 7.16 1.73 11.31
11/5/2022 12:00:00 PM 9.93 49.874 0.039 7.18 1.73 11.29
11/5/2022 12:15:00 PM 10.05 50.09 0.039 7.19 1.81 11.26
11/5/2022 12:30:00 PM 10.23 50.414 0.039 7.2 1.75 11.24
11/5/2022 12:45:00 PM 10.35 50.63 0.039 7.2 1.77 11.2
11/5/2022 1:00:00 PM 10.42 50.756 0.039 7.2 1.75 11.13
11/5/2022 1:15:00 PM 10.5 50.9 0.039 7.2 1.74 11.09
11/5/2022 1:30:00 PM 10.58 51.044 0.039 7.2 1.66 11.05
11/5/2022 1:45:00 PM 10.71 51.278 0.039 7.21 1.71 11.06
11/5/2022 2:00:00 PM 10.85 51.53 0.039 7.21 1.82 11.03
11/5/2022 2:15:00 PM 10.99 51.782 0.039 7.22 1.71 10.99
11/5/2022 2:30:00 PM 11.09 51.962 0.039 7.21 1.72 10.95
11/5/2022 2:45:00 PM 11.14 52.052 0.039 7.21 1.75 10.92
11/5/2022 3:00:00 PM 11.2 52.16 0.039 7.21 1.67 10.89
11/5/2022 3:15:00 PM 11.25 52.25 0.039 7.21 1.64 10.83
11/5/2022 3:30:00 PM 11.3 52.34 0.039 7.19 1.64 10.75
11/5/2022 3:45:00 PM 11.35 52.43 0.039 7.19 1.43 10.71
11/5/2022 4:00:00 PM 11.46 52.628 0.039 7.19 1.45 10.7
11/5/2022 4:15:00 PM 11.55 52.79 0.039 7.19 1.49 10.7
11/5/2022 4:30:00 PM 11.61 52.898 0.039 7.2 1.55 10.7
11/5/2022 4:45:00 PM 11.65 52.97 0.039 7.19 1.46 10.66
11/5/2022 5:00:00 PM 11.68 53.024 0.039 7.18 1.5 10.61
11/5/2022 5:15:00 PM 11.69 53.042 0.039 7.18 1.48 10.56
11/5/2022 5:30:00 PM 11.71 53.078 0.039 7.17 1.49 10.51
11/5/2022 5:45:00 PM 11.71 53.078 0.039 7.15 1.49 10.44
11/5/2022 6:00:00 PM 11.73 53.114 0.039 7.14 1.46 10.41
11/5/2022 6:15:00 PM 11.73 53.114 0.037 7.13 2.85 10.37
11/5/2022 6:30:00 PM 11.74 53.132 0.039 7.12 1.53 10.33
11/5/2022 6:45:00 PM 11.75 53.15 0.039 7.12 1.49 10.31
11/5/2022 7:00:00 PM 11.76 53.168 0.039 7.11 1.48 10.29
11/5/2022 7:15:00 PM 11.78 53.204 0.037 7.11 2.75 10.29
11/5/2022 7:30:00 PM 11.8 53.24 0.039 7.1 1.56 10.26
11/5/2022 7:45:00 PM 11.81 53.258 0.039 7.1 1.5 10.26
11/5/2022 8:00:00 PM 11.83 53.294 0.039 7.1 1.74 10.25
11/5/2022 8:15:00 PM 11.84 53.312 0.039 7.09 1.58 10.24
11/5/2022 8:30:00 PM 11.85 53.33 0.04 7.09 1.56 10.23
11/5/2022 8:45:00 PM 11.86 53.348 0.04 7.09 1.53 10.23
11/5/2022 9:00:00 PM 11.86 53.348 0.04 7.09 1.53 10.23
11/5/2022 9:15:00 PM 11.86 53.348 0.04 7.09 1.64 10.22
11/5/2022 9:30:00 PM 11.86 53.348 0.04 7.09 1.53 10.21
11/5/2022 9:45:00 PM 11.86 53.348 0.04 7.09 1.61 10.21
11/5/2022 10:00:00 PM 11.86 53.348 0.038 7.09 2.79 10.21
11/5/2022 10:15:00 PM 11.87 53.366 0.04 7.09 1.99 10.21
11/5/2022 10:30:00 PM 11.88 53.384 0.04 7.09 1.49 10.2
11/5/2022 10:45:00 PM 11.88 53.384 0.04 7.09 1.57 10.21
11/5/2022 11:00:00 PM 11.89 53.402 0.04 7.09 1.54 10.21
11/5/2022 11:15:00 PM 11.91 53.438 0.04 7.09 1.48 10.21
11/5/2022 11:30:00 PM 11.92 53.456 0.04 7.09 1.66 10.2
11/5/2022 11:45:00 PM 11.93 53.474 0.039 7.08 2.9 10.19
11/6/2022 12:00:00 AM 11.94 53.492 0.04 7.09 1.6 10.19
11/6/2022 12:15:00 AM 11.97 53.546 0.04 7.08 1.53 10.19
11/6/2022 12:30:00 AM 11.99 53.582 0.04 7.09 1.67 10.18
11/6/2022 12:45:00 AM 12 53.6 0.04 7.08 1.57 10.17
11/6/2022 1:00:00 AM 12 53.6 0.04 7.09 1.52 10.17
11/6/2022 1:15:00 AM 12.01 53.618 0.038 7.08 2.79 10.17
11/6/2022 1:30:00 AM 12.02 53.636 0.04 7.08 1.69 10.16
11/6/2022 1:45:00 AM 12.04 53.672 0.04 7.08 1.58 10.16
11/6/2022 2:00:00 AM 12.06 53.708 0.04 7.09 1.6 10.16
11/6/2022 2:15:00 AM 12.08 53.744 0.04 7.09 1.53 10.15
11/6/2022 2:30:00 AM 12.1 53.78 0.04 7.09 1.54 10.14
11/6/2022 2:45:00 AM 12.12 53.816 0.04 7.09 1.55 10.14
11/6/2022 3:00:00 AM 12.15 53.87 0.04 7.09 1.58 10.14
11/6/2022 3:15:00 AM 12.19 53.942 0.04 7.09 1.58 10.12
11/6/2022 3:30:00 AM 12.23 54.014 0.04 7.09 1.89 10.12
11/6/2022 3:45:00 AM 12.28 54.104 0.04 7.09 1.64 10.11
11/6/2022 4:00:00 AM 12.33 54.194 0.04 7.1 1.62 10.11
11/6/2022 4:15:00 AM 12.36 54.248 0.04 7.1 1.74 10.09
11/6/2022 4:30:00 AM 12.38 54.284 0.04 7.1 1.59 10.09
11/6/2022 4:45:00 AM 12.41 54.338 0.04 7.1 1.57 10.09
11/6/2022 5:00:00 AM 12.42 54.356 0.04 7.1 1.63 10.08
11/6/2022 5:15:00 AM 12.43 54.374 0.04 7.1 1.63 10.07
11/6/2022 5:30:00 AM 12.45 54.41 0.04 7.1 1.55 10.09
11/6/2022 5:45:00 AM 12.46 54.428 0.04 7.1 1.61 10.08
11/6/2022 6:00:00 AM 12.47 54.446 0.04 7.1 1.76 10.07
11/6/2022 6:15:00 AM 12.46 54.428 0.04 7.09 1.67 10.08
11/6/2022 6:30:00 AM 12.45 54.41 0.04 7.09 1.61 10.08
11/6/2022 6:45:00 AM 12.45 54.41 0.04 7.09 1.62 10.08
11/6/2022 7:00:00 AM 12.46 54.428 0.04 7.09 1.61 10.09
11/6/2022 7:15:00 AM 12.46 54.428 0.04 7.09 1.69 10.08
11/6/2022 7:30:00 AM 12.47 54.446 0.04 7.09 1.58 10.09
11/6/2022 7:45:00 AM 12.47 54.446 0.04 7.09 1.56 10.09
11/6/2022 8:00:00 AM 12.48 54.464 0.04 7.09 1.68 10.1
11/6/2022 8:15:00 AM 12.48 54.464 0.04 7.09 1.64 10.12
11/6/2022 8:30:00 AM 12.48 54.464 0.04 7.1 1.61 10.13
11/6/2022 8:45:00 AM 12.5 54.5 0.038 7.1 2.9 10.15
11/6/2022 9:00:00 AM 12.52 54.536 0.04 7.11 1.66 10.21
11/6/2022 9:15:00 AM 12.56 54.608 0.04 7.12 1.58 10.28
11/6/2022 9:30:00 AM 12.6 54.68 0.04 7.14 1.58 10.34
11/6/2022 9:45:00 AM 12.66 54.788 0.04 7.16 1.62 10.38
11/6/2022 10:00:00 AM 12.73 54.914 0.038 7.17 2.86 10.41
11/6/2022 10:15:00 AM 12.79 55.022 0.04 7.16 9.88 10.39
11/6/2022 10:30:00 AM 12.83 55.094 0.04 7.18 1.43 10.43
11/6/2022 10:45:00 AM 12.87 55.166 0.04 7.19 1.47 10.4
11/6/2022 11:00:00 AM 12.89 55.202 0.04 7.18 1.4 10.35
11/6/2022 11:15:00 AM 12.93 55.274 0.04 7.18 1.42 10.36
11/6/2022 11:30:00 AM 13 55.4 0.039 7.19 1.45 10.39
11/6/2022 11:45:00 AM 13.14 55.652 0.039 7.21 1.45 10.42
11/6/2022 12:00:00 PM 13.32 55.976 0.039 7.22 1.39 10.42
11/6/2022 12:15:00 PM 13.44 56.192 0.039 7.22 1.49 10.4
11/6/2022 12:30:00 PM 13.55 56.39 0.039 7.23 1.44 10.38
11/6/2022 12:45:00 PM 13.7 56.66 0.039 7.23 1.45 10.37
11/6/2022 1:00:00 PM 13.89 57.002 0.039 7.23 1.39 10.34
11/6/2022 1:15:00 PM 14.1 57.38 0.039 7.23 1.37 10.3
11/6/2022 1:30:00 PM 14.3 57.74 0.039 7.24 1.4 10.26
11/6/2022 1:45:00 PM 14.37 57.866 0.039 7.24 1.49 10.2
11/6/2022 2:00:00 PM 14.42 57.956 0.039 7.24 1.38 10.19
11/6/2022 2:15:00 PM 14.39 57.902 0.039 7.23 1.41 10.15
11/6/2022 2:30:00 PM 14.38 57.884 0.039 7.23 1.46 10.11
11/6/2022 2:45:00 PM 14.41 57.938 0.039 7.22 1.43 10.1
11/6/2022 3:00:00 PM 14.43 57.974 0.039 7.22 1.43 10.08
11/6/2022 3:15:00 PM 14.49 58.082 0.039 7.22 1.37 10.05
11/6/2022 3:30:00 PM 14.54 58.172 0.039 7.22 1.39 10.03
11/6/2022 3:45:00 PM 14.57 58.226 0.039 7.22 1.42 9.99
11/6/2022 4:00:00 PM 14.6 58.28 0.039 7.21 1.56 9.95
11/6/2022 4:15:00 PM 14.62 58.316 0.039 7.19 1.41 9.9
11/6/2022 4:30:00 PM 14.63 58.334 0.039 7.19 1.51 9.85
11/6/2022 4:45:00 PM 14.64 58.352 0.039 7.18 1.45 9.84
11/6/2022 5:00:00 PM 14.67 58.406 0.039 7.17 1.44 9.81
11/6/2022 5:15:00 PM 14.67 58.406 0.039 7.16 1.48 9.77
11/6/2022 5:30:00 PM 14.66 58.388 0.039 7.15 1.37 9.74
11/6/2022 5:45:00 PM 14.64 58.352 0.039 7.15 1.41 9.71
11/6/2022 6:00:00 PM 14.61 58.298 0.039 7.13 1.44 9.67
11/6/2022 6:15:00 PM 14.56 58.208 0.039 7.12 1.49 9.64
11/6/2022 6:30:00 PM 14.52 58.136 0.04 7.11 1.54 9.61
11/6/2022 6:45:00 PM 14.47 58.046 0.04 7.1 1.45 9.6
11/6/2022 7:00:00 PM 14.43 57.974 0.04 7.1 1.47 9.6
11/6/2022 7:15:00 PM 14.38 57.884 0.04 7.09 1.45 9.61
11/6/2022 7:30:00 PM 14.36 57.848 0.04 7.09 1.49 9.61
11/6/2022 7:45:00 PM 14.33 57.794 0.04 7.09 1.56 9.6
11/6/2022 8:00:00 PM 14.31 57.758 0.04 7.09 1.62 9.6
11/6/2022 8:15:00 PM 14.29 57.722 0.04 7.09 1.76 9.63
11/6/2022 8:30:00 PM 14.27 57.686 0.04 7.08 1.62 9.62
11/6/2022 8:45:00 PM 14.26 57.668 0.04 7.08 1.5 9.62
11/6/2022 9:00:00 PM 14.25 57.65 0.04 7.07 1.46 9.61
11/6/2022 9:15:00 PM 14.24 57.632 0.04 7.07 1.63 9.62
11/6/2022 9:30:00 PM 14.26 57.668 0.04 7.08 1.52 9.62
11/6/2022 9:45:00 PM 14.27 57.686 0.04 7.08 1.52 9.62
11/6/2022 10:00:00 PM 14.27 57.686 0.04 7.08 1.67 9.63
11/6/2022 10:15:00 PM 14.27 57.686 0.04 7.08 1.66 9.62
11/6/2022 10:30:00 PM 14.25 57.65 0.04 7.07 1.6 9.61
11/6/2022 10:45:00 PM 14.23 57.614 0.04 7.07 1.58 9.62
11/6/2022 11:00:00 PM 14.23 57.614 0.04 7.07 1.78 9.63
11/6/2022 11:15:00 PM 14.22 57.596 0.04 7.07 1.59 9.64
11/6/2022 11:30:00 PM 14.2 57.56 0.04 7.07 1.56 9.65
11/6/2022 11:45:00 PM 14.18 57.524 0.04 7.06 1.56 9.64
11/7/2022 12:00:00 AM 14.16 57.488 0.04 7.06 1.59 9.65
11/7/2022 12:15:00 AM 14.13 57.434 0.04 7.05 1.78 9.65
11/7/2022 12:30:00 AM 14.1 57.38 0.04 7.05 1.55 9.66
11/7/2022 12:45:00 AM 14.08 57.344 0.041 7.05 1.63 9.66
11/7/2022 1:00:00 AM 14.06 57.308 0.041 7.05 1.58 9.67
11/7/2022 1:15:00 AM 14.02 57.236 0.041 7.04 1.59 9.68
11/7/2022 1:30:00 AM 13.97 57.146 0.041 7.04 1.6 9.7
11/7/2022 1:45:00 AM 13.94 57.092 0.041 7.04 1.63 9.71
11/7/2022 2:00:00 AM 13.91 57.038 0.041 7.04 1.61 9.7
11/7/2022 2:15:00 AM 13.89 57.002 0.041 7.04 1.57 9.71
11/7/2022 2:30:00 AM 13.87 56.966 0.041 7.04 1.64 9.71
11/7/2022 2:45:00 AM 13.84 56.912 0.041 7.04 1.69 9.71
11/7/2022 3:00:00 AM 13.8 56.84 0.041 7.04 1.6 9.73
11/7/2022 3:15:00 AM 13.77 56.786 0.041 7.04 1.64 9.75
11/7/2022 3:30:00 AM 13.74 56.732 0.041 7.04 1.65 9.75
11/7/2022 3:45:00 AM 13.69 56.642 0.041 7.04 1.64 9.77
11/7/2022 4:00:00 AM 13.64 56.552 0.041 7.04 1.63 9.77
11/7/2022 4:15:00 AM 13.59 56.462 0.041 7.04 1.64 9.79
11/7/2022 4:30:00 AM 13.53 56.354 0.041 7.05 1.65 9.8
11/7/2022 4:45:00 AM 13.48 56.264 0.041 7.04 1.59 9.8
11/7/2022 5:00:00 AM 13.42 56.156 0.041 7.05 1.6 9.84
11/7/2022 5:15:00 AM 13.36 56.048 0.041 7.05 1.73 9.84
11/7/2022 5:30:00 AM 13.3 55.94 0.041 7.05 1.65 9.88
11/7/2022 5:45:00 AM 13.23 55.814 0.041 7.05 1.68 9.89
11/7/2022 6:00:00 AM 13.17 55.706 0.041 7.06 1.73 9.91
11/7/2022 6:15:00 AM 13.1 55.58 0.041 7.06 1.65 9.93
11/7/2022 6:30:00 AM 13.03 55.454 0.041 7.06 1.64 9.94
11/7/2022 6:45:00 AM 12.95 55.31 0.041 7.07 1.74 9.97
11/7/2022 7:00:00 AM 12.88 55.184 0.041 7.07 1.68 9.99
11/7/2022 7:15:00 AM 12.81 55.058 0.041 7.07 1.69 10.01
11/7/2022 7:30:00 AM 12.74 54.932 0.041 7.07 2.17 10.04
11/7/2022 7:45:00 AM 12.66 54.788 0.041 7.08 1.54 10.07
11/7/2022 8:00:00 AM 12.59 54.662 0.041 7.07 1.5 10.09
11/7/2022 8:15:00 AM 12.51 54.518 0.041 7.08 1.52 10.12
11/7/2022 8:30:00 AM 12.44 54.392 0.041 7.09 1.58 10.17
11/7/2022 8:45:00 AM 12.37 54.266 0.041 7.1 1.57 10.21
11/7/2022 9:00:00 AM 12.31 54.158 0.041 7.1 1.52 10.26
11/7/2022 9:15:00 AM 12.25 54.05 0.041 7.1 1.53 10.3
11/7/2022 9:30:00 AM 12.18 53.924 0.041 7.11 1.59 10.34
11/7/2022 9:45:00 AM 12.12 53.816 0.039 7.11 3.01 10.37
11/7/2022 10:00:00 AM 12.07 53.726 0.041 7.12 1.54 10.4
11/7/2022 10:15:00 AM 12.01 53.618 0.041 7.13 1.51 10.43
11/7/2022 10:30:00 AM 11.98 53.564 0.041 7.13 1.6 10.46
11/7/2022 10:45:00 AM 11.96 53.528 0.041 7.14 1.51 10.49
11/7/2022 11:00:00 AM 11.96 53.528 0.04 7.15 1.53 10.53
11/7/2022 11:15:00 AM 11.97 53.546 0.04 7.16 1.5 10.57
11/7/2022 11:30:00 AM 11.99 53.582 0.04 7.17 1.56 10.62
11/7/2022 11:45:00 AM 12.03 53.654 0.039 7.18 3 10.64
11/7/2022 12:00:00 PM 12.1 53.78 0.04 7.19 1.53 10.65
11/7/2022 12:15:00 PM 12.19 53.942 0.04 7.2 1.51 10.67
11/7/2022 12:30:00 PM 12.31 54.158 0.04 7.21 1.59 10.69
11/7/2022 12:45:00 PM 12.47 54.446 0.04 7.22 1.5 10.68
11/7/2022 1:00:00 PM 12.67 54.806 0.04 7.23 1.49 10.67
11/7/2022 1:15:00 PM 12.84 55.112 0.04 7.23 1.62 10.65
11/7/2022 1:30:00 PM 13.06 55.508 0.039 7.24 1.56 10.54
11/7/2022 1:45:00 PM 13.01 55.418 0.039 7.24 1.48 10.51
11/7/2022 2:00:00 PM 12.96 55.328 0.039 7.23 1.49 10.5
11/7/2022 2:15:00 PM 12.94 55.292 0.039 7.23 1.53 10.49
11/7/2022 2:30:00 PM 12.9 55.22 0.039 7.22 1.51 10.46
11/7/2022 2:45:00 PM 12.86 55.148 0.039 7.22 1.51 10.43
11/7/2022 3:00:00 PM 12.82 55.076 0.039 7.21 1.65 10.41
11/7/2022 3:15:00 PM 12.77 54.986 0.039 7.2 1.57 10.36
11/7/2022 3:30:00 PM 12.71 54.878 0.039 7.19 1.55 10.36
11/7/2022 3:45:00 PM 12.65 54.77 0.04 7.18 1.52 10.33
11/7/2022 4:00:00 PM 12.6 54.68 0.04 7.17 1.59 10.31
11/7/2022 4:15:00 PM 12.55 54.59 0.04 7.16 1.92 10.3
11/7/2022 4:30:00 PM 12.49 54.482 0.04 7.16 1.59 10.29
11/7/2022 4:45:00 PM 12.42 54.356 0.04 7.15 1.56 10.29
11/7/2022 5:00:00 PM 12.35 54.23 0.04 7.13 1.55 10.28
11/7/2022 5:15:00 PM 12.26 54.068 0.04 7.13 1.49 10.28
11/7/2022 5:30:00 PM 12.17 53.906 0.04 7.13 1.64 10.28
11/7/2022 5:45:00 PM 12.08 53.744 0.04 7.12 1.63 10.28
11/7/2022 6:00:00 PM 11.98 53.564 0.04 7.12 1.57 10.31
11/7/2022 6:15:00 PM 11.88 53.384 0.04 7.12 1.59 10.34
11/7/2022 6:30:00 PM 11.78 53.204 0.04 7.11 1.67 10.35
11/7/2022 6:45:00 PM 11.67 53.006 0.04 7.11 1.62 10.37
11/7/2022 7:00:00 PM 11.56 52.808 0.04 7.11 1.6 10.39
11/7/2022 7:15:00 PM 11.45 52.61 0.04 7.11 1.69 10.43
11/7/2022 7:30:00 PM 11.36 52.448 0.04 7.11 1.62 10.46
11/7/2022 7:45:00 PM 11.26 52.268 0.04 7.11 1.54 10.49
11/7/2022 8:00:00 PM 11.17 52.106 0.04 7.1 1.58 10.51
11/7/2022 8:15:00 PM 11.09 51.962 0.04 7.1 1.63 10.54
11/7/2022 8:30:00 PM 11.01 51.818 0.04 7.1 1.54 10.57
11/7/2022 8:45:00 PM 10.95 51.71 0.04 7.1 1.88 10.58
11/7/2022 9:00:00 PM 10.89 51.602 0.04 7.1 1.58 10.61
11/7/2022 9:15:00 PM 10.82 51.476 0.04 7.1 2 10.64
11/7/2022 9:30:00 PM 10.75 51.35 0.04 7.1 1.67 10.65
11/7/2022 9:45:00 PM 10.68 51.224 0.04 7.1 1.63 10.67
11/7/2022 10:00:00 PM 10.61 51.098 0.04 7.1 1.69 10.69
11/7/2022 10:15:00 PM 10.54 50.972 0.04 7.1 1.81 10.72
11/7/2022 10:30:00 PM 10.46 50.828 0.04 7.1 1.76 10.75
11/7/2022 10:45:00 PM 10.39 50.702 0.04 7.1 1.88 10.77
11/7/2022 11:00:00 PM 10.32 50.576 0.04 7.1 1.67 10.79
11/7/2022 11:15:00 PM 10.26 50.468 0.04 7.1 1.71 10.8
11/7/2022 11:30:00 PM 10.2 50.36 0.04 7.1 1.74 10.82
11/7/2022 11:45:00 PM 10.14 50.252 0.04 7.1 1.62 10.84
11/8/2022 12:00:00 AM 10.07 50.126 0.04 7.11 1.61 10.87
11/8/2022 12:15:00 AM 10 50 0.04 7.11 3.07 10.9
11/8/2022 12:30:00 AM 9.94 49.892 0.04 7.11 2.86 10.92
11/8/2022 12:45:00 AM 9.88 49.784 0.04 7.11 1.65 10.95
11/8/2022 1:00:00 AM 9.82 49.676 0.04 7.11 1.67 10.95
11/8/2022 1:15:00 AM 9.74 49.532 0.038 7.11 2.96 10.99
11/8/2022 1:30:00 AM 9.68 49.424 0.04 7.11 1.66 10.99
11/8/2022 1:45:00 AM 9.6 49.28 0.041 7.11 1.67 11.02
11/8/2022 2:00:00 AM 9.53 49.154 0.041 7.12 1.63 11.05
11/8/2022 2:15:00 AM 9.45 49.01 0.038 7.11 3.05 11.07
11/8/2022 2:30:00 AM 9.38 48.884 0.041 7.11 1.65 11.1
11/8/2022 2:45:00 AM 9.3 48.74 0.041 7.12 1.66 11.13
11/8/2022 3:00:00 AM 9.23 48.614 0.04 7.11 2.96 11.14
11/8/2022 3:15:00 AM 9.15 48.47 0.041 7.12 1.64 11.17
11/8/2022 3:30:00 AM 9.07 48.326 0.041 7.12 2.05 11.19
11/8/2022 3:45:00 AM 8.99 48.182 0.041 7.12 1.62 11.22
11/8/2022 4:00:00 AM 8.91 48.038 0.041 7.12 1.71 11.25
11/8/2022 4:15:00 AM 8.83 47.894 0.041 7.12 1.67 11.28
11/8/2022 4:30:00 AM 8.75 47.75 0.04 7.12 3.07 11.3
11/8/2022 4:45:00 AM 8.68 47.624 0.041 7.12 1.62 11.33
11/8/2022 5:00:00 AM 8.6 47.48 0.041 7.12 1.79 11.35
11/8/2022 5:15:00 AM 8.52 47.336 0.041 7.12 1.7 11.38
11/8/2022 5:30:00 AM 8.44 47.192 0.041 7.12 1.74 11.41
11/8/2022 5:45:00 AM 8.37 47.066 0.041 7.12 1.68 11.43
11/8/2022 6:00:00 AM 8.29 46.922 0.041 7.12 1.64 11.46
11/8/2022 6:15:00 AM 8.21 46.778 0.039 7.12 3.2 11.49
11/8/2022 6:30:00 AM 8.14 46.652 0.041 7.12 1.65 11.51
11/8/2022 6:45:00 AM 8.06 46.508 0.041 7.12 1.76 11.54
11/8/2022 7:00:00 AM 7.99 46.382 0.041 7.12 1.69 11.57
11/8/2022 7:15:00 AM 7.93 46.274 0.041 7.12 1.68 11.61
11/8/2022 7:30:00 AM 7.88 46.184 0.041 7.13 1.68 11.67
11/8/2022 7:45:00 AM 7.85 46.13 0.041 7.13 1.63 11.72
11/8/2022 8:00:00 AM 7.79 46.022 0.041 7.14 1.7 11.76
11/8/2022 8:15:00 AM 7.74 45.932 0.041 7.14 1.64 11.8
11/8/2022 8:30:00 AM 7.69 45.842 0.041 7.15 1.79 11.85
11/8/2022 8:45:00 AM 7.65 45.77 0.04 7.16 1.76 11.88
11/8/2022 9:00:00 AM 7.61 45.698 0.04 7.16 1.73 11.91
11/8/2022 9:15:00 AM 7.57 45.626 0.04 7.16 1.69 11.93
11/8/2022 9:30:00 AM 7.56 45.608 0.04 7.17 1.7 11.97
11/8/2022 9:45:00 AM 7.57 45.626 0.04 7.18 1.9 11.99
11/8/2022 10:00:00 AM 7.59 45.662 0.04 7.18 1.68 12.02
11/8/2022 10:15:00 AM 7.62 45.716 0.04 7.18 1.62 12.03
11/8/2022 10:30:00 AM 7.67 45.806 0.04 7.19 1.65 12.05
11/8/2022 10:45:00 AM 7.75 45.95 0.04 7.2 1.67 12.06
11/8/2022 11:00:00 AM 7.85 46.13 0.04 7.2 1.62 12.08
11/8/2022 11:15:00 AM 7.99 46.382 0.04 7.21 1.73 12.05
11/8/2022 11:30:00 AM 8.15 46.67 0.038 7.21 3.14 12.03
11/8/2022 11:45:00 AM 8.36 47.048 0.04 7.22 1.71 12
11/8/2022 12:00:00 PM 8.57 47.426 0.04 7.22 1.64 11.96
11/8/2022 12:15:00 PM 8.78 47.804 0.039 7.23 8.69 11.91
11/8/2022 12:30:00 PM 8.95 48.11 0.039 7.23 1.63 11.88
11/8/2022 12:45:00 PM 9.08 48.344 0.039 7.23 1.54 11.84
11/8/2022 1:00:00 PM 9.16 48.488 0.039 7.23 1.79 11.8
11/8/2022 1:15:00 PM 9.16 48.488 0.039 7.23 1.54 11.78
11/8/2022 1:30:00 PM 9.12 48.416 0.039 7.23 1.6 11.77
11/8/2022 1:45:00 PM 9.11 48.398 0.039 7.23 1.59 11.72
11/8/2022 2:00:00 PM 9.08 48.344 0.039 7.22 1.5 11.71
11/8/2022 2:15:00 PM 9.11 48.398 0.039 7.23 1.59 11.67
11/8/2022 2:30:00 PM 9.13 48.434 0.039 7.22 1.52 11.64
11/8/2022 2:45:00 PM 9.13 48.434 0.038 7.22 2.99 11.6
11/8/2022 3:00:00 PM 9.11 48.398 0.039 7.21 1.56 11.56
11/8/2022 3:15:00 PM 9.1 48.38 0.039 7.2 1.49 11.52
11/8/2022 3:30:00 PM 9.09 48.362 0.039 7.2 1.49 11.5
11/8/2022 3:45:00 PM 9.08 48.344 0.039 7.19 1.54 11.48
11/8/2022 4:00:00 PM 9.05 48.29 0.039 7.18 1.56 11.46
11/8/2022 4:15:00 PM 9.03 48.254 0.039 7.18 1.54 11.44
11/8/2022 4:30:00 PM 9.01 48.218 0.039 7.17 1.48 11.43
11/8/2022 4:45:00 PM 8.97 48.146 0.039 7.17 1.6 11.42
11/8/2022 5:00:00 PM 8.93 48.074 0.04 7.16 1.52 11.4
11/8/2022 5:15:00 PM 8.88 47.984 0.04 7.15 1.57 11.39
11/8/2022 5:30:00 PM 8.83 47.894 0.04 7.15 1.55 11.37
11/8/2022 5:45:00 PM 8.77 47.786 0.04 7.14 1.56 11.38
11/8/2022 6:00:00 PM 8.71 47.678 0.04 7.14 1.72 11.38
11/8/2022 6:15:00 PM 8.65 47.57 0.04 7.13 1.66 11.4
11/8/2022 6:30:00 PM 8.57 47.426 0.04 7.13 1.54 11.42
11/8/2022 6:45:00 PM 8.5 47.3 0.04 7.13 1.6 11.43
11/8/2022 7:00:00 PM 8.42 47.156 0.04 7.12 1.61 11.45
11/8/2022 7:15:00 PM 8.35 47.03 0.04 7.12 1.65 11.47
11/8/2022 7:30:00 PM 8.27 46.886 0.04 7.12 1.57 11.49
11/8/2022 7:45:00 PM 8.21 46.778 0.04 7.12 1.68 11.51
11/8/2022 8:00:00 PM 8.14 46.652 0.04 7.12 1.64 11.54
11/8/2022 8:15:00 PM 8.07 46.526 0.04 7.12 1.61 11.55
11/8/2022 8:30:00 PM 8.02 46.436 0.04 7.11 1.6 11.57
11/8/2022 8:45:00 PM 7.96 46.328 0.04 7.11 1.58 11.59
11/8/2022 9:00:00 PM 7.9 46.22 0.04 7.11 1.65 11.61
11/8/2022 9:15:00 PM 7.84 46.112 0.04 7.11 1.63 11.63
11/8/2022 9:30:00 PM 7.79 46.022 0.04 7.11 1.64 11.65
11/8/2022 9:45:00 PM 7.74 45.932 0.04 7.11 1.63 11.66
11/8/2022 10:00:00 PM 7.69 45.842 0.04 7.11 1.57 11.67
11/8/2022 10:15:00 PM 7.63 45.734 0.04 7.11 1.61 11.68
11/8/2022 10:30:00 PM 7.57 45.626 0.04 7.11 1.65 11.71
11/8/2022 10:45:00 PM 7.51 45.518 0.04 7.11 1.67 11.73
11/8/2022 11:00:00 PM 7.46 45.428 0.04 7.11 1.59 11.74
11/8/2022 11:15:00 PM 7.4 45.32 0.04 7.11 1.65 11.77
11/8/2022 11:30:00 PM 7.35 45.23 0.04 7.11 1.63 11.78
11/8/2022 11:45:00 PM 7.29 45.122 0.04 7.11 1.61 11.8
11/9/2022 12:00:00 AM 7.23 45.014 0.04 7.11 1.63 11.83
11/9/2022 12:15:00 AM 7.17 44.906 0.04 7.11 1.59 11.85
11/9/2022 12:30:00 AM 7.11 44.798 0.04 7.11 1.59 11.87
11/9/2022 12:45:00 AM 7.05 44.69 0.04 7.11 1.6 11.88
11/9/2022 1:00:00 AM 6.99 44.582 0.04 7.11 1.66 11.91
11/9/2022 1:15:00 AM 6.93 44.474 0.04 7.11 1.64 11.93
11/9/2022 1:30:00 AM 6.86 44.348 0.039 7.12 3.07 11.95
11/9/2022 1:45:00 AM 6.81 44.258 0.04 7.12 1.65 11.98
11/9/2022 2:00:00 AM 6.74 44.132 0.04 7.12 1.97 12
11/9/2022 2:15:00 AM 6.68 44.024 0.04 7.12 1.65 12.02
11/9/2022 2:30:00 AM 6.62 43.916 0.04 7.12 1.6 12.04
11/9/2022 2:45:00 AM 6.56 43.808 0.04 7.12 2.99 12.05
11/9/2022 3:00:00 AM 6.51 43.718 0.04 7.12 1.62 12.08
11/9/2022 3:15:00 AM 6.45 43.61 0.041 7.12 1.72 12.1
11/9/2022 3:30:00 AM 6.39 43.502 0.041 7.12 1.78 12.13
11/9/2022 3:45:00 AM 6.33 43.394 0.041 7.12 1.58 12.14
11/9/2022 4:00:00 AM 6.28 43.304 0.041 7.12 1.67 12.16
11/9/2022 4:15:00 AM 6.22 43.196 0.041 7.12 1.62 12.18
11/9/2022 4:30:00 AM 6.16 43.088 0.038 7.12 3.12 12.21
11/9/2022 4:45:00 AM 6.1 42.98 0.041 7.12 1.61 12.22
11/9/2022 5:00:00 AM 6.05 42.89 0.041 7.12 1.61 12.24
11/9/2022 5:15:00 AM 6 42.8 0.041 7.12 1.66 12.26
11/9/2022 5:30:00 AM 5.93 42.674 0.04 7.12 2.91 12.27
11/9/2022 5:45:00 AM 5.88 42.584 0.04 7.12 3.09 12.29
11/9/2022 6:00:00 AM 5.82 42.476 0.039 7.12 2.92 12.32
11/9/2022 6:15:00 AM 5.77 42.386 0.041 7.12 1.75 12.34
11/9/2022 6:30:00 AM 5.72 42.296 0.041 7.12 1.59 12.36
11/9/2022 6:45:00 AM 5.66 42.188 0.041 7.13 1.68 12.39
11/9/2022 7:00:00 AM 5.61 42.098 0.04 7.12 3.01 12.41
11/9/2022 7:15:00 AM 5.56 42.008 0.041 7.12 1.66 12.44
11/9/2022 7:30:00 AM 5.52 41.936 0.039 7.13 3.05 12.48
11/9/2022 7:45:00 AM 5.47 41.846 0.04 7.13 3.08 12.52
11/9/2022 8:00:00 AM 5.43 41.774 0.038 7.14 2.98 12.57
11/9/2022 8:15:00 AM 5.39 41.702 0.038 7.09 2.97 12.59
11/9/2022 8:30:00 AM 5.36 41.648 0.041 7.09 1.63 12.63
11/9/2022 8:45:00 AM 5.32 41.576 0.04 7.09 2.91 12.66
11/9/2022 9:00:00 AM 5.28 41.504 0.038 7.1 3.27 12.69
11/9/2022 9:15:00 AM 5.26 41.468 0.04 7.11 1.68 12.71
11/9/2022 9:30:00 AM 5.25 41.45 0.04 7.11 3.08 12.74
11/9/2022 9:45:00 AM 5.25 41.45 0.04 7.13 1.64 12.77
11/9/2022 10:00:00 AM 5.28 41.504 0.04 7.14 1.69 12.79
11/9/2022 10:15:00 AM 5.33 41.594 0.04 7.15 1.68 12.79
11/9/2022 10:30:00 AM 5.39 41.702 0.04 7.17 1.69 12.82
11/9/2022 10:45:00 AM 5.49 41.882 0.039 7.18 2.99 12.82
11/9/2022 11:00:00 AM 5.62 42.116 0.038 7.19 3.05 12.81
11/9/2022 11:15:00 AM 5.77 42.386 0.04 7.2 1.61 12.79
11/9/2022 11:30:00 AM 5.96 42.728 0.04 7.2 1.59 12.75
11/9/2022 11:45:00 AM 6.2 43.16 0.04 7.21 1.56 12.7
11/9/2022 12:00:00 PM 6.43 43.574 0.04 7.22 1.57 12.65
11/9/2022 12:15:00 PM 6.66 43.988 0.04 7.22 1.6 12.59
11/9/2022 12:30:00 PM 6.79 44.222 0.039 7.22 1.62 12.54
11/9/2022 12:45:00 PM 6.88 44.384 0.039 7.23 1.78 12.53
11/9/2022 1:00:00 PM 6.98 44.564 0.038 7.22 2.89 12.49
11/9/2022 1:15:00 PM 7.01 44.618 0.039 7.23 1.64 12.46
11/9/2022 1:30:00 PM 7 44.6 0.039 7.22 1.64 12.43
11/9/2022 1:45:00 PM 7.01 44.618 0.038 7.22 2.88 12.4
11/9/2022 2:00:00 PM 7.02 44.636 0.039 7.23 1.66 12.37
11/9/2022 2:15:00 PM 7.05 44.69 0.039 7.23 1.63 12.34
11/9/2022 2:30:00 PM 7.11 44.798 0.039 7.23 1.65 12.32
11/9/2022 2:45:00 PM 7.17 44.906 0.039 7.23 1.68 12.28
11/9/2022 3:00:00 PM 7.19 44.942 0.039 7.22 1.62 12.23
11/9/2022 3:15:00 PM 7.19 44.942 0.039 7.22 1.63 12.17
11/9/2022 3:30:00 PM 7.2 44.96 0.039 7.21 1.64 12.13
11/9/2022 3:45:00 PM 7.2 44.96 0.039 7.2 1.62 12.08
11/9/2022 4:00:00 PM 7.21 44.978 0.038 7.19 3.23 12.05
11/9/2022 4:15:00 PM 7.2 44.96 0.039 7.19 1.63 12.03
11/9/2022 4:30:00 PM 7.19 44.942 0.039 7.18 1.65 11.99
11/9/2022 4:45:00 PM 7.18 44.924 0.039 7.18 3.09 11.97
11/9/2022 5:00:00 PM 7.15 44.87 0.039 7.17 1.71 11.95
11/9/2022 5:15:00 PM 7.13 44.834 0.039 7.16 1.65 11.92
11/9/2022 5:30:00 PM 7.09 44.762 0.04 7.15 1.7 11.92
11/9/2022 5:45:00 PM 7.06 44.708 0.04 7.15 1.65 11.91
11/9/2022 6:00:00 PM 7.01 44.618 0.04 7.14 1.69 11.92
11/9/2022 6:15:00 PM 6.97 44.546 0.04 7.14 1.79 11.91
11/9/2022 6:30:00 PM 6.91 44.438 0.038 7.14 3.06 11.93
11/9/2022 6:45:00 PM 6.86 44.348 0.038 7.13 3.05 11.93
11/9/2022 7:00:00 PM 6.81 44.258 0.04 7.13 1.69 11.95
11/9/2022 7:15:00 PM 6.76 44.168 0.04 7.13 1.7 11.97
11/9/2022 7:30:00 PM 6.7 44.06 0.038 7.12 3.19 11.97
11/9/2022 7:45:00 PM 6.65 43.97 0.04 7.13 1.75 11.99
11/9/2022 8:00:00 PM 6.6 43.88 0.04 7.13 1.68 12
11/9/2022 8:15:00 PM 6.55 43.79 0.039 7.12 3.22 12.02
11/9/2022 8:30:00 PM 6.51 43.718 0.04 7.12 1.73 12.03
11/9/2022 8:45:00 PM 6.46 43.628 0.04 7.12 1.7 12.05
11/9/2022 9:00:00 PM 6.42 43.556 0.04 7.12 1.72 12.07
11/9/2022 9:15:00 PM 6.39 43.502 0.04 7.12 1.79 12.07
11/9/2022 9:30:00 PM 6.34 43.412 0.04 7.12 1.82 12.08
11/9/2022 9:45:00 PM 6.31 43.358 0.04 7.12 1.74 12.09
11/9/2022 10:00:00 PM 6.27 43.286 0.04 7.11 1.7 12.11
11/9/2022 10:15:00 PM 6.23 43.214 0.04 7.11 1.72 12.12
11/9/2022 10:30:00 PM 6.19 43.142 0.04 7.11 1.7 12.14
11/9/2022 10:45:00 PM 6.15 43.07 0.04 7.11 1.7 12.15
11/9/2022 11:00:00 PM 6.11 42.998 0.04 7.11 1.72 12.16
11/9/2022 11:15:00 PM 6.07 42.926 0.04 7.11 1.72 12.18
11/9/2022 11:30:00 PM 6.03 42.854 0.04 7.11 1.69 12.19
11/9/2022 11:45:00 PM 5.99 42.782 0.04 7.11 1.74 12.21
11/10/2022 12:00:00 AM 5.95 42.71 0.04 7.11 1.71 12.21
11/10/2022 12:15:00 AM 5.9 42.62 0.039 7.11 2.98 12.23
11/10/2022 12:30:00 AM 5.86 42.548 0.04 7.11 1.84 12.23
11/10/2022 12:45:00 AM 5.82 42.476 0.04 7.11 1.71 12.26
11/10/2022 1:00:00 AM 5.77 42.386 0.04 7.11 1.7 12.27
11/10/2022 1:15:00 AM 5.73 42.314 0.04 7.11 1.78 12.29
11/10/2022 1:30:00 AM 5.69 42.242 0.04 7.11 1.73 12.31
11/10/2022 1:45:00 AM 5.65 42.17 0.04 7.11 1.71 12.32
11/10/2022 2:00:00 AM 5.61 42.098 0.04 7.11 1.69 12.33
11/10/2022 2:15:00 AM 5.56 42.008 0.038 7.11 3.08 12.34
11/10/2022 2:30:00 AM 5.53 41.954 0.04 7.11 1.72 12.35
11/10/2022 2:45:00 AM 5.49 41.882 0.038 7.11 2.98 12.36
11/10/2022 3:00:00 AM 5.45 41.81 0.038 7.11 3.13 12.38
11/10/2022 3:15:00 AM 5.41 41.738 0.04 7.11 1.77 12.4
11/10/2022 3:30:00 AM 5.36 41.648 0.039 7.11 3.08 12.41
11/10/2022 3:45:00 AM 5.33 41.594 0.04 7.11 1.67 12.42
11/10/2022 4:00:00 AM 5.29 41.522 0.04 7.11 1.73 12.44
11/10/2022 4:15:00 AM 5.25 41.45 0.04 7.11 1.74 12.45
11/10/2022 4:30:00 AM 5.21 41.378 0.04 7.11 2.94 12.47
11/10/2022 4:45:00 AM 5.17 41.306 0.04 7.11 1.7 12.48
11/10/2022 5:00:00 AM 5.13 41.234 0.04 7.11 3.12 12.5
11/10/2022 5:15:00 AM 5.09 41.162 0.041 7.11 1.7 12.52
11/10/2022 5:30:00 AM 5.06 41.108 0.041 7.11 1.77 12.52
11/10/2022 5:45:00 AM 5.02 41.036 0.041 7.11 1.71 12.55
11/10/2022 6:00:00 AM 4.98 40.964 0.04 7.11 3.11 12.55
11/10/2022 6:15:00 AM 4.94 40.892 0.041 7.11 1.75 12.57
11/10/2022 6:30:00 AM 4.9 40.82 0.039 7.11 3 12.58
11/10/2022 6:45:00 AM 4.86 40.748 0.038 7.11 2.99 12.6
11/10/2022 7:00:00 AM 4.82 40.676 0.041 7.12 1.7 12.62
11/10/2022 7:15:00 AM 4.79 40.622 0.04 7.12 3.11 12.65
11/10/2022 7:30:00 AM 4.76 40.568 0.038 7.12 3.02 12.69
11/10/2022 7:45:00 AM 4.73 40.514 0.04 7.12 3.02 12.72
11/10/2022 8:00:00 AM 4.7 40.46 0.04 7.13 2.98 12.76
11/10/2022 8:15:00 AM 4.68 40.424 0.04 7.13 3.09 12.79
11/10/2022 8:30:00 AM 4.66 40.388 0.04 7.14 1.71 12.81
11/10/2022 8:45:00 AM 4.63 40.334 0.038 7.14 3.03 12.84
11/10/2022 9:00:00 AM 4.61 40.298 0.04 7.15